<?xml version="1.0" encoding="UTF-8" standalone="no" ?>
<gpx xmlns="http://www.topografix.com/GPX/1/1" xmlns:xsi="http://www.w3.org/2001/XMLSchema-instance" xsi:schemaLocation="http://www.topografix.com/GPX/1/1 http://www.topografix.com/GPX/1/1/gpx.xsd" version="1.1" creator="VisuGPX - https://www.visugpx.com">
  <metadata>
    <name>rocamadour boucle chemin du pelerin etc.depart aire de camping car </name>
    <desc><![CDATA[[b][i][url][img][/img][/url][/i][/b]]]></desc>
  </metadata>
  <trk>
    <name><![CDATA[Rocamadour-boucle-2018-09-29-161604]]></name>
    <trkseg>
      <trkpt lat="44.802" lon="1.63089">
        <ele>264</ele>
        <time>2018-09-29T08:40:00Z</time>
      </trkpt>
      <trkpt lat="44.80205" lon="1.63077">
        <ele>263</ele>
        <time>2018-09-29T08:40:12Z</time>
      </trkpt>
      <trkpt lat="44.80207" lon="1.63064">
        <ele>262</ele>
        <time>2018-09-29T08:40:20Z</time>
      </trkpt>
      <trkpt lat="44.80213" lon="1.63055">
        <ele>259</ele>
        <time>2018-09-29T08:40:28Z</time>
      </trkpt>
      <trkpt lat="44.80212" lon="1.63042">
        <ele>258</ele>
        <time>2018-09-29T08:40:35Z</time>
      </trkpt>
      <trkpt lat="44.80213" lon="1.63029">
        <ele>255</ele>
        <time>2018-09-29T08:41:43Z</time>
      </trkpt>
      <trkpt lat="44.80212" lon="1.63016">
        <ele>260</ele>
        <time>2018-09-29T08:41:50Z</time>
      </trkpt>
      <trkpt lat="44.80214" lon="1.63002">
        <ele>263</ele>
        <time>2018-09-29T08:41:57Z</time>
      </trkpt>
      <trkpt lat="44.80214" lon="1.62989">
        <ele>263</ele>
        <time>2018-09-29T08:42:06Z</time>
      </trkpt>
      <trkpt lat="44.80214" lon="1.62975">
        <ele>265</ele>
        <time>2018-09-29T08:42:15Z</time>
      </trkpt>
      <trkpt lat="44.80216" lon="1.62961">
        <ele>266</ele>
        <time>2018-09-29T08:42:24Z</time>
      </trkpt>
      <trkpt lat="44.80219" lon="1.62948">
        <ele>265</ele>
        <time>2018-09-29T08:42:33Z</time>
      </trkpt>
      <trkpt lat="44.80223" lon="1.62935">
        <ele>262</ele>
        <time>2018-09-29T08:42:41Z</time>
      </trkpt>
      <trkpt lat="44.80225" lon="1.62921">
        <ele>261</ele>
        <time>2018-09-29T08:42:52Z</time>
      </trkpt>
      <trkpt lat="44.80227" lon="1.62907">
        <ele>263</ele>
        <time>2018-09-29T08:43:03Z</time>
      </trkpt>
      <trkpt lat="44.80228" lon="1.62893">
        <ele>261</ele>
        <time>2018-09-29T08:43:16Z</time>
      </trkpt>
      <trkpt lat="44.80229" lon="1.62879">
        <ele>261</ele>
        <time>2018-09-29T08:43:25Z</time>
      </trkpt>
      <trkpt lat="44.80233" lon="1.62865">
        <ele>262</ele>
        <time>2018-09-29T08:43:41Z</time>
      </trkpt>
      <trkpt lat="44.80236" lon="1.62851">
        <ele>261</ele>
        <time>2018-09-29T08:43:47Z</time>
      </trkpt>
      <trkpt lat="44.80238" lon="1.62839">
        <ele>262</ele>
        <time>2018-09-29T08:43:56Z</time>
      </trkpt>
      <trkpt lat="44.80242" lon="1.62827">
        <ele>262</ele>
        <time>2018-09-29T08:44:04Z</time>
      </trkpt>
      <trkpt lat="44.8025" lon="1.62819">
        <ele>260</ele>
        <time>2018-09-29T08:44:13Z</time>
      </trkpt>
      <trkpt lat="44.80257" lon="1.62808">
        <ele>260</ele>
        <time>2018-09-29T08:44:22Z</time>
      </trkpt>
      <trkpt lat="44.80266" lon="1.62804">
        <ele>259</ele>
        <time>2018-09-29T08:44:30Z</time>
      </trkpt>
      <trkpt lat="44.80275" lon="1.62804">
        <ele>258</ele>
        <time>2018-09-29T08:44:38Z</time>
      </trkpt>
      <trkpt lat="44.80285" lon="1.62805">
        <ele>261</ele>
        <time>2018-09-29T08:44:47Z</time>
      </trkpt>
      <trkpt lat="44.80292" lon="1.62814">
        <ele>263</ele>
        <time>2018-09-29T08:44:55Z</time>
      </trkpt>
      <trkpt lat="44.80301" lon="1.62819">
        <ele>266</ele>
        <time>2018-09-29T08:45:04Z</time>
      </trkpt>
      <trkpt lat="44.8031" lon="1.62823">
        <ele>266</ele>
        <time>2018-09-29T08:45:15Z</time>
      </trkpt>
      <trkpt lat="44.8032" lon="1.62821">
        <ele>264</ele>
        <time>2018-09-29T08:45:24Z</time>
      </trkpt>
      <trkpt lat="44.80325" lon="1.62809">
        <ele>264</ele>
        <time>2018-09-29T08:45:33Z</time>
      </trkpt>
      <trkpt lat="44.8033" lon="1.62798">
        <ele>263</ele>
        <time>2018-09-29T08:45:41Z</time>
      </trkpt>
      <trkpt lat="44.80338" lon="1.6279">
        <ele>260</ele>
        <time>2018-09-29T08:46:04Z</time>
      </trkpt>
      <trkpt lat="44.80345" lon="1.62778">
        <ele>260</ele>
        <time>2018-09-29T08:46:13Z</time>
      </trkpt>
      <trkpt lat="44.8035" lon="1.62767">
        <ele>257</ele>
        <time>2018-09-29T08:46:21Z</time>
      </trkpt>
      <trkpt lat="44.80355" lon="1.62756">
        <ele>257</ele>
        <time>2018-09-29T08:46:28Z</time>
      </trkpt>
      <trkpt lat="44.80359" lon="1.62744">
        <ele>260</ele>
        <time>2018-09-29T08:46:37Z</time>
      </trkpt>
      <trkpt lat="44.80363" lon="1.62732">
        <ele>256</ele>
        <time>2018-09-29T08:46:45Z</time>
      </trkpt>
      <trkpt lat="44.80368" lon="1.62721">
        <ele>255</ele>
        <time>2018-09-29T08:46:53Z</time>
      </trkpt>
      <trkpt lat="44.80375" lon="1.62711">
        <ele>256</ele>
        <time>2018-09-29T08:46:59Z</time>
      </trkpt>
      <trkpt lat="44.80383" lon="1.62706">
        <ele>254</ele>
        <time>2018-09-29T08:47:07Z</time>
      </trkpt>
      <trkpt lat="44.80392" lon="1.62705">
        <ele>253</ele>
        <time>2018-09-29T08:47:16Z</time>
      </trkpt>
      <trkpt lat="44.80396" lon="1.62693">
        <ele>251</ele>
        <time>2018-09-29T08:47:26Z</time>
      </trkpt>
      <trkpt lat="44.80402" lon="1.62684">
        <ele>251</ele>
        <time>2018-09-29T08:47:34Z</time>
      </trkpt>
      <trkpt lat="44.80397" lon="1.62671">
        <ele>252</ele>
        <time>2018-09-29T08:47:41Z</time>
      </trkpt>
      <trkpt lat="44.804" lon="1.62659">
        <ele>250</ele>
        <time>2018-09-29T08:47:49Z</time>
      </trkpt>
      <trkpt lat="44.80401" lon="1.62644">
        <ele>250</ele>
        <time>2018-09-29T08:47:58Z</time>
      </trkpt>
      <trkpt lat="44.80406" lon="1.62633">
        <ele>250</ele>
        <time>2018-09-29T08:48:06Z</time>
      </trkpt>
      <trkpt lat="44.8041" lon="1.62622">
        <ele>249</ele>
        <time>2018-09-29T08:48:17Z</time>
      </trkpt>
      <trkpt lat="44.80419" lon="1.62616">
        <ele>252</ele>
        <time>2018-09-29T08:48:36Z</time>
      </trkpt>
      <trkpt lat="44.80428" lon="1.62611">
        <ele>253</ele>
        <time>2018-09-29T08:48:43Z</time>
      </trkpt>
      <trkpt lat="44.80439" lon="1.62612">
        <ele>255</ele>
        <time>2018-09-29T08:48:56Z</time>
      </trkpt>
      <trkpt lat="44.80435" lon="1.62624">
        <ele>255</ele>
        <time>2018-09-29T08:49:19Z</time>
      </trkpt>
      <trkpt lat="44.80417" lon="1.62625">
        <ele>256</ele>
        <time>2018-09-29T08:49:34Z</time>
      </trkpt>
      <trkpt lat="44.80408" lon="1.62625">
        <ele>260</ele>
        <time>2018-09-29T08:49:44Z</time>
      </trkpt>
      <trkpt lat="44.80418" lon="1.62621">
        <ele>259</ele>
        <time>2018-09-29T08:49:45Z</time>
      </trkpt>
      <trkpt lat="44.80428" lon="1.62617">
        <ele>263</ele>
        <time>2018-09-29T08:49:47Z</time>
      </trkpt>
      <trkpt lat="44.80435" lon="1.62601">
        <ele>266</ele>
        <time>2018-09-29T08:49:49Z</time>
      </trkpt>
      <trkpt lat="44.80442" lon="1.6261">
        <ele>259</ele>
        <time>2018-09-29T08:49:54Z</time>
      </trkpt>
      <trkpt lat="44.80451" lon="1.62606">
        <ele>258</ele>
        <time>2018-09-29T08:50:06Z</time>
      </trkpt>
      <trkpt lat="44.80439" lon="1.62604">
        <ele>253</ele>
        <time>2018-09-29T08:51:13Z</time>
      </trkpt>
      <trkpt lat="44.80432" lon="1.62613">
        <ele>253</ele>
        <time>2018-09-29T08:52:06Z</time>
      </trkpt>
      <trkpt lat="44.80424" lon="1.62618">
        <ele>249</ele>
        <time>2018-09-29T08:52:13Z</time>
      </trkpt>
      <trkpt lat="44.80414" lon="1.62621">
        <ele>254</ele>
        <time>2018-09-29T08:52:19Z</time>
      </trkpt>
      <trkpt lat="44.8041" lon="1.62606">
        <ele>253</ele>
        <time>2018-09-29T08:52:53Z</time>
      </trkpt>
      <trkpt lat="44.80415" lon="1.62594">
        <ele>249</ele>
        <time>2018-09-29T08:52:59Z</time>
      </trkpt>
      <trkpt lat="44.80413" lon="1.62579">
        <ele>247</ele>
        <time>2018-09-29T08:53:10Z</time>
      </trkpt>
      <trkpt lat="44.80413" lon="1.62566">
        <ele>249</ele>
        <time>2018-09-29T08:53:15Z</time>
      </trkpt>
      <trkpt lat="44.80412" lon="1.62552">
        <ele>247</ele>
        <time>2018-09-29T08:53:27Z</time>
      </trkpt>
      <trkpt lat="44.80415" lon="1.62538">
        <ele>243</ele>
        <time>2018-09-29T08:53:38Z</time>
      </trkpt>
      <trkpt lat="44.80415" lon="1.62524">
        <ele>241</ele>
        <time>2018-09-29T08:53:46Z</time>
      </trkpt>
      <trkpt lat="44.80413" lon="1.6251">
        <ele>236</ele>
        <time>2018-09-29T08:53:56Z</time>
      </trkpt>
      <trkpt lat="44.80411" lon="1.62497">
        <ele>238</ele>
        <time>2018-09-29T08:57:04Z</time>
      </trkpt>
      <trkpt lat="44.80413" lon="1.62484">
        <ele>235</ele>
        <time>2018-09-29T08:57:13Z</time>
      </trkpt>
      <trkpt lat="44.80415" lon="1.62471">
        <ele>234</ele>
        <time>2018-09-29T08:57:25Z</time>
      </trkpt>
      <trkpt lat="44.80415" lon="1.62456">
        <ele>229</ele>
        <time>2018-09-29T08:57:59Z</time>
      </trkpt>
      <trkpt lat="44.80417" lon="1.62443">
        <ele>228</ele>
        <time>2018-09-29T08:58:09Z</time>
      </trkpt>
      <trkpt lat="44.80418" lon="1.6243">
        <ele>223</ele>
        <time>2018-09-29T08:58:19Z</time>
      </trkpt>
      <trkpt lat="44.80413" lon="1.62418">
        <ele>221</ele>
        <time>2018-09-29T08:58:26Z</time>
      </trkpt>
      <trkpt lat="44.80412" lon="1.62404">
        <ele>219</ele>
        <time>2018-09-29T08:58:36Z</time>
      </trkpt>
      <trkpt lat="44.80409" lon="1.62391">
        <ele>222</ele>
        <time>2018-09-29T08:58:43Z</time>
      </trkpt>
      <trkpt lat="44.80408" lon="1.62377">
        <ele>219</ele>
        <time>2018-09-29T08:58:55Z</time>
      </trkpt>
      <trkpt lat="44.80404" lon="1.62365">
        <ele>216</ele>
        <time>2018-09-29T08:59:05Z</time>
      </trkpt>
      <trkpt lat="44.804" lon="1.62352">
        <ele>218</ele>
        <time>2018-09-29T08:59:14Z</time>
      </trkpt>
      <trkpt lat="44.80395" lon="1.6234">
        <ele>213</ele>
        <time>2018-09-29T08:59:24Z</time>
      </trkpt>
      <trkpt lat="44.80392" lon="1.62327">
        <ele>212</ele>
        <time>2018-09-29T08:59:32Z</time>
      </trkpt>
      <trkpt lat="44.80384" lon="1.62319">
        <ele>214</ele>
        <time>2018-09-29T08:59:40Z</time>
      </trkpt>
      <trkpt lat="44.80382" lon="1.62307">
        <ele>214</ele>
        <time>2018-09-29T08:59:50Z</time>
      </trkpt>
      <trkpt lat="44.80375" lon="1.62297">
        <ele>211</ele>
        <time>2018-09-29T08:59:58Z</time>
      </trkpt>
      <trkpt lat="44.80369" lon="1.62288">
        <ele>207</ele>
        <time>2018-09-29T09:00:08Z</time>
      </trkpt>
      <trkpt lat="44.80362" lon="1.62276">
        <ele>208</ele>
        <time>2018-09-29T09:00:19Z</time>
      </trkpt>
      <trkpt lat="44.80359" lon="1.62265">
        <ele>204</ele>
        <time>2018-09-29T09:00:26Z</time>
      </trkpt>
      <trkpt lat="44.80354" lon="1.62253">
        <ele>199</ele>
        <time>2018-09-29T09:00:38Z</time>
      </trkpt>
      <trkpt lat="44.8035" lon="1.62241">
        <ele>198</ele>
        <time>2018-09-29T09:00:46Z</time>
      </trkpt>
      <trkpt lat="44.80342" lon="1.62235">
        <ele>197</ele>
        <time>2018-09-29T09:00:54Z</time>
      </trkpt>
      <trkpt lat="44.80336" lon="1.62226">
        <ele>197</ele>
        <time>2018-09-29T09:01:01Z</time>
      </trkpt>
      <trkpt lat="44.80328" lon="1.62218">
        <ele>199</ele>
        <time>2018-09-29T09:01:11Z</time>
      </trkpt>
      <trkpt lat="44.80322" lon="1.62207">
        <ele>198</ele>
        <time>2018-09-29T09:01:20Z</time>
      </trkpt>
      <trkpt lat="44.80315" lon="1.62199">
        <ele>195</ele>
        <time>2018-09-29T09:01:30Z</time>
      </trkpt>
      <trkpt lat="44.80309" lon="1.62189">
        <ele>193</ele>
        <time>2018-09-29T09:01:39Z</time>
      </trkpt>
      <trkpt lat="44.80303" lon="1.62178">
        <ele>190</ele>
        <time>2018-09-29T09:01:49Z</time>
      </trkpt>
      <trkpt lat="44.80295" lon="1.62172">
        <ele>191</ele>
        <time>2018-09-29T09:02:01Z</time>
      </trkpt>
      <trkpt lat="44.80286" lon="1.62166">
        <ele>191</ele>
        <time>2018-09-29T09:02:14Z</time>
      </trkpt>
      <trkpt lat="44.80281" lon="1.62153">
        <ele>191</ele>
        <time>2018-09-29T09:02:28Z</time>
      </trkpt>
      <trkpt lat="44.80275" lon="1.62141">
        <ele>187</ele>
        <time>2018-09-29T09:02:37Z</time>
      </trkpt>
      <trkpt lat="44.80275" lon="1.62127">
        <ele>179</ele>
        <time>2018-09-29T09:03:01Z</time>
      </trkpt>
      <trkpt lat="44.80268" lon="1.62118">
        <ele>180</ele>
        <time>2018-09-29T09:03:08Z</time>
      </trkpt>
      <trkpt lat="44.80263" lon="1.62105">
        <ele>179</ele>
        <time>2018-09-29T09:03:19Z</time>
      </trkpt>
      <trkpt lat="44.80257" lon="1.62095">
        <ele>177</ele>
        <time>2018-09-29T09:03:29Z</time>
      </trkpt>
      <trkpt lat="44.80249" lon="1.62087">
        <ele>181</ele>
        <time>2018-09-29T09:03:43Z</time>
      </trkpt>
      <trkpt lat="44.80241" lon="1.62083">
        <ele>183</ele>
        <time>2018-09-29T09:03:50Z</time>
      </trkpt>
      <trkpt lat="44.80229" lon="1.62075">
        <ele>183</ele>
        <time>2018-09-29T09:04:11Z</time>
      </trkpt>
      <trkpt lat="44.80222" lon="1.62066">
        <ele>180</ele>
        <time>2018-09-29T09:04:17Z</time>
      </trkpt>
      <trkpt lat="44.80216" lon="1.62056">
        <ele>179</ele>
        <time>2018-09-29T09:04:23Z</time>
      </trkpt>
      <trkpt lat="44.8021" lon="1.62046">
        <ele>180</ele>
        <time>2018-09-29T09:04:32Z</time>
      </trkpt>
      <trkpt lat="44.80204" lon="1.62036">
        <ele>178</ele>
        <time>2018-09-29T09:04:39Z</time>
      </trkpt>
      <trkpt lat="44.80197" lon="1.62026">
        <ele>177</ele>
        <time>2018-09-29T09:04:46Z</time>
      </trkpt>
      <trkpt lat="44.80188" lon="1.62017">
        <ele>178</ele>
        <time>2018-09-29T09:04:58Z</time>
      </trkpt>
      <trkpt lat="44.80179" lon="1.62016">
        <ele>180</ele>
        <time>2018-09-29T09:05:08Z</time>
      </trkpt>
      <trkpt lat="44.80171" lon="1.6201">
        <ele>183</ele>
        <time>2018-09-29T09:05:20Z</time>
      </trkpt>
      <trkpt lat="44.80167" lon="1.61998">
        <ele>182</ele>
        <time>2018-09-29T09:05:27Z</time>
      </trkpt>
      <trkpt lat="44.80159" lon="1.61991">
        <ele>180</ele>
        <time>2018-09-29T09:05:36Z</time>
      </trkpt>
      <trkpt lat="44.80153" lon="1.61978">
        <ele>176</ele>
        <time>2018-09-29T09:05:47Z</time>
      </trkpt>
      <trkpt lat="44.80149" lon="1.61966">
        <ele>178</ele>
        <time>2018-09-29T09:05:57Z</time>
      </trkpt>
      <trkpt lat="44.8014" lon="1.6196">
        <ele>176</ele>
        <time>2018-09-29T09:06:07Z</time>
      </trkpt>
      <trkpt lat="44.80138" lon="1.61947">
        <ele>173</ele>
        <time>2018-09-29T09:06:16Z</time>
      </trkpt>
      <trkpt lat="44.80131" lon="1.61936">
        <ele>176</ele>
        <time>2018-09-29T09:06:24Z</time>
      </trkpt>
      <trkpt lat="44.80123" lon="1.61929">
        <ele>175</ele>
        <time>2018-09-29T09:06:37Z</time>
      </trkpt>
      <trkpt lat="44.80122" lon="1.61916">
        <ele>173</ele>
        <time>2018-09-29T09:06:46Z</time>
      </trkpt>
      <trkpt lat="44.80109" lon="1.61914">
        <ele>173</ele>
        <time>2018-09-29T09:06:49Z</time>
      </trkpt>
      <trkpt lat="44.80107" lon="1.619">
        <ele>169</ele>
        <time>2018-09-29T09:06:55Z</time>
      </trkpt>
      <trkpt lat="44.80098" lon="1.61896">
        <ele>174</ele>
        <time>2018-09-29T09:07:33Z</time>
      </trkpt>
      <trkpt lat="44.8009" lon="1.61889">
        <ele>173</ele>
        <time>2018-09-29T09:07:46Z</time>
      </trkpt>
      <trkpt lat="44.80098" lon="1.61898">
        <ele>172</ele>
        <time>2018-09-29T09:07:55Z</time>
      </trkpt>
      <trkpt lat="44.8009" lon="1.61891">
        <ele>172</ele>
        <time>2018-09-29T09:08:19Z</time>
      </trkpt>
      <trkpt lat="44.80082" lon="1.61884">
        <ele>173</ele>
        <time>2018-09-29T09:08:45Z</time>
      </trkpt>
      <trkpt lat="44.80073" lon="1.61881">
        <ele>171</ele>
        <time>2018-09-29T09:08:55Z</time>
      </trkpt>
      <trkpt lat="44.80069" lon="1.61862">
        <ele>169</ele>
        <time>2018-09-29T09:09:05Z</time>
      </trkpt>
      <trkpt lat="44.80061" lon="1.61871">
        <ele>168</ele>
        <time>2018-09-29T09:09:09Z</time>
      </trkpt>
      <trkpt lat="44.80061" lon="1.61858">
        <ele>165</ele>
        <time>2018-09-29T09:09:23Z</time>
      </trkpt>
      <trkpt lat="44.80052" lon="1.61861">
        <ele>172</ele>
        <time>2018-09-29T09:10:26Z</time>
      </trkpt>
      <trkpt lat="44.80043" lon="1.61874">
        <ele>169</ele>
        <time>2018-09-29T09:10:32Z</time>
      </trkpt>
      <trkpt lat="44.80039" lon="1.61887">
        <ele>167</ele>
        <time>2018-09-29T09:10:41Z</time>
      </trkpt>
      <trkpt lat="44.8003" lon="1.61888">
        <ele>162</ele>
        <time>2018-09-29T09:11:43Z</time>
      </trkpt>
      <trkpt lat="44.80022" lon="1.6188">
        <ele>160</ele>
        <time>2018-09-29T09:11:48Z</time>
      </trkpt>
      <trkpt lat="44.80013" lon="1.61875">
        <ele>158</ele>
        <time>2018-09-29T09:11:56Z</time>
      </trkpt>
      <trkpt lat="44.80004" lon="1.6187">
        <ele>159</ele>
        <time>2018-09-29T09:12:07Z</time>
      </trkpt>
      <trkpt lat="44.79996" lon="1.61864">
        <ele>160</ele>
        <time>2018-09-29T09:12:25Z</time>
      </trkpt>
      <trkpt lat="44.79986" lon="1.61858">
        <ele>159</ele>
        <time>2018-09-29T09:12:32Z</time>
      </trkpt>
      <trkpt lat="44.79979" lon="1.6185">
        <ele>159</ele>
        <time>2018-09-29T09:12:40Z</time>
      </trkpt>
      <trkpt lat="44.79969" lon="1.61847">
        <ele>158</ele>
        <time>2018-09-29T09:12:46Z</time>
      </trkpt>
      <trkpt lat="44.79965" lon="1.61835">
        <ele>159</ele>
        <time>2018-09-29T09:12:56Z</time>
      </trkpt>
      <trkpt lat="44.79969" lon="1.61823">
        <ele>160</ele>
        <time>2018-09-29T09:13:59Z</time>
      </trkpt>
      <trkpt lat="44.79961" lon="1.61816">
        <ele>165</ele>
        <time>2018-09-29T09:14:14Z</time>
      </trkpt>
      <trkpt lat="44.79949" lon="1.61812">
        <ele>165</ele>
        <time>2018-09-29T09:14:51Z</time>
      </trkpt>
      <trkpt lat="44.79939" lon="1.61798">
        <ele>164</ele>
        <time>2018-09-29T09:14:54Z</time>
      </trkpt>
      <trkpt lat="44.79935" lon="1.61785">
        <ele>168</ele>
        <time>2018-09-29T09:14:59Z</time>
      </trkpt>
      <trkpt lat="44.79928" lon="1.61794">
        <ele>168</ele>
        <time>2018-09-29T09:15:03Z</time>
      </trkpt>
      <trkpt lat="44.79928" lon="1.61808">
        <ele>164</ele>
        <time>2018-09-29T09:15:09Z</time>
      </trkpt>
      <trkpt lat="44.79929" lon="1.61794">
        <ele>162</ele>
        <time>2018-09-29T09:15:14Z</time>
      </trkpt>
      <trkpt lat="44.79918" lon="1.61798">
        <ele>165</ele>
        <time>2018-09-29T09:15:22Z</time>
      </trkpt>
      <trkpt lat="44.79909" lon="1.61795">
        <ele>164</ele>
        <time>2018-09-29T09:15:32Z</time>
      </trkpt>
      <trkpt lat="44.79918" lon="1.61789">
        <ele>167</ele>
        <time>2018-09-29T09:15:39Z</time>
      </trkpt>
      <trkpt lat="44.79911" lon="1.61777">
        <ele>170</ele>
        <time>2018-09-29T09:21:43Z</time>
      </trkpt>
      <trkpt lat="44.79918" lon="1.61761">
        <ele>176</ele>
        <time>2018-09-29T09:21:49Z</time>
      </trkpt>
      <trkpt lat="44.79955" lon="1.61798">
        <ele>185</ele>
        <time>2018-09-29T09:22:32Z</time>
      </trkpt>
      <trkpt lat="44.79924" lon="1.61844">
        <ele>186</ele>
        <time>2018-09-29T09:23:04Z</time>
      </trkpt>
      <trkpt lat="44.79923" lon="1.61753">
        <ele>176</ele>
        <time>2018-09-29T09:29:13Z</time>
      </trkpt>
      <trkpt lat="44.79933" lon="1.61752">
        <ele>175</ele>
        <time>2018-09-29T09:29:16Z</time>
      </trkpt>
      <trkpt lat="44.79945" lon="1.61759">
        <ele>177</ele>
        <time>2018-09-29T09:29:20Z</time>
      </trkpt>
      <trkpt lat="44.79955" lon="1.61756">
        <ele>179</ele>
        <time>2018-09-29T09:29:24Z</time>
      </trkpt>
      <trkpt lat="44.79962" lon="1.61764">
        <ele>186</ele>
        <time>2018-09-29T09:29:31Z</time>
      </trkpt>
      <trkpt lat="44.7997" lon="1.61775">
        <ele>187</ele>
        <time>2018-09-29T09:29:45Z</time>
      </trkpt>
      <trkpt lat="44.79978" lon="1.61782">
        <ele>195</ele>
        <time>2018-09-29T09:29:50Z</time>
      </trkpt>
      <trkpt lat="44.79979" lon="1.61767">
        <ele>187</ele>
        <time>2018-09-29T09:30:13Z</time>
      </trkpt>
      <trkpt lat="44.7997" lon="1.61762">
        <ele>192</ele>
        <time>2018-09-29T09:30:29Z</time>
      </trkpt>
      <trkpt lat="44.79978" lon="1.61758">
        <ele>195</ele>
        <time>2018-09-29T09:32:03Z</time>
      </trkpt>
      <trkpt lat="44.79988" lon="1.61754">
        <ele>201</ele>
        <time>2018-09-29T09:32:14Z</time>
      </trkpt>
      <trkpt lat="44.79996" lon="1.61762">
        <ele>201</ele>
        <time>2018-09-29T09:32:22Z</time>
      </trkpt>
      <trkpt lat="44.79992" lon="1.61775">
        <ele>202</ele>
        <time>2018-09-29T09:33:02Z</time>
      </trkpt>
      <trkpt lat="44.79986" lon="1.61765">
        <ele>202</ele>
        <time>2018-09-29T09:34:17Z</time>
      </trkpt>
      <trkpt lat="44.79996" lon="1.6176">
        <ele>201</ele>
        <time>2018-09-29T09:34:58Z</time>
      </trkpt>
      <trkpt lat="44.80008" lon="1.61756">
        <ele>198</ele>
        <time>2018-09-29T09:35:57Z</time>
      </trkpt>
      <trkpt lat="44.79998" lon="1.61758">
        <ele>207</ele>
        <time>2018-09-29T09:36:15Z</time>
      </trkpt>
      <trkpt lat="44.79999" lon="1.61742">
        <ele>204</ele>
        <time>2018-09-29T09:37:13Z</time>
      </trkpt>
      <trkpt lat="44.79999" lon="1.61729">
        <ele>212</ele>
        <time>2018-09-29T09:38:25Z</time>
      </trkpt>
      <trkpt lat="44.80006" lon="1.61721">
        <ele>212</ele>
        <time>2018-09-29T09:38:27Z</time>
      </trkpt>
      <trkpt lat="44.79998" lon="1.61732">
        <ele>224</ele>
        <time>2018-09-29T09:39:44Z</time>
      </trkpt>
      <trkpt lat="44.79992" lon="1.61741">
        <ele>219</ele>
        <time>2018-09-29T09:39:55Z</time>
      </trkpt>
      <trkpt lat="44.79987" lon="1.61754">
        <ele>220</ele>
        <time>2018-09-29T09:40:03Z</time>
      </trkpt>
      <trkpt lat="44.7998" lon="1.61741">
        <ele>216</ele>
        <time>2018-09-29T09:41:33Z</time>
      </trkpt>
      <trkpt lat="44.79985" lon="1.6173">
        <ele>218</ele>
        <time>2018-09-29T09:41:41Z</time>
      </trkpt>
      <trkpt lat="44.79991" lon="1.6172">
        <ele>217</ele>
        <time>2018-09-29T09:42:22Z</time>
      </trkpt>
      <trkpt lat="44.79995" lon="1.61707">
        <ele>218</ele>
        <time>2018-09-29T09:42:28Z</time>
      </trkpt>
      <trkpt lat="44.80006" lon="1.61713">
        <ele>230</ele>
        <time>2018-09-29T09:42:48Z</time>
      </trkpt>
      <trkpt lat="44.80017" lon="1.61719">
        <ele>232</ele>
        <time>2018-09-29T09:42:53Z</time>
      </trkpt>
      <trkpt lat="44.80026" lon="1.61724">
        <ele>235</ele>
        <time>2018-09-29T09:43:00Z</time>
      </trkpt>
      <trkpt lat="44.80024" lon="1.61737">
        <ele>225</ele>
        <time>2018-09-29T09:43:11Z</time>
      </trkpt>
      <trkpt lat="44.8003" lon="1.61747">
        <ele>221</ele>
        <time>2018-09-29T09:43:24Z</time>
      </trkpt>
      <trkpt lat="44.8004" lon="1.61751">
        <ele>224</ele>
        <time>2018-09-29T09:43:32Z</time>
      </trkpt>
      <trkpt lat="44.80049" lon="1.6175">
        <ele>227</ele>
        <time>2018-09-29T09:45:24Z</time>
      </trkpt>
      <trkpt lat="44.8004" lon="1.61752">
        <ele>221</ele>
        <time>2018-09-29T09:46:23Z</time>
      </trkpt>
      <trkpt lat="44.80032" lon="1.61744">
        <ele>221</ele>
        <time>2018-09-29T09:46:32Z</time>
      </trkpt>
      <trkpt lat="44.80026" lon="1.61731">
        <ele>222</ele>
        <time>2018-09-29T09:46:41Z</time>
      </trkpt>
      <trkpt lat="44.80018" lon="1.61725">
        <ele>227</ele>
        <time>2018-09-29T09:46:51Z</time>
      </trkpt>
      <trkpt lat="44.80012" lon="1.61714">
        <ele>226</ele>
        <time>2018-09-29T09:47:03Z</time>
      </trkpt>
      <trkpt lat="44.80006" lon="1.61704">
        <ele>232</ele>
        <time>2018-09-29T09:47:18Z</time>
      </trkpt>
      <trkpt lat="44.80018" lon="1.61705">
        <ele>227</ele>
        <time>2018-09-29T09:51:13Z</time>
      </trkpt>
      <trkpt lat="44.80027" lon="1.61707">
        <ele>228</ele>
        <time>2018-09-29T09:51:17Z</time>
      </trkpt>
      <trkpt lat="44.80036" lon="1.61711">
        <ele>231</ele>
        <time>2018-09-29T09:51:26Z</time>
      </trkpt>
      <trkpt lat="44.80026" lon="1.61708">
        <ele>227</ele>
        <time>2018-09-29T09:51:33Z</time>
      </trkpt>
      <trkpt lat="44.80022" lon="1.61697">
        <ele>232</ele>
        <time>2018-09-29T09:51:44Z</time>
      </trkpt>
      <trkpt lat="44.80032" lon="1.61699">
        <ele>235</ele>
        <time>2018-09-29T09:52:20Z</time>
      </trkpt>
      <trkpt lat="44.80027" lon="1.61688">
        <ele>242</ele>
        <time>2018-09-29T09:52:42Z</time>
      </trkpt>
      <trkpt lat="44.80035" lon="1.61695">
        <ele>244</ele>
        <time>2018-09-29T09:53:11Z</time>
      </trkpt>
      <trkpt lat="44.80038" lon="1.61683">
        <ele>241</ele>
        <time>2018-09-29T09:53:22Z</time>
      </trkpt>
      <trkpt lat="44.8004" lon="1.61668">
        <ele>240</ele>
        <time>2018-09-29T09:54:47Z</time>
      </trkpt>
      <trkpt lat="44.80031" lon="1.61652">
        <ele>235</ele>
        <time>2018-09-29T09:54:51Z</time>
      </trkpt>
      <trkpt lat="44.80041" lon="1.61653">
        <ele>228</ele>
        <time>2018-09-29T09:54:58Z</time>
      </trkpt>
      <trkpt lat="44.80049" lon="1.61658">
        <ele>229</ele>
        <time>2018-09-29T09:55:06Z</time>
      </trkpt>
      <trkpt lat="44.80059" lon="1.61668">
        <ele>229</ele>
        <time>2018-09-29T09:55:09Z</time>
      </trkpt>
      <trkpt lat="44.80048" lon="1.61658">
        <ele>230</ele>
        <time>2018-09-29T09:55:12Z</time>
      </trkpt>
      <trkpt lat="44.80028" lon="1.61652">
        <ele>230</ele>
        <time>2018-09-29T09:55:18Z</time>
      </trkpt>
      <trkpt lat="44.80029" lon="1.61639">
        <ele>230</ele>
        <time>2018-09-29T09:55:22Z</time>
      </trkpt>
      <trkpt lat="44.80035" lon="1.61662">
        <ele>230</ele>
        <time>2018-09-29T09:55:24Z</time>
      </trkpt>
      <trkpt lat="44.80043" lon="1.61654">
        <ele>228</ele>
        <time>2018-09-29T09:55:30Z</time>
      </trkpt>
      <trkpt lat="44.80034" lon="1.61652">
        <ele>227</ele>
        <time>2018-09-29T09:55:34Z</time>
      </trkpt>
      <trkpt lat="44.80024" lon="1.61643">
        <ele>225</ele>
        <time>2018-09-29T09:55:39Z</time>
      </trkpt>
      <trkpt lat="44.80032" lon="1.6164">
        <ele>226</ele>
        <time>2018-09-29T09:56:09Z</time>
      </trkpt>
      <trkpt lat="44.80029" lon="1.61652">
        <ele>232</ele>
        <time>2018-09-29T09:56:15Z</time>
      </trkpt>
      <trkpt lat="44.80024" lon="1.61663">
        <ele>236</ele>
        <time>2018-09-29T09:56:24Z</time>
      </trkpt>
      <trkpt lat="44.80018" lon="1.61674">
        <ele>246</ele>
        <time>2018-09-29T09:56:34Z</time>
      </trkpt>
      <trkpt lat="44.80027" lon="1.61671">
        <ele>259</ele>
        <time>2018-09-29T09:57:06Z</time>
      </trkpt>
      <trkpt lat="44.80036" lon="1.61667">
        <ele>259</ele>
        <time>2018-09-29T09:57:14Z</time>
      </trkpt>
      <trkpt lat="44.80046" lon="1.61673">
        <ele>255</ele>
        <time>2018-09-29T09:57:23Z</time>
      </trkpt>
      <trkpt lat="44.80055" lon="1.6167">
        <ele>254</ele>
        <time>2018-09-29T09:57:29Z</time>
      </trkpt>
      <trkpt lat="44.80064" lon="1.61675">
        <ele>254</ele>
        <time>2018-09-29T09:57:37Z</time>
      </trkpt>
      <trkpt lat="44.80067" lon="1.61688">
        <ele>255</ele>
        <time>2018-09-29T09:57:48Z</time>
      </trkpt>
      <trkpt lat="44.80064" lon="1.61701">
        <ele>257</ele>
        <time>2018-09-29T09:58:13Z</time>
      </trkpt>
      <trkpt lat="44.80068" lon="1.61689">
        <ele>257</ele>
        <time>2018-09-29T10:00:00Z</time>
      </trkpt>
      <trkpt lat="44.80075" lon="1.61681">
        <ele>255</ele>
        <time>2018-09-29T10:00:09Z</time>
      </trkpt>
      <trkpt lat="44.80085" lon="1.61682">
        <ele>256</ele>
        <time>2018-09-29T10:00:19Z</time>
      </trkpt>
      <trkpt lat="44.80095" lon="1.61683">
        <ele>255</ele>
        <time>2018-09-29T10:00:28Z</time>
      </trkpt>
      <trkpt lat="44.80103" lon="1.61675">
        <ele>257</ele>
        <time>2018-09-29T10:00:46Z</time>
      </trkpt>
      <trkpt lat="44.80103" lon="1.61662">
        <ele>258</ele>
        <time>2018-09-29T10:01:10Z</time>
      </trkpt>
      <trkpt lat="44.80095" lon="1.61658">
        <ele>260</ele>
        <time>2018-09-29T10:01:22Z</time>
      </trkpt>
      <trkpt lat="44.80084" lon="1.61652">
        <ele>261</ele>
        <time>2018-09-29T10:02:03Z</time>
      </trkpt>
      <trkpt lat="44.80074" lon="1.61649">
        <ele>260</ele>
        <time>2018-09-29T10:02:09Z</time>
      </trkpt>
      <trkpt lat="44.80065" lon="1.6165">
        <ele>260</ele>
        <time>2018-09-29T10:02:22Z</time>
      </trkpt>
      <trkpt lat="44.80056" lon="1.61652">
        <ele>257</ele>
        <time>2018-09-29T10:02:30Z</time>
      </trkpt>
      <trkpt lat="44.80046" lon="1.61653">
        <ele>251</ele>
        <time>2018-09-29T10:02:43Z</time>
      </trkpt>
      <trkpt lat="44.80037" lon="1.61652">
        <ele>253</ele>
        <time>2018-09-29T10:02:55Z</time>
      </trkpt>
      <trkpt lat="44.80027" lon="1.61655">
        <ele>253</ele>
        <time>2018-09-29T10:03:09Z</time>
      </trkpt>
      <trkpt lat="44.80015" lon="1.61657">
        <ele>254</ele>
        <time>2018-09-29T10:03:41Z</time>
      </trkpt>
      <trkpt lat="44.80006" lon="1.6166">
        <ele>259</ele>
        <time>2018-09-29T10:03:49Z</time>
      </trkpt>
      <trkpt lat="44.79997" lon="1.61665">
        <ele>257</ele>
        <time>2018-09-29T10:04:17Z</time>
      </trkpt>
      <trkpt lat="44.79989" lon="1.61672">
        <ele>255</ele>
        <time>2018-09-29T10:04:25Z</time>
      </trkpt>
      <trkpt lat="44.7998" lon="1.61678">
        <ele>251</ele>
        <time>2018-09-29T10:04:34Z</time>
      </trkpt>
      <trkpt lat="44.79976" lon="1.61689">
        <ele>255</ele>
        <time>2018-09-29T10:05:15Z</time>
      </trkpt>
      <trkpt lat="44.79971" lon="1.61701">
        <ele>251</ele>
        <time>2018-09-29T10:05:30Z</time>
      </trkpt>
      <trkpt lat="44.7998" lon="1.61695">
        <ele>254</ele>
        <time>2018-09-29T10:08:20Z</time>
      </trkpt>
      <trkpt lat="44.79986" lon="1.61686">
        <ele>253</ele>
        <time>2018-09-29T10:08:32Z</time>
      </trkpt>
      <trkpt lat="44.79992" lon="1.61675">
        <ele>251</ele>
        <time>2018-09-29T10:08:45Z</time>
      </trkpt>
      <trkpt lat="44.79998" lon="1.61665">
        <ele>252</ele>
        <time>2018-09-29T10:08:54Z</time>
      </trkpt>
      <trkpt lat="44.8" lon="1.61653">
        <ele>252</ele>
        <time>2018-09-29T10:09:13Z</time>
      </trkpt>
      <trkpt lat="44.79996" lon="1.61638">
        <ele>255</ele>
        <time>2018-09-29T10:09:45Z</time>
      </trkpt>
      <trkpt lat="44.79992" lon="1.61626">
        <ele>256</ele>
        <time>2018-09-29T10:09:54Z</time>
      </trkpt>
      <trkpt lat="44.79983" lon="1.61627">
        <ele>255</ele>
        <time>2018-09-29T10:10:02Z</time>
      </trkpt>
      <trkpt lat="44.79974" lon="1.61627">
        <ele>254</ele>
        <time>2018-09-29T10:10:14Z</time>
      </trkpt>
      <trkpt lat="44.79964" lon="1.61625">
        <ele>256</ele>
        <time>2018-09-29T10:10:37Z</time>
      </trkpt>
      <trkpt lat="44.79955" lon="1.6162">
        <ele>255</ele>
        <time>2018-09-29T10:10:47Z</time>
      </trkpt>
      <trkpt lat="44.79946" lon="1.61615">
        <ele>254</ele>
        <time>2018-09-29T10:10:56Z</time>
      </trkpt>
      <trkpt lat="44.79938" lon="1.61611">
        <ele>257</ele>
        <time>2018-09-29T10:11:07Z</time>
      </trkpt>
      <trkpt lat="44.79929" lon="1.61605">
        <ele>259</ele>
        <time>2018-09-29T10:11:19Z</time>
      </trkpt>
      <trkpt lat="44.79918" lon="1.61608">
        <ele>259</ele>
        <time>2018-09-29T10:11:24Z</time>
      </trkpt>
      <trkpt lat="44.7991" lon="1.61617">
        <ele>261</ele>
        <time>2018-09-29T10:11:34Z</time>
      </trkpt>
      <trkpt lat="44.79899" lon="1.61618">
        <ele>259</ele>
        <time>2018-09-29T10:11:45Z</time>
      </trkpt>
      <trkpt lat="44.7989" lon="1.61616">
        <ele>259</ele>
        <time>2018-09-29T10:11:53Z</time>
      </trkpt>
      <trkpt lat="44.7988" lon="1.6162">
        <ele>257</ele>
        <time>2018-09-29T10:12:03Z</time>
      </trkpt>
      <trkpt lat="44.79872" lon="1.61628">
        <ele>257</ele>
        <time>2018-09-29T10:12:14Z</time>
      </trkpt>
      <trkpt lat="44.79863" lon="1.61626">
        <ele>259</ele>
        <time>2018-09-29T10:12:21Z</time>
      </trkpt>
      <trkpt lat="44.79853" lon="1.61623">
        <ele>258</ele>
        <time>2018-09-29T10:12:32Z</time>
      </trkpt>
      <trkpt lat="44.79843" lon="1.61625">
        <ele>254</ele>
        <time>2018-09-29T10:12:38Z</time>
      </trkpt>
      <trkpt lat="44.79842" lon="1.61611">
        <ele>251</ele>
        <time>2018-09-29T10:12:50Z</time>
      </trkpt>
      <trkpt lat="44.7984" lon="1.61597">
        <ele>249</ele>
        <time>2018-09-29T10:12:59Z</time>
      </trkpt>
      <trkpt lat="44.79838" lon="1.61585">
        <ele>245</ele>
        <time>2018-09-29T10:13:50Z</time>
      </trkpt>
      <trkpt lat="44.79828" lon="1.61582">
        <ele>246</ele>
        <time>2018-09-29T10:14:29Z</time>
      </trkpt>
      <trkpt lat="44.79823" lon="1.61569">
        <ele>249</ele>
        <time>2018-09-29T10:14:40Z</time>
      </trkpt>
      <trkpt lat="44.79821" lon="1.61556">
        <ele>247</ele>
        <time>2018-09-29T10:14:47Z</time>
      </trkpt>
      <trkpt lat="44.7982" lon="1.61543">
        <ele>246</ele>
        <time>2018-09-29T10:14:55Z</time>
      </trkpt>
      <trkpt lat="44.79819" lon="1.6153">
        <ele>242</ele>
        <time>2018-09-29T10:15:03Z</time>
      </trkpt>
      <trkpt lat="44.7982" lon="1.61517">
        <ele>243</ele>
        <time>2018-09-29T10:15:12Z</time>
      </trkpt>
      <trkpt lat="44.79813" lon="1.61508">
        <ele>243</ele>
        <time>2018-09-29T10:15:55Z</time>
      </trkpt>
      <trkpt lat="44.79805" lon="1.615">
        <ele>237</ele>
        <time>2018-09-29T10:16:02Z</time>
      </trkpt>
      <trkpt lat="44.79797" lon="1.61492">
        <ele>242</ele>
        <time>2018-09-29T10:16:11Z</time>
      </trkpt>
      <trkpt lat="44.79789" lon="1.61485">
        <ele>242</ele>
        <time>2018-09-29T10:16:18Z</time>
      </trkpt>
      <trkpt lat="44.79784" lon="1.61471">
        <ele>246</ele>
        <time>2018-09-29T10:16:26Z</time>
      </trkpt>
      <trkpt lat="44.79778" lon="1.61462">
        <ele>245</ele>
        <time>2018-09-29T10:17:03Z</time>
      </trkpt>
      <trkpt lat="44.79774" lon="1.6145">
        <ele>239</ele>
        <time>2018-09-29T10:17:15Z</time>
      </trkpt>
      <trkpt lat="44.79767" lon="1.6144">
        <ele>241</ele>
        <time>2018-09-29T10:17:21Z</time>
      </trkpt>
      <trkpt lat="44.79761" lon="1.6143">
        <ele>236</ele>
        <time>2018-09-29T10:17:38Z</time>
      </trkpt>
      <trkpt lat="44.79756" lon="1.61419">
        <ele>232</ele>
        <time>2018-09-29T10:18:22Z</time>
      </trkpt>
      <trkpt lat="44.79754" lon="1.61406">
        <ele>230</ele>
        <time>2018-09-29T10:18:30Z</time>
      </trkpt>
      <trkpt lat="44.79753" lon="1.61392">
        <ele>231</ele>
        <time>2018-09-29T10:18:39Z</time>
      </trkpt>
      <trkpt lat="44.79756" lon="1.6138">
        <ele>233</ele>
        <time>2018-09-29T10:18:49Z</time>
      </trkpt>
      <trkpt lat="44.79759" lon="1.61367">
        <ele>228</ele>
        <time>2018-09-29T10:19:04Z</time>
      </trkpt>
      <trkpt lat="44.79764" lon="1.61355">
        <ele>224</ele>
        <time>2018-09-29T10:20:57Z</time>
      </trkpt>
      <trkpt lat="44.79771" lon="1.61345">
        <ele>224</ele>
        <time>2018-09-29T10:21:10Z</time>
      </trkpt>
      <trkpt lat="44.79776" lon="1.61334">
        <ele>223</ele>
        <time>2018-09-29T10:21:20Z</time>
      </trkpt>
      <trkpt lat="44.79782" lon="1.61324">
        <ele>224</ele>
        <time>2018-09-29T10:21:57Z</time>
      </trkpt>
      <trkpt lat="44.79786" lon="1.61312">
        <ele>228</ele>
        <time>2018-09-29T10:22:04Z</time>
      </trkpt>
      <trkpt lat="44.79795" lon="1.61303">
        <ele>225</ele>
        <time>2018-09-29T10:22:12Z</time>
      </trkpt>
      <trkpt lat="44.79796" lon="1.6129">
        <ele>224</ele>
        <time>2018-09-29T10:22:21Z</time>
      </trkpt>
      <trkpt lat="44.79799" lon="1.61277">
        <ele>227</ele>
        <time>2018-09-29T10:22:31Z</time>
      </trkpt>
      <trkpt lat="44.79805" lon="1.61266">
        <ele>226</ele>
        <time>2018-09-29T10:22:38Z</time>
      </trkpt>
      <trkpt lat="44.79809" lon="1.61254">
        <ele>224</ele>
        <time>2018-09-29T10:22:51Z</time>
      </trkpt>
      <trkpt lat="44.79808" lon="1.61242">
        <ele>227</ele>
        <time>2018-09-29T10:22:57Z</time>
      </trkpt>
      <trkpt lat="44.79807" lon="1.61228">
        <ele>225</ele>
        <time>2018-09-29T10:23:43Z</time>
      </trkpt>
      <trkpt lat="44.79807" lon="1.61215">
        <ele>221</ele>
        <time>2018-09-29T10:23:55Z</time>
      </trkpt>
      <trkpt lat="44.79807" lon="1.61202">
        <ele>218</ele>
        <time>2018-09-29T10:24:06Z</time>
      </trkpt>
      <trkpt lat="44.7981" lon="1.61188">
        <ele>222</ele>
        <time>2018-09-29T10:24:35Z</time>
      </trkpt>
      <trkpt lat="44.79814" lon="1.61175">
        <ele>223</ele>
        <time>2018-09-29T10:24:45Z</time>
      </trkpt>
      <trkpt lat="44.79817" lon="1.61163">
        <ele>220</ele>
        <time>2018-09-29T10:24:53Z</time>
      </trkpt>
      <trkpt lat="44.79825" lon="1.61155">
        <ele>223</ele>
        <time>2018-09-29T10:25:02Z</time>
      </trkpt>
      <trkpt lat="44.79829" lon="1.61143">
        <ele>221</ele>
        <time>2018-09-29T10:25:11Z</time>
      </trkpt>
      <trkpt lat="44.79836" lon="1.61135">
        <ele>221</ele>
        <time>2018-09-29T10:25:21Z</time>
      </trkpt>
      <trkpt lat="44.79846" lon="1.6113">
        <ele>215</ele>
        <time>2018-09-29T10:25:27Z</time>
      </trkpt>
      <trkpt lat="44.79854" lon="1.61121">
        <ele>215</ele>
        <time>2018-09-29T10:25:35Z</time>
      </trkpt>
      <trkpt lat="44.79863" lon="1.61119">
        <ele>216</ele>
        <time>2018-09-29T10:25:44Z</time>
      </trkpt>
      <trkpt lat="44.79872" lon="1.61113">
        <ele>213</ele>
        <time>2018-09-29T10:25:58Z</time>
      </trkpt>
      <trkpt lat="44.79881" lon="1.61113">
        <ele>209</ele>
        <time>2018-09-29T10:26:06Z</time>
      </trkpt>
      <trkpt lat="44.79892" lon="1.61112">
        <ele>209</ele>
        <time>2018-09-29T10:26:17Z</time>
      </trkpt>
      <trkpt lat="44.79901" lon="1.61111">
        <ele>211</ele>
        <time>2018-09-29T10:26:26Z</time>
      </trkpt>
      <trkpt lat="44.79911" lon="1.61112">
        <ele>208</ele>
        <time>2018-09-29T10:26:34Z</time>
      </trkpt>
      <trkpt lat="44.7992" lon="1.61111">
        <ele>208</ele>
        <time>2018-09-29T10:26:45Z</time>
      </trkpt>
      <trkpt lat="44.79929" lon="1.61106">
        <ele>208</ele>
        <time>2018-09-29T10:26:54Z</time>
      </trkpt>
      <trkpt lat="44.79932" lon="1.61092">
        <ele>214</ele>
        <time>2018-09-29T10:27:22Z</time>
      </trkpt>
      <trkpt lat="44.79934" lon="1.61079">
        <ele>212</ele>
        <time>2018-09-29T10:27:58Z</time>
      </trkpt>
      <trkpt lat="44.7993" lon="1.61067">
        <ele>213</ele>
        <time>2018-09-29T10:28:14Z</time>
      </trkpt>
      <trkpt lat="44.79926" lon="1.61054">
        <ele>214</ele>
        <time>2018-09-29T10:28:25Z</time>
      </trkpt>
      <trkpt lat="44.79927" lon="1.6104">
        <ele>214</ele>
        <time>2018-09-29T10:28:32Z</time>
      </trkpt>
      <trkpt lat="44.7993" lon="1.61027">
        <ele>217</ele>
        <time>2018-09-29T10:28:41Z</time>
      </trkpt>
      <trkpt lat="44.79931" lon="1.61014">
        <ele>216</ele>
        <time>2018-09-29T10:28:49Z</time>
      </trkpt>
      <trkpt lat="44.79931" lon="1.61001">
        <ele>216</ele>
        <time>2018-09-29T10:28:57Z</time>
      </trkpt>
      <trkpt lat="44.79931" lon="1.60987">
        <ele>213</ele>
        <time>2018-09-29T10:29:05Z</time>
      </trkpt>
      <trkpt lat="44.79933" lon="1.60974">
        <ele>214</ele>
        <time>2018-09-29T10:29:12Z</time>
      </trkpt>
      <trkpt lat="44.79936" lon="1.60962">
        <ele>207</ele>
        <time>2018-09-29T10:29:26Z</time>
      </trkpt>
      <trkpt lat="44.79941" lon="1.6095">
        <ele>204</ele>
        <time>2018-09-29T10:29:36Z</time>
      </trkpt>
      <trkpt lat="44.7994" lon="1.60935">
        <ele>206</ele>
        <time>2018-09-29T10:29:44Z</time>
      </trkpt>
      <trkpt lat="44.79946" lon="1.60924">
        <ele>204</ele>
        <time>2018-09-29T10:29:56Z</time>
      </trkpt>
      <trkpt lat="44.7995" lon="1.60908">
        <ele>209</ele>
        <time>2018-09-29T10:30:48Z</time>
      </trkpt>
      <trkpt lat="44.79956" lon="1.60896">
        <ele>210</ele>
        <time>2018-09-29T10:30:55Z</time>
      </trkpt>
      <trkpt lat="44.79954" lon="1.60884">
        <ele>213</ele>
        <time>2018-09-29T10:31:02Z</time>
      </trkpt>
      <trkpt lat="44.79949" lon="1.60873">
        <ele>210</ele>
        <time>2018-09-29T10:31:08Z</time>
      </trkpt>
      <trkpt lat="44.79945" lon="1.60859">
        <ele>204</ele>
        <time>2018-09-29T10:31:54Z</time>
      </trkpt>
      <trkpt lat="44.79939" lon="1.60849">
        <ele>206</ele>
        <time>2018-09-29T10:32:02Z</time>
      </trkpt>
      <trkpt lat="44.79932" lon="1.60838">
        <ele>211</ele>
        <time>2018-09-29T10:32:11Z</time>
      </trkpt>
      <trkpt lat="44.79927" lon="1.60826">
        <ele>212</ele>
        <time>2018-09-29T10:32:20Z</time>
      </trkpt>
      <trkpt lat="44.79924" lon="1.60813">
        <ele>219</ele>
        <time>2018-09-29T10:32:33Z</time>
      </trkpt>
      <trkpt lat="44.79921" lon="1.60799">
        <ele>222</ele>
        <time>2018-09-29T10:32:42Z</time>
      </trkpt>
      <trkpt lat="44.79919" lon="1.60785">
        <ele>226</ele>
        <time>2018-09-29T10:32:55Z</time>
      </trkpt>
      <trkpt lat="44.79916" lon="1.60772">
        <ele>230</ele>
        <time>2018-09-29T10:33:06Z</time>
      </trkpt>
      <trkpt lat="44.79919" lon="1.60758">
        <ele>231</ele>
        <time>2018-09-29T10:33:14Z</time>
      </trkpt>
      <trkpt lat="44.79925" lon="1.60747">
        <ele>231</ele>
        <time>2018-09-29T10:33:21Z</time>
      </trkpt>
      <trkpt lat="44.79923" lon="1.60733">
        <ele>234</ele>
        <time>2018-09-29T10:33:32Z</time>
      </trkpt>
      <trkpt lat="44.79922" lon="1.6072">
        <ele>236</ele>
        <time>2018-09-29T10:33:41Z</time>
      </trkpt>
      <trkpt lat="44.79926" lon="1.60708">
        <ele>238</ele>
        <time>2018-09-29T10:33:50Z</time>
      </trkpt>
      <trkpt lat="44.79928" lon="1.60695">
        <ele>239</ele>
        <time>2018-09-29T10:33:58Z</time>
      </trkpt>
      <trkpt lat="44.79933" lon="1.60684">
        <ele>240</ele>
        <time>2018-09-29T10:34:06Z</time>
      </trkpt>
      <trkpt lat="44.7993" lon="1.60672">
        <ele>243</ele>
        <time>2018-09-29T10:34:16Z</time>
      </trkpt>
      <trkpt lat="44.79931" lon="1.60658">
        <ele>242</ele>
        <time>2018-09-29T10:34:45Z</time>
      </trkpt>
      <trkpt lat="44.7994" lon="1.60652">
        <ele>244</ele>
        <time>2018-09-29T10:34:51Z</time>
      </trkpt>
      <trkpt lat="44.79944" lon="1.6064">
        <ele>240</ele>
        <time>2018-09-29T10:34:58Z</time>
      </trkpt>
      <trkpt lat="44.79948" lon="1.60625">
        <ele>238</ele>
        <time>2018-09-29T10:35:06Z</time>
      </trkpt>
      <trkpt lat="44.79949" lon="1.60612">
        <ele>241</ele>
        <time>2018-09-29T10:35:14Z</time>
      </trkpt>
      <trkpt lat="44.79956" lon="1.60603">
        <ele>244</ele>
        <time>2018-09-29T10:35:22Z</time>
      </trkpt>
      <trkpt lat="44.79962" lon="1.60593">
        <ele>244</ele>
        <time>2018-09-29T10:35:31Z</time>
      </trkpt>
      <trkpt lat="44.79967" lon="1.60582">
        <ele>249</ele>
        <time>2018-09-29T10:35:43Z</time>
      </trkpt>
      <trkpt lat="44.7997" lon="1.6057">
        <ele>249</ele>
        <time>2018-09-29T10:35:49Z</time>
      </trkpt>
      <trkpt lat="44.79975" lon="1.60557">
        <ele>248</ele>
        <time>2018-09-29T10:36:01Z</time>
      </trkpt>
      <trkpt lat="44.7998" lon="1.60545">
        <ele>251</ele>
        <time>2018-09-29T10:36:13Z</time>
      </trkpt>
      <trkpt lat="44.79983" lon="1.60532">
        <ele>252</ele>
        <time>2018-09-29T10:36:24Z</time>
      </trkpt>
      <trkpt lat="44.79984" lon="1.60519">
        <ele>255</ele>
        <time>2018-09-29T10:36:32Z</time>
      </trkpt>
      <trkpt lat="44.79991" lon="1.6051">
        <ele>253</ele>
        <time>2018-09-29T10:36:40Z</time>
      </trkpt>
      <trkpt lat="44.7999" lon="1.60497">
        <ele>251</ele>
        <time>2018-09-29T10:36:46Z</time>
      </trkpt>
      <trkpt lat="44.79997" lon="1.6049">
        <ele>249</ele>
        <time>2018-09-29T10:36:52Z</time>
      </trkpt>
      <trkpt lat="44.79994" lon="1.60476">
        <ele>251</ele>
        <time>2018-09-29T10:37:00Z</time>
      </trkpt>
      <trkpt lat="44.80004" lon="1.60466">
        <ele>247</ele>
        <time>2018-09-29T10:37:17Z</time>
      </trkpt>
      <trkpt lat="44.80007" lon="1.60453">
        <ele>250</ele>
        <time>2018-09-29T10:37:24Z</time>
      </trkpt>
      <trkpt lat="44.8001" lon="1.6044">
        <ele>252</ele>
        <time>2018-09-29T10:37:31Z</time>
      </trkpt>
      <trkpt lat="44.80016" lon="1.60428">
        <ele>248</ele>
        <time>2018-09-29T10:37:40Z</time>
      </trkpt>
      <trkpt lat="44.80019" lon="1.60416">
        <ele>247</ele>
        <time>2018-09-29T10:37:48Z</time>
      </trkpt>
      <trkpt lat="44.80022" lon="1.60403">
        <ele>248</ele>
        <time>2018-09-29T10:37:57Z</time>
      </trkpt>
      <trkpt lat="44.80025" lon="1.60391">
        <ele>251</ele>
        <time>2018-09-29T10:38:07Z</time>
      </trkpt>
      <trkpt lat="44.80027" lon="1.60379">
        <ele>253</ele>
        <time>2018-09-29T10:38:17Z</time>
      </trkpt>
      <trkpt lat="44.8003" lon="1.60367">
        <ele>252</ele>
        <time>2018-09-29T10:38:28Z</time>
      </trkpt>
      <trkpt lat="44.80036" lon="1.60356">
        <ele>254</ele>
        <time>2018-09-29T10:38:36Z</time>
      </trkpt>
      <trkpt lat="44.8004" lon="1.60345">
        <ele>255</ele>
        <time>2018-09-29T10:38:43Z</time>
      </trkpt>
      <trkpt lat="44.80042" lon="1.60332">
        <ele>254</ele>
        <time>2018-09-29T10:38:50Z</time>
      </trkpt>
      <trkpt lat="44.80046" lon="1.60319">
        <ele>256</ele>
        <time>2018-09-29T10:39:00Z</time>
      </trkpt>
      <trkpt lat="44.8005" lon="1.60307">
        <ele>255</ele>
        <time>2018-09-29T10:39:08Z</time>
      </trkpt>
      <trkpt lat="44.80055" lon="1.60296">
        <ele>253</ele>
        <time>2018-09-29T10:39:17Z</time>
      </trkpt>
      <trkpt lat="44.80056" lon="1.60283">
        <ele>252</ele>
        <time>2018-09-29T10:39:24Z</time>
      </trkpt>
      <trkpt lat="44.80059" lon="1.60269">
        <ele>252</ele>
        <time>2018-09-29T10:39:31Z</time>
      </trkpt>
      <trkpt lat="44.80063" lon="1.60256">
        <ele>252</ele>
        <time>2018-09-29T10:39:39Z</time>
      </trkpt>
      <trkpt lat="44.80064" lon="1.60242">
        <ele>254</ele>
        <time>2018-09-29T10:39:47Z</time>
      </trkpt>
      <trkpt lat="44.80068" lon="1.60229">
        <ele>257</ele>
        <time>2018-09-29T10:39:57Z</time>
      </trkpt>
      <trkpt lat="44.80071" lon="1.60217">
        <ele>257</ele>
        <time>2018-09-29T10:40:02Z</time>
      </trkpt>
      <trkpt lat="44.80075" lon="1.60203">
        <ele>253</ele>
        <time>2018-09-29T10:40:11Z</time>
      </trkpt>
      <trkpt lat="44.80076" lon="1.6019">
        <ele>256</ele>
        <time>2018-09-29T10:40:20Z</time>
      </trkpt>
      <trkpt lat="44.8008" lon="1.60177">
        <ele>255</ele>
        <time>2018-09-29T10:40:29Z</time>
      </trkpt>
      <trkpt lat="44.80079" lon="1.60164">
        <ele>251</ele>
        <time>2018-09-29T10:41:48Z</time>
      </trkpt>
      <trkpt lat="44.80086" lon="1.60153">
        <ele>251</ele>
        <time>2018-09-29T10:42:12Z</time>
      </trkpt>
      <trkpt lat="44.80094" lon="1.60145">
        <ele>250</ele>
        <time>2018-09-29T10:42:25Z</time>
      </trkpt>
      <trkpt lat="44.80099" lon="1.60133">
        <ele>251</ele>
        <time>2018-09-29T10:42:34Z</time>
      </trkpt>
      <trkpt lat="44.80106" lon="1.60124">
        <ele>252</ele>
        <time>2018-09-29T10:42:42Z</time>
      </trkpt>
      <trkpt lat="44.80111" lon="1.60113">
        <ele>248</ele>
        <time>2018-09-29T10:42:50Z</time>
      </trkpt>
      <trkpt lat="44.80118" lon="1.60102">
        <ele>245</ele>
        <time>2018-09-29T10:43:01Z</time>
      </trkpt>
      <trkpt lat="44.80123" lon="1.60092">
        <ele>244</ele>
        <time>2018-09-29T10:43:08Z</time>
      </trkpt>
      <trkpt lat="44.80128" lon="1.60081">
        <ele>242</ele>
        <time>2018-09-29T10:43:15Z</time>
      </trkpt>
      <trkpt lat="44.80135" lon="1.60071">
        <ele>244</ele>
        <time>2018-09-29T10:43:23Z</time>
      </trkpt>
      <trkpt lat="44.80143" lon="1.60061">
        <ele>247</ele>
        <time>2018-09-29T10:43:31Z</time>
      </trkpt>
      <trkpt lat="44.8015" lon="1.60054">
        <ele>245</ele>
        <time>2018-09-29T10:43:39Z</time>
      </trkpt>
      <trkpt lat="44.80152" lon="1.60041">
        <ele>245</ele>
        <time>2018-09-29T10:43:45Z</time>
      </trkpt>
      <trkpt lat="44.80159" lon="1.60031">
        <ele>244</ele>
        <time>2018-09-29T10:43:53Z</time>
      </trkpt>
      <trkpt lat="44.80166" lon="1.6002">
        <ele>248</ele>
        <time>2018-09-29T10:44:01Z</time>
      </trkpt>
      <trkpt lat="44.80173" lon="1.60012">
        <ele>248</ele>
        <time>2018-09-29T10:44:08Z</time>
      </trkpt>
      <trkpt lat="44.8018" lon="1.60003">
        <ele>252</ele>
        <time>2018-09-29T10:44:16Z</time>
      </trkpt>
      <trkpt lat="44.80185" lon="1.59992">
        <ele>252</ele>
        <time>2018-09-29T10:44:23Z</time>
      </trkpt>
      <trkpt lat="44.80191" lon="1.59982">
        <ele>246</ele>
        <time>2018-09-29T10:44:29Z</time>
      </trkpt>
      <trkpt lat="44.80197" lon="1.59971">
        <ele>245</ele>
        <time>2018-09-29T10:44:36Z</time>
      </trkpt>
      <trkpt lat="44.80203" lon="1.5996">
        <ele>246</ele>
        <time>2018-09-29T10:44:43Z</time>
      </trkpt>
      <trkpt lat="44.80209" lon="1.59949">
        <ele>243</ele>
        <time>2018-09-29T10:44:51Z</time>
      </trkpt>
      <trkpt lat="44.80216" lon="1.5994">
        <ele>244</ele>
        <time>2018-09-29T10:44:58Z</time>
      </trkpt>
      <trkpt lat="44.80223" lon="1.59929">
        <ele>247</ele>
        <time>2018-09-29T10:45:06Z</time>
      </trkpt>
      <trkpt lat="44.80229" lon="1.59919">
        <ele>248</ele>
        <time>2018-09-29T10:45:14Z</time>
      </trkpt>
      <trkpt lat="44.80235" lon="1.59908">
        <ele>247</ele>
        <time>2018-09-29T10:45:21Z</time>
      </trkpt>
      <trkpt lat="44.8024" lon="1.59896">
        <ele>249</ele>
        <time>2018-09-29T10:45:28Z</time>
      </trkpt>
      <trkpt lat="44.80247" lon="1.59885">
        <ele>248</ele>
        <time>2018-09-29T10:45:36Z</time>
      </trkpt>
      <trkpt lat="44.80252" lon="1.59874">
        <ele>248</ele>
        <time>2018-09-29T10:45:42Z</time>
      </trkpt>
      <trkpt lat="44.80254" lon="1.5986">
        <ele>245</ele>
        <time>2018-09-29T10:45:51Z</time>
      </trkpt>
      <trkpt lat="44.80259" lon="1.59848">
        <ele>245</ele>
        <time>2018-09-29T10:45:59Z</time>
      </trkpt>
      <trkpt lat="44.80261" lon="1.59835">
        <ele>247</ele>
        <time>2018-09-29T10:46:06Z</time>
      </trkpt>
      <trkpt lat="44.80266" lon="1.59822">
        <ele>251</ele>
        <time>2018-09-29T10:46:12Z</time>
      </trkpt>
      <trkpt lat="44.80271" lon="1.59812">
        <ele>251</ele>
        <time>2018-09-29T10:46:21Z</time>
      </trkpt>
      <trkpt lat="44.80275" lon="1.598">
        <ele>254</ele>
        <time>2018-09-29T10:46:30Z</time>
      </trkpt>
      <trkpt lat="44.80281" lon="1.59788">
        <ele>255</ele>
        <time>2018-09-29T10:46:36Z</time>
      </trkpt>
      <trkpt lat="44.80286" lon="1.59775">
        <ele>254</ele>
        <time>2018-09-29T10:46:46Z</time>
      </trkpt>
      <trkpt lat="44.8029" lon="1.59763">
        <ele>255</ele>
        <time>2018-09-29T10:46:53Z</time>
      </trkpt>
      <trkpt lat="44.80292" lon="1.5975">
        <ele>254</ele>
        <time>2018-09-29T10:46:59Z</time>
      </trkpt>
      <trkpt lat="44.803" lon="1.59744">
        <ele>254</ele>
        <time>2018-09-29T10:47:05Z</time>
      </trkpt>
      <trkpt lat="44.80307" lon="1.59734">
        <ele>253</ele>
        <time>2018-09-29T10:47:15Z</time>
      </trkpt>
      <trkpt lat="44.80315" lon="1.59725">
        <ele>254</ele>
        <time>2018-09-29T10:47:23Z</time>
      </trkpt>
      <trkpt lat="44.80318" lon="1.59711">
        <ele>255</ele>
        <time>2018-09-29T10:47:28Z</time>
      </trkpt>
      <trkpt lat="44.80322" lon="1.59698">
        <ele>255</ele>
        <time>2018-09-29T10:47:35Z</time>
      </trkpt>
      <trkpt lat="44.80329" lon="1.5969">
        <ele>257</ele>
        <time>2018-09-29T10:47:44Z</time>
      </trkpt>
      <trkpt lat="44.80335" lon="1.59678">
        <ele>259</ele>
        <time>2018-09-29T10:47:51Z</time>
      </trkpt>
      <trkpt lat="44.8034" lon="1.59668">
        <ele>262</ele>
        <time>2018-09-29T10:48:09Z</time>
      </trkpt>
      <trkpt lat="44.80345" lon="1.59655">
        <ele>257</ele>
        <time>2018-09-29T10:48:17Z</time>
      </trkpt>
      <trkpt lat="44.80348" lon="1.59643">
        <ele>258</ele>
        <time>2018-09-29T10:48:24Z</time>
      </trkpt>
      <trkpt lat="44.80356" lon="1.59634">
        <ele>259</ele>
        <time>2018-09-29T10:48:32Z</time>
      </trkpt>
      <trkpt lat="44.80362" lon="1.59622">
        <ele>259</ele>
        <time>2018-09-29T10:48:41Z</time>
      </trkpt>
      <trkpt lat="44.80367" lon="1.59611">
        <ele>258</ele>
        <time>2018-09-29T10:48:54Z</time>
      </trkpt>
      <trkpt lat="44.80371" lon="1.59599">
        <ele>263</ele>
        <time>2018-09-29T10:49:05Z</time>
      </trkpt>
      <trkpt lat="44.8038" lon="1.59593">
        <ele>264</ele>
        <time>2018-09-29T10:49:10Z</time>
      </trkpt>
      <trkpt lat="44.80387" lon="1.59583">
        <ele>262</ele>
        <time>2018-09-29T10:49:19Z</time>
      </trkpt>
      <trkpt lat="44.80392" lon="1.59573">
        <ele>261</ele>
        <time>2018-09-29T10:49:28Z</time>
      </trkpt>
      <trkpt lat="44.80387" lon="1.5956">
        <ele>265</ele>
        <time>2018-09-29T10:50:58Z</time>
      </trkpt>
      <trkpt lat="44.80379" lon="1.59553">
        <ele>264</ele>
        <time>2018-09-29T10:51:04Z</time>
      </trkpt>
      <trkpt lat="44.80375" lon="1.59541">
        <ele>263</ele>
        <time>2018-09-29T10:51:15Z</time>
      </trkpt>
      <trkpt lat="44.80368" lon="1.59533">
        <ele>263</ele>
        <time>2018-09-29T10:51:26Z</time>
      </trkpt>
      <trkpt lat="44.80361" lon="1.59523">
        <ele>265</ele>
        <time>2018-09-29T10:51:37Z</time>
      </trkpt>
      <trkpt lat="44.80354" lon="1.59513">
        <ele>262</ele>
        <time>2018-09-29T10:51:51Z</time>
      </trkpt>
      <trkpt lat="44.80362" lon="1.59522">
        <ele>270</ele>
        <time>2018-09-29T10:52:30Z</time>
      </trkpt>
      <trkpt lat="44.80369" lon="1.59531">
        <ele>269</ele>
        <time>2018-09-29T10:52:39Z</time>
      </trkpt>
      <trkpt lat="44.80373" lon="1.59543">
        <ele>268</ele>
        <time>2018-09-29T10:52:57Z</time>
      </trkpt>
      <trkpt lat="44.80382" lon="1.59545">
        <ele>267</ele>
        <time>2018-09-29T10:53:06Z</time>
      </trkpt>
      <trkpt lat="44.8039" lon="1.59553">
        <ele>266</ele>
        <time>2018-09-29T10:53:12Z</time>
      </trkpt>
      <trkpt lat="44.80397" lon="1.59563">
        <ele>266</ele>
        <time>2018-09-29T10:53:22Z</time>
      </trkpt>
      <trkpt lat="44.80406" lon="1.59563">
        <ele>263</ele>
        <time>2018-09-29T10:53:43Z</time>
      </trkpt>
      <trkpt lat="44.80415" lon="1.59559">
        <ele>261</ele>
        <time>2018-09-29T10:53:49Z</time>
      </trkpt>
      <trkpt lat="44.80424" lon="1.59552">
        <ele>258</ele>
        <time>2018-09-29T10:53:55Z</time>
      </trkpt>
      <trkpt lat="44.80433" lon="1.59549">
        <ele>256</ele>
        <time>2018-09-29T10:54:10Z</time>
      </trkpt>
      <trkpt lat="44.8044" lon="1.59539">
        <ele>260</ele>
        <time>2018-09-29T10:55:00Z</time>
      </trkpt>
      <trkpt lat="44.80444" lon="1.59527">
        <ele>257</ele>
        <time>2018-09-29T10:55:09Z</time>
      </trkpt>
      <trkpt lat="44.80454" lon="1.59524">
        <ele>257</ele>
        <time>2018-09-29T10:55:43Z</time>
      </trkpt>
      <trkpt lat="44.80459" lon="1.59514">
        <ele>258</ele>
        <time>2018-09-29T10:55:49Z</time>
      </trkpt>
      <trkpt lat="44.80468" lon="1.59509">
        <ele>256</ele>
        <time>2018-09-29T10:55:56Z</time>
      </trkpt>
      <trkpt lat="44.80475" lon="1.59499">
        <ele>259</ele>
        <time>2018-09-29T10:56:04Z</time>
      </trkpt>
      <trkpt lat="44.80482" lon="1.59489">
        <ele>258</ele>
        <time>2018-09-29T10:56:11Z</time>
      </trkpt>
      <trkpt lat="44.80488" lon="1.59478">
        <ele>259</ele>
        <time>2018-09-29T10:56:20Z</time>
      </trkpt>
      <trkpt lat="44.80499" lon="1.59474">
        <ele>250</ele>
        <time>2018-09-29T10:56:36Z</time>
      </trkpt>
      <trkpt lat="44.80507" lon="1.59466">
        <ele>252</ele>
        <time>2018-09-29T10:56:42Z</time>
      </trkpt>
      <trkpt lat="44.80513" lon="1.59456">
        <ele>252</ele>
        <time>2018-09-29T10:56:47Z</time>
      </trkpt>
      <trkpt lat="44.80521" lon="1.59446">
        <ele>252</ele>
        <time>2018-09-29T10:56:54Z</time>
      </trkpt>
      <trkpt lat="44.80528" lon="1.59438">
        <ele>251</ele>
        <time>2018-09-29T10:57:01Z</time>
      </trkpt>
      <trkpt lat="44.80532" lon="1.59426">
        <ele>254</ele>
        <time>2018-09-29T10:57:08Z</time>
      </trkpt>
      <trkpt lat="44.80538" lon="1.59415">
        <ele>253</ele>
        <time>2018-09-29T10:57:15Z</time>
      </trkpt>
      <trkpt lat="44.80542" lon="1.59403">
        <ele>252</ele>
        <time>2018-09-29T10:57:22Z</time>
      </trkpt>
      <trkpt lat="44.80548" lon="1.59393">
        <ele>254</ele>
        <time>2018-09-29T10:57:30Z</time>
      </trkpt>
      <trkpt lat="44.80555" lon="1.59384">
        <ele>253</ele>
        <time>2018-09-29T10:57:38Z</time>
      </trkpt>
      <trkpt lat="44.80563" lon="1.59376">
        <ele>252</ele>
        <time>2018-09-29T10:57:45Z</time>
      </trkpt>
      <trkpt lat="44.80567" lon="1.59365">
        <ele>252</ele>
        <time>2018-09-29T10:57:54Z</time>
      </trkpt>
      <trkpt lat="44.8057" lon="1.59352">
        <ele>252</ele>
        <time>2018-09-29T10:58:02Z</time>
      </trkpt>
      <trkpt lat="44.80573" lon="1.59338">
        <ele>251</ele>
        <time>2018-09-29T10:58:11Z</time>
      </trkpt>
      <trkpt lat="44.80573" lon="1.59325">
        <ele>248</ele>
        <time>2018-09-29T10:58:20Z</time>
      </trkpt>
      <trkpt lat="44.80578" lon="1.59313">
        <ele>244</ele>
        <time>2018-09-29T10:58:53Z</time>
      </trkpt>
      <trkpt lat="44.80583" lon="1.59302">
        <ele>247</ele>
        <time>2018-09-29T10:59:02Z</time>
      </trkpt>
      <trkpt lat="44.80584" lon="1.59289">
        <ele>246</ele>
        <time>2018-09-29T10:59:09Z</time>
      </trkpt>
      <trkpt lat="44.80586" lon="1.59275">
        <ele>246</ele>
        <time>2018-09-29T10:59:17Z</time>
      </trkpt>
      <trkpt lat="44.80588" lon="1.59262">
        <ele>246</ele>
        <time>2018-09-29T10:59:27Z</time>
      </trkpt>
      <trkpt lat="44.80589" lon="1.59249">
        <ele>245</ele>
        <time>2018-09-29T10:59:34Z</time>
      </trkpt>
      <trkpt lat="44.80591" lon="1.59236">
        <ele>244</ele>
        <time>2018-09-29T10:59:42Z</time>
      </trkpt>
      <trkpt lat="44.80594" lon="1.59222">
        <ele>243</ele>
        <time>2018-09-29T10:59:51Z</time>
      </trkpt>
      <trkpt lat="44.80597" lon="1.59208">
        <ele>241</ele>
        <time>2018-09-29T11:00:00Z</time>
      </trkpt>
      <trkpt lat="44.80601" lon="1.59195">
        <ele>239</ele>
        <time>2018-09-29T11:00:06Z</time>
      </trkpt>
      <trkpt lat="44.80604" lon="1.59181">
        <ele>239</ele>
        <time>2018-09-29T11:00:16Z</time>
      </trkpt>
      <trkpt lat="44.80605" lon="1.59168">
        <ele>236</ele>
        <time>2018-09-29T11:00:24Z</time>
      </trkpt>
      <trkpt lat="44.80608" lon="1.59156">
        <ele>236</ele>
        <time>2018-09-29T11:00:33Z</time>
      </trkpt>
      <trkpt lat="44.80609" lon="1.59142">
        <ele>232</ele>
        <time>2018-09-29T11:00:43Z</time>
      </trkpt>
      <trkpt lat="44.80608" lon="1.59128">
        <ele>232</ele>
        <time>2018-09-29T11:00:51Z</time>
      </trkpt>
      <trkpt lat="44.80604" lon="1.59116">
        <ele>231</ele>
        <time>2018-09-29T11:00:58Z</time>
      </trkpt>
      <trkpt lat="44.80602" lon="1.59104">
        <ele>231</ele>
        <time>2018-09-29T11:03:14Z</time>
      </trkpt>
      <trkpt lat="44.80593" lon="1.59099">
        <ele>230</ele>
        <time>2018-09-29T11:03:22Z</time>
      </trkpt>
      <trkpt lat="44.80585" lon="1.59088">
        <ele>229</ele>
        <time>2018-09-29T11:03:34Z</time>
      </trkpt>
      <trkpt lat="44.80576" lon="1.59084">
        <ele>228</ele>
        <time>2018-09-29T11:03:42Z</time>
      </trkpt>
      <trkpt lat="44.80566" lon="1.59083">
        <ele>228</ele>
        <time>2018-09-29T11:03:51Z</time>
      </trkpt>
      <trkpt lat="44.80557" lon="1.5908">
        <ele>232</ele>
        <time>2018-09-29T11:04:00Z</time>
      </trkpt>
      <trkpt lat="44.80548" lon="1.59076">
        <ele>233</ele>
        <time>2018-09-29T11:04:06Z</time>
      </trkpt>
      <trkpt lat="44.80537" lon="1.59078">
        <ele>233</ele>
        <time>2018-09-29T11:04:15Z</time>
      </trkpt>
      <trkpt lat="44.80527" lon="1.59077">
        <ele>230</ele>
        <time>2018-09-29T11:04:22Z</time>
      </trkpt>
      <trkpt lat="44.80517" lon="1.59074">
        <ele>232</ele>
        <time>2018-09-29T11:04:31Z</time>
      </trkpt>
      <trkpt lat="44.80508" lon="1.59074">
        <ele>232</ele>
        <time>2018-09-29T11:04:39Z</time>
      </trkpt>
      <trkpt lat="44.80498" lon="1.59075">
        <ele>233</ele>
        <time>2018-09-29T11:04:52Z</time>
      </trkpt>
      <trkpt lat="44.80488" lon="1.59072">
        <ele>233</ele>
        <time>2018-09-29T11:04:59Z</time>
      </trkpt>
      <trkpt lat="44.80478" lon="1.59071">
        <ele>232</ele>
        <time>2018-09-29T11:05:06Z</time>
      </trkpt>
      <trkpt lat="44.80469" lon="1.59068">
        <ele>230</ele>
        <time>2018-09-29T11:05:18Z</time>
      </trkpt>
      <trkpt lat="44.8046" lon="1.59067">
        <ele>231</ele>
        <time>2018-09-29T11:05:27Z</time>
      </trkpt>
      <trkpt lat="44.80451" lon="1.59069">
        <ele>230</ele>
        <time>2018-09-29T11:06:15Z</time>
      </trkpt>
      <trkpt lat="44.80443" lon="1.59064">
        <ele>228</ele>
        <time>2018-09-29T11:06:22Z</time>
      </trkpt>
      <trkpt lat="44.80433" lon="1.5906">
        <ele>222</ele>
        <time>2018-09-29T11:06:29Z</time>
      </trkpt>
      <trkpt lat="44.80425" lon="1.59054">
        <ele>222</ele>
        <time>2018-09-29T11:06:38Z</time>
      </trkpt>
      <trkpt lat="44.80415" lon="1.59052">
        <ele>223</ele>
        <time>2018-09-29T11:06:45Z</time>
      </trkpt>
      <trkpt lat="44.80407" lon="1.59044">
        <ele>225</ele>
        <time>2018-09-29T11:06:56Z</time>
      </trkpt>
      <trkpt lat="44.80399" lon="1.59036">
        <ele>226</ele>
        <time>2018-09-29T11:07:03Z</time>
      </trkpt>
      <trkpt lat="44.8039" lon="1.59027">
        <ele>223</ele>
        <time>2018-09-29T11:07:10Z</time>
      </trkpt>
      <trkpt lat="44.80381" lon="1.59027">
        <ele>226</ele>
        <time>2018-09-29T11:07:19Z</time>
      </trkpt>
      <trkpt lat="44.80372" lon="1.59028">
        <ele>228</ele>
        <time>2018-09-29T11:07:28Z</time>
      </trkpt>
      <trkpt lat="44.80368" lon="1.5904">
        <ele>224</ele>
        <time>2018-09-29T11:08:02Z</time>
      </trkpt>
      <trkpt lat="44.80375" lon="1.59049">
        <ele>221</ele>
        <time>2018-09-29T11:08:16Z</time>
      </trkpt>
      <trkpt lat="44.80383" lon="1.59055">
        <ele>218</ele>
        <time>2018-09-29T11:08:24Z</time>
      </trkpt>
      <trkpt lat="44.80391" lon="1.59063">
        <ele>216</ele>
        <time>2018-09-29T11:08:32Z</time>
      </trkpt>
      <trkpt lat="44.80398" lon="1.5907">
        <ele>218</ele>
        <time>2018-09-29T11:08:41Z</time>
      </trkpt>
      <trkpt lat="44.80404" lon="1.5908">
        <ele>212</ele>
        <time>2018-09-29T11:08:49Z</time>
      </trkpt>
      <trkpt lat="44.80411" lon="1.59091">
        <ele>209</ele>
        <time>2018-09-29T11:08:59Z</time>
      </trkpt>
      <trkpt lat="44.80417" lon="1.59101">
        <ele>205</ele>
        <time>2018-09-29T11:09:10Z</time>
      </trkpt>
      <trkpt lat="44.80414" lon="1.59114">
        <ele>208</ele>
        <time>2018-09-29T11:09:23Z</time>
      </trkpt>
      <trkpt lat="44.80404" lon="1.59114">
        <ele>206</ele>
        <time>2018-09-29T11:09:30Z</time>
      </trkpt>
      <trkpt lat="44.80396" lon="1.59108">
        <ele>203</ele>
        <time>2018-09-29T11:09:43Z</time>
      </trkpt>
      <trkpt lat="44.80386" lon="1.59105">
        <ele>198</ele>
        <time>2018-09-29T11:09:50Z</time>
      </trkpt>
      <trkpt lat="44.80375" lon="1.59106">
        <ele>195</ele>
        <time>2018-09-29T11:09:57Z</time>
      </trkpt>
      <trkpt lat="44.80365" lon="1.59108">
        <ele>196</ele>
        <time>2018-09-29T11:10:12Z</time>
      </trkpt>
      <trkpt lat="44.80357" lon="1.59113">
        <ele>202</ele>
        <time>2018-09-29T11:10:20Z</time>
      </trkpt>
      <trkpt lat="44.80347" lon="1.59109">
        <ele>189</ele>
        <time>2018-09-29T11:10:45Z</time>
      </trkpt>
      <trkpt lat="44.80337" lon="1.59109">
        <ele>193</ele>
        <time>2018-09-29T11:10:56Z</time>
      </trkpt>
      <trkpt lat="44.80328" lon="1.59109">
        <ele>188</ele>
        <time>2018-09-29T11:11:06Z</time>
      </trkpt>
      <trkpt lat="44.80319" lon="1.59109">
        <ele>185</ele>
        <time>2018-09-29T11:11:16Z</time>
      </trkpt>
      <trkpt lat="44.80309" lon="1.59105">
        <ele>181</ele>
        <time>2018-09-29T11:11:34Z</time>
      </trkpt>
      <trkpt lat="44.803" lon="1.59099">
        <ele>175</ele>
        <time>2018-09-29T11:11:43Z</time>
      </trkpt>
      <trkpt lat="44.80291" lon="1.59101">
        <ele>174</ele>
        <time>2018-09-29T11:11:49Z</time>
      </trkpt>
      <trkpt lat="44.80282" lon="1.59094">
        <ele>172</ele>
        <time>2018-09-29T11:12:16Z</time>
      </trkpt>
      <trkpt lat="44.80273" lon="1.59089">
        <ele>170</ele>
        <time>2018-09-29T11:12:24Z</time>
      </trkpt>
      <trkpt lat="44.80263" lon="1.59085">
        <ele>170</ele>
        <time>2018-09-29T11:12:31Z</time>
      </trkpt>
      <trkpt lat="44.80254" lon="1.59079">
        <ele>167</ele>
        <time>2018-09-29T11:12:40Z</time>
      </trkpt>
      <trkpt lat="44.80246" lon="1.59073">
        <ele>167</ele>
        <time>2018-09-29T11:12:46Z</time>
      </trkpt>
      <trkpt lat="44.80238" lon="1.59066">
        <ele>169</ele>
        <time>2018-09-29T11:13:13Z</time>
      </trkpt>
      <trkpt lat="44.8023" lon="1.59059">
        <ele>170</ele>
        <time>2018-09-29T11:13:29Z</time>
      </trkpt>
      <trkpt lat="44.80228" lon="1.59046">
        <ele>173</ele>
        <time>2018-09-29T11:13:45Z</time>
      </trkpt>
      <trkpt lat="44.80221" lon="1.59036">
        <ele>173</ele>
        <time>2018-09-29T11:13:53Z</time>
      </trkpt>
      <trkpt lat="44.80215" lon="1.59026">
        <ele>170</ele>
        <time>2018-09-29T11:14:01Z</time>
      </trkpt>
      <trkpt lat="44.80205" lon="1.59025">
        <ele>171</ele>
        <time>2018-09-29T11:14:08Z</time>
      </trkpt>
      <trkpt lat="44.80197" lon="1.59021">
        <ele>168</ele>
        <time>2018-09-29T11:14:16Z</time>
      </trkpt>
      <trkpt lat="44.80189" lon="1.59012">
        <ele>168</ele>
        <time>2018-09-29T11:15:00Z</time>
      </trkpt>
      <trkpt lat="44.8018" lon="1.59008">
        <ele>168</ele>
        <time>2018-09-29T11:15:07Z</time>
      </trkpt>
      <trkpt lat="44.80171" lon="1.59004">
        <ele>170</ele>
        <time>2018-09-29T11:15:15Z</time>
      </trkpt>
      <trkpt lat="44.80161" lon="1.59001">
        <ele>165</ele>
        <time>2018-09-29T11:15:52Z</time>
      </trkpt>
      <trkpt lat="44.80151" lon="1.58999">
        <ele>162</ele>
        <time>2018-09-29T11:15:58Z</time>
      </trkpt>
      <trkpt lat="44.80143" lon="1.58992">
        <ele>158</ele>
        <time>2018-09-29T11:16:04Z</time>
      </trkpt>
      <trkpt lat="44.80135" lon="1.58988">
        <ele>157</ele>
        <time>2018-09-29T11:16:09Z</time>
      </trkpt>
      <trkpt lat="44.80126" lon="1.58982">
        <ele>158</ele>
        <time>2018-09-29T11:16:16Z</time>
      </trkpt>
      <trkpt lat="44.80117" lon="1.58977">
        <ele>153</ele>
        <time>2018-09-29T11:16:25Z</time>
      </trkpt>
      <trkpt lat="44.80108" lon="1.58971">
        <ele>151</ele>
        <time>2018-09-29T11:16:33Z</time>
      </trkpt>
      <trkpt lat="44.80099" lon="1.58963">
        <ele>148</ele>
        <time>2018-09-29T11:16:43Z</time>
      </trkpt>
      <trkpt lat="44.80089" lon="1.58961">
        <ele>147</ele>
        <time>2018-09-29T11:16:50Z</time>
      </trkpt>
      <trkpt lat="44.80083" lon="1.5895">
        <ele>144</ele>
        <time>2018-09-29T11:17:01Z</time>
      </trkpt>
      <trkpt lat="44.80075" lon="1.58946">
        <ele>142</ele>
        <time>2018-09-29T11:17:08Z</time>
      </trkpt>
      <trkpt lat="44.80069" lon="1.58935">
        <ele>139</ele>
        <time>2018-09-29T11:17:18Z</time>
      </trkpt>
      <trkpt lat="44.80062" lon="1.58927">
        <ele>140</ele>
        <time>2018-09-29T11:17:27Z</time>
      </trkpt>
      <trkpt lat="44.80054" lon="1.58919">
        <ele>135</ele>
        <time>2018-09-29T11:17:41Z</time>
      </trkpt>
      <trkpt lat="44.80046" lon="1.58912">
        <ele>128</ele>
        <time>2018-09-29T11:17:54Z</time>
      </trkpt>
      <trkpt lat="44.80043" lon="1.589">
        <ele>133</ele>
        <time>2018-09-29T11:18:06Z</time>
      </trkpt>
      <trkpt lat="44.80037" lon="1.58889">
        <ele>132</ele>
        <time>2018-09-29T11:18:16Z</time>
      </trkpt>
      <trkpt lat="44.80028" lon="1.58886">
        <ele>129</ele>
        <time>2018-09-29T11:18:24Z</time>
      </trkpt>
      <trkpt lat="44.80021" lon="1.58877">
        <ele>130</ele>
        <time>2018-09-29T11:19:09Z</time>
      </trkpt>
      <trkpt lat="44.80012" lon="1.5887">
        <ele>128</ele>
        <time>2018-09-29T11:19:18Z</time>
      </trkpt>
      <trkpt lat="44.80006" lon="1.58859">
        <ele>125</ele>
        <time>2018-09-29T11:19:31Z</time>
      </trkpt>
      <trkpt lat="44.80003" lon="1.58847">
        <ele>127</ele>
        <time>2018-09-29T11:19:39Z</time>
      </trkpt>
      <trkpt lat="44.80002" lon="1.58834">
        <ele>126</ele>
        <time>2018-09-29T11:19:47Z</time>
      </trkpt>
      <trkpt lat="44.8" lon="1.58822">
        <ele>126</ele>
        <time>2018-09-29T11:19:54Z</time>
      </trkpt>
      <trkpt lat="44.79998" lon="1.58809">
        <ele>126</ele>
        <time>2018-09-29T11:20:03Z</time>
      </trkpt>
      <trkpt lat="44.79992" lon="1.58818">
        <ele>122</ele>
        <time>2018-09-29T11:20:33Z</time>
      </trkpt>
      <trkpt lat="44.79994" lon="1.5883">
        <ele>112</ele>
        <time>2018-09-29T11:20:48Z</time>
      </trkpt>
      <trkpt lat="44.79994" lon="1.58843">
        <ele>112</ele>
        <time>2018-09-29T11:20:57Z</time>
      </trkpt>
      <trkpt lat="44.79991" lon="1.58856">
        <ele>115</ele>
        <time>2018-09-29T11:21:02Z</time>
      </trkpt>
      <trkpt lat="44.79987" lon="1.58869">
        <ele>118</ele>
        <time>2018-09-29T11:21:09Z</time>
      </trkpt>
      <trkpt lat="44.79991" lon="1.58881">
        <ele>120</ele>
        <time>2018-09-29T11:21:16Z</time>
      </trkpt>
      <trkpt lat="44.79991" lon="1.58895">
        <ele>115</ele>
        <time>2018-09-29T11:21:28Z</time>
      </trkpt>
      <trkpt lat="44.79984" lon="1.58904">
        <ele>110</ele>
        <time>2018-09-29T11:21:36Z</time>
      </trkpt>
      <trkpt lat="44.79976" lon="1.58912">
        <ele>114</ele>
        <time>2018-09-29T11:21:43Z</time>
      </trkpt>
      <trkpt lat="44.79966" lon="1.58919">
        <ele>114</ele>
        <time>2018-09-29T11:21:51Z</time>
      </trkpt>
      <trkpt lat="44.79958" lon="1.58927">
        <ele>121</ele>
        <time>2018-09-29T11:22:02Z</time>
      </trkpt>
      <trkpt lat="44.7995" lon="1.58936">
        <ele>120</ele>
        <time>2018-09-29T11:22:10Z</time>
      </trkpt>
      <trkpt lat="44.7994" lon="1.58939">
        <ele>117</ele>
        <time>2018-09-29T11:22:19Z</time>
      </trkpt>
      <trkpt lat="44.7993" lon="1.58942">
        <ele>117</ele>
        <time>2018-09-29T11:22:28Z</time>
      </trkpt>
      <trkpt lat="44.79922" lon="1.58948">
        <ele>116</ele>
        <time>2018-09-29T11:22:36Z</time>
      </trkpt>
      <trkpt lat="44.79911" lon="1.58951">
        <ele>116</ele>
        <time>2018-09-29T11:22:45Z</time>
      </trkpt>
      <trkpt lat="44.79904" lon="1.5896">
        <ele>122</ele>
        <time>2018-09-29T11:22:52Z</time>
      </trkpt>
      <trkpt lat="44.79895" lon="1.58958">
        <ele>118</ele>
        <time>2018-09-29T11:23:00Z</time>
      </trkpt>
      <trkpt lat="44.79885" lon="1.58953">
        <ele>118</ele>
        <time>2018-09-29T11:23:06Z</time>
      </trkpt>
      <trkpt lat="44.79873" lon="1.58958">
        <ele>117</ele>
        <time>2018-09-29T11:23:16Z</time>
      </trkpt>
      <trkpt lat="44.79864" lon="1.58959">
        <ele>110</ele>
        <time>2018-09-29T11:23:31Z</time>
      </trkpt>
      <trkpt lat="44.79855" lon="1.58964">
        <ele>112</ele>
        <time>2018-09-29T11:23:38Z</time>
      </trkpt>
      <trkpt lat="44.79844" lon="1.58959">
        <ele>113</ele>
        <time>2018-09-29T11:23:46Z</time>
      </trkpt>
      <trkpt lat="44.79834" lon="1.58963">
        <ele>119</ele>
        <time>2018-09-29T11:23:53Z</time>
      </trkpt>
      <trkpt lat="44.79825" lon="1.58969">
        <ele>115</ele>
        <time>2018-09-29T11:24:03Z</time>
      </trkpt>
      <trkpt lat="44.79817" lon="1.58974">
        <ele>116</ele>
        <time>2018-09-29T11:24:09Z</time>
      </trkpt>
      <trkpt lat="44.79805" lon="1.58969">
        <ele>125</ele>
        <time>2018-09-29T11:24:56Z</time>
      </trkpt>
      <trkpt lat="44.79796" lon="1.58968">
        <ele>132</ele>
        <time>2018-09-29T11:26:49Z</time>
      </trkpt>
      <trkpt lat="44.79789" lon="1.58959">
        <ele>125</ele>
        <time>2018-09-29T11:27:05Z</time>
      </trkpt>
      <trkpt lat="44.7978" lon="1.58954">
        <ele>123</ele>
        <time>2018-09-29T11:27:26Z</time>
      </trkpt>
      <trkpt lat="44.7977" lon="1.58956">
        <ele>123</ele>
        <time>2018-09-29T11:27:32Z</time>
      </trkpt>
      <trkpt lat="44.79759" lon="1.58958">
        <ele>126</ele>
        <time>2018-09-29T11:27:40Z</time>
      </trkpt>
      <trkpt lat="44.7975" lon="1.5896">
        <ele>123</ele>
        <time>2018-09-29T11:27:48Z</time>
      </trkpt>
      <trkpt lat="44.79741" lon="1.58966">
        <ele>123</ele>
        <time>2018-09-29T11:27:55Z</time>
      </trkpt>
      <trkpt lat="44.79731" lon="1.58966">
        <ele>121</ele>
        <time>2018-09-29T11:28:02Z</time>
      </trkpt>
      <trkpt lat="44.79723" lon="1.58971">
        <ele>120</ele>
        <time>2018-09-29T11:28:08Z</time>
      </trkpt>
      <trkpt lat="44.79713" lon="1.58975">
        <ele>119</ele>
        <time>2018-09-29T11:28:16Z</time>
      </trkpt>
      <trkpt lat="44.79702" lon="1.58975">
        <ele>121</ele>
        <time>2018-09-29T11:28:53Z</time>
      </trkpt>
      <trkpt lat="44.79694" lon="1.5897">
        <ele>121</ele>
        <time>2018-09-29T11:28:57Z</time>
      </trkpt>
      <trkpt lat="44.79684" lon="1.58968">
        <ele>123</ele>
        <time>2018-09-29T11:29:02Z</time>
      </trkpt>
      <trkpt lat="44.79674" lon="1.5897">
        <ele>126</ele>
        <time>2018-09-29T11:29:08Z</time>
      </trkpt>
      <trkpt lat="44.79669" lon="1.58958">
        <ele>124</ele>
        <time>2018-09-29T11:29:18Z</time>
      </trkpt>
      <trkpt lat="44.79661" lon="1.58963">
        <ele>124</ele>
        <time>2018-09-29T11:29:21Z</time>
      </trkpt>
      <trkpt lat="44.79652" lon="1.5897">
        <ele>126</ele>
        <time>2018-09-29T11:29:28Z</time>
      </trkpt>
      <trkpt lat="44.79642" lon="1.58972">
        <ele>125</ele>
        <time>2018-09-29T11:29:35Z</time>
      </trkpt>
      <trkpt lat="44.79633" lon="1.58969">
        <ele>127</ele>
        <time>2018-09-29T11:29:44Z</time>
      </trkpt>
      <trkpt lat="44.79624" lon="1.58965">
        <ele>124</ele>
        <time>2018-09-29T11:29:51Z</time>
      </trkpt>
      <trkpt lat="44.79616" lon="1.5896">
        <ele>120</ele>
        <time>2018-09-29T11:29:59Z</time>
      </trkpt>
      <trkpt lat="44.79606" lon="1.58953">
        <ele>121</ele>
        <time>2018-09-29T11:30:08Z</time>
      </trkpt>
      <trkpt lat="44.79596" lon="1.58955">
        <ele>122</ele>
        <time>2018-09-29T11:30:20Z</time>
      </trkpt>
      <trkpt lat="44.7959" lon="1.58966">
        <ele>127</ele>
        <time>2018-09-29T11:30:31Z</time>
      </trkpt>
      <trkpt lat="44.79583" lon="1.58976">
        <ele>121</ele>
        <time>2018-09-29T11:30:42Z</time>
      </trkpt>
      <trkpt lat="44.7958" lon="1.5899">
        <ele>121</ele>
        <time>2018-09-29T11:30:51Z</time>
      </trkpt>
      <trkpt lat="44.79574" lon="1.59002">
        <ele>125</ele>
        <time>2018-09-29T11:31:00Z</time>
      </trkpt>
      <trkpt lat="44.79572" lon="1.59016">
        <ele>127</ele>
        <time>2018-09-29T11:31:08Z</time>
      </trkpt>
      <trkpt lat="44.79569" lon="1.59029">
        <ele>127</ele>
        <time>2018-09-29T11:31:17Z</time>
      </trkpt>
      <trkpt lat="44.79567" lon="1.59043">
        <ele>127</ele>
        <time>2018-09-29T11:31:25Z</time>
      </trkpt>
      <trkpt lat="44.79566" lon="1.59056">
        <ele>128</ele>
        <time>2018-09-29T11:31:33Z</time>
      </trkpt>
      <trkpt lat="44.7956" lon="1.59066">
        <ele>127</ele>
        <time>2018-09-29T11:31:38Z</time>
      </trkpt>
      <trkpt lat="44.79556" lon="1.5908">
        <ele>123</ele>
        <time>2018-09-29T11:31:48Z</time>
      </trkpt>
      <trkpt lat="44.79551" lon="1.59091">
        <ele>125</ele>
        <time>2018-09-29T11:31:57Z</time>
      </trkpt>
      <trkpt lat="44.79543" lon="1.591">
        <ele>124</ele>
        <time>2018-09-29T11:32:06Z</time>
      </trkpt>
      <trkpt lat="44.79536" lon="1.59087">
        <ele>122</ele>
        <time>2018-09-29T11:32:12Z</time>
      </trkpt>
      <trkpt lat="44.79542" lon="1.59077">
        <ele>123</ele>
        <time>2018-09-29T11:32:23Z</time>
      </trkpt>
      <trkpt lat="44.79546" lon="1.59066">
        <ele>124</ele>
        <time>2018-09-29T11:32:34Z</time>
      </trkpt>
      <trkpt lat="44.79549" lon="1.59054">
        <ele>128</ele>
        <time>2018-09-29T11:32:42Z</time>
      </trkpt>
      <trkpt lat="44.79549" lon="1.59037">
        <ele>131</ele>
        <time>2018-09-29T11:33:13Z</time>
      </trkpt>
      <trkpt lat="44.79548" lon="1.59023">
        <ele>130</ele>
        <time>2018-09-29T11:33:19Z</time>
      </trkpt>
      <trkpt lat="44.79548" lon="1.59007">
        <ele>129</ele>
        <time>2018-09-29T11:33:25Z</time>
      </trkpt>
      <trkpt lat="44.79548" lon="1.58993">
        <ele>127</ele>
        <time>2018-09-29T11:33:35Z</time>
      </trkpt>
      <trkpt lat="44.79547" lon="1.5898">
        <ele>131</ele>
        <time>2018-09-29T11:33:44Z</time>
      </trkpt>
      <trkpt lat="44.79545" lon="1.58966">
        <ele>136</ele>
        <time>2018-09-29T11:33:55Z</time>
      </trkpt>
      <trkpt lat="44.79548" lon="1.58953">
        <ele>143</ele>
        <time>2018-09-29T11:34:04Z</time>
      </trkpt>
      <trkpt lat="44.7954" lon="1.58959">
        <ele>146</ele>
        <time>2018-09-29T11:34:35Z</time>
      </trkpt>
      <trkpt lat="44.79536" lon="1.58972">
        <ele>148</ele>
        <time>2018-09-29T11:34:55Z</time>
      </trkpt>
      <trkpt lat="44.79535" lon="1.58986">
        <ele>152</ele>
        <time>2018-09-29T11:35:03Z</time>
      </trkpt>
      <trkpt lat="44.7953" lon="1.58996">
        <ele>150</ele>
        <time>2018-09-29T11:35:12Z</time>
      </trkpt>
      <trkpt lat="44.79529" lon="1.59009">
        <ele>152</ele>
        <time>2018-09-29T11:36:08Z</time>
      </trkpt>
      <trkpt lat="44.79522" lon="1.59018">
        <ele>151</ele>
        <time>2018-09-29T11:36:17Z</time>
      </trkpt>
      <trkpt lat="44.79512" lon="1.59024">
        <ele>151</ele>
        <time>2018-09-29T11:36:39Z</time>
      </trkpt>
      <trkpt lat="44.79503" lon="1.59026">
        <ele>154</ele>
        <time>2018-09-29T11:36:48Z</time>
      </trkpt>
      <trkpt lat="44.79494" lon="1.59032">
        <ele>156</ele>
        <time>2018-09-29T11:36:56Z</time>
      </trkpt>
      <trkpt lat="44.79485" lon="1.59029">
        <ele>154</ele>
        <time>2018-09-29T11:37:04Z</time>
      </trkpt>
      <trkpt lat="44.79475" lon="1.59026">
        <ele>157</ele>
        <time>2018-09-29T11:37:13Z</time>
      </trkpt>
      <trkpt lat="44.79467" lon="1.5902">
        <ele>159</ele>
        <time>2018-09-29T11:37:23Z</time>
      </trkpt>
      <trkpt lat="44.79458" lon="1.59015">
        <ele>158</ele>
        <time>2018-09-29T11:37:31Z</time>
      </trkpt>
      <trkpt lat="44.79449" lon="1.59011">
        <ele>158</ele>
        <time>2018-09-29T11:37:42Z</time>
      </trkpt>
      <trkpt lat="44.79439" lon="1.59011">
        <ele>158</ele>
        <time>2018-09-29T11:37:49Z</time>
      </trkpt>
      <trkpt lat="44.79429" lon="1.59011">
        <ele>162</ele>
        <time>2018-09-29T11:37:56Z</time>
      </trkpt>
      <trkpt lat="44.7942" lon="1.59011">
        <ele>164</ele>
        <time>2018-09-29T11:38:06Z</time>
      </trkpt>
      <trkpt lat="44.79411" lon="1.59015">
        <ele>165</ele>
        <time>2018-09-29T11:38:13Z</time>
      </trkpt>
      <trkpt lat="44.79402" lon="1.59013">
        <ele>168</ele>
        <time>2018-09-29T11:38:20Z</time>
      </trkpt>
      <trkpt lat="44.79392" lon="1.59014">
        <ele>171</ele>
        <time>2018-09-29T11:38:30Z</time>
      </trkpt>
      <trkpt lat="44.79383" lon="1.59019">
        <ele>166</ele>
        <time>2018-09-29T11:38:38Z</time>
      </trkpt>
      <trkpt lat="44.79373" lon="1.59027">
        <ele>165</ele>
        <time>2018-09-29T11:38:45Z</time>
      </trkpt>
      <trkpt lat="44.79364" lon="1.59028">
        <ele>164</ele>
        <time>2018-09-29T11:38:57Z</time>
      </trkpt>
      <trkpt lat="44.79355" lon="1.59037">
        <ele>164</ele>
        <time>2018-09-29T11:39:07Z</time>
      </trkpt>
      <trkpt lat="44.79347" lon="1.59042">
        <ele>167</ele>
        <time>2018-09-29T11:39:16Z</time>
      </trkpt>
      <trkpt lat="44.79337" lon="1.59048">
        <ele>167</ele>
        <time>2018-09-29T11:39:25Z</time>
      </trkpt>
      <trkpt lat="44.79328" lon="1.59057">
        <ele>170</ele>
        <time>2018-09-29T11:41:00Z</time>
      </trkpt>
      <trkpt lat="44.79321" lon="1.59066">
        <ele>168</ele>
        <time>2018-09-29T11:41:32Z</time>
      </trkpt>
      <trkpt lat="44.79315" lon="1.59075">
        <ele>166</ele>
        <time>2018-09-29T11:42:11Z</time>
      </trkpt>
      <trkpt lat="44.79309" lon="1.59087">
        <ele>167</ele>
        <time>2018-09-29T11:42:19Z</time>
      </trkpt>
      <trkpt lat="44.79302" lon="1.59097">
        <ele>164</ele>
        <time>2018-09-29T11:42:28Z</time>
      </trkpt>
      <trkpt lat="44.793" lon="1.5911">
        <ele>160</ele>
        <time>2018-09-29T11:42:39Z</time>
      </trkpt>
      <trkpt lat="44.79294" lon="1.5912">
        <ele>162</ele>
        <time>2018-09-29T11:42:47Z</time>
      </trkpt>
      <trkpt lat="44.79284" lon="1.59124">
        <ele>166</ele>
        <time>2018-09-29T11:46:45Z</time>
      </trkpt>
      <trkpt lat="44.79279" lon="1.59113">
        <ele>164</ele>
        <time>2018-09-29T11:46:53Z</time>
      </trkpt>
      <trkpt lat="44.79278" lon="1.591">
        <ele>165</ele>
        <time>2018-09-29T11:47:05Z</time>
      </trkpt>
      <trkpt lat="44.79276" lon="1.59086">
        <ele>164</ele>
        <time>2018-09-29T11:47:14Z</time>
      </trkpt>
      <trkpt lat="44.79276" lon="1.59073">
        <ele>163</ele>
        <time>2018-09-29T11:47:24Z</time>
      </trkpt>
      <trkpt lat="44.79276" lon="1.5906">
        <ele>160</ele>
        <time>2018-09-29T11:47:58Z</time>
      </trkpt>
      <trkpt lat="44.79279" lon="1.59047">
        <ele>160</ele>
        <time>2018-09-29T11:48:36Z</time>
      </trkpt>
      <trkpt lat="44.7928" lon="1.59034">
        <ele>156</ele>
        <time>2018-09-29T11:48:46Z</time>
      </trkpt>
      <trkpt lat="44.79283" lon="1.5902">
        <ele>155</ele>
        <time>2018-09-29T11:48:54Z</time>
      </trkpt>
      <trkpt lat="44.79283" lon="1.59007">
        <ele>156</ele>
        <time>2018-09-29T11:48:59Z</time>
      </trkpt>
      <trkpt lat="44.7928" lon="1.58994">
        <ele>158</ele>
        <time>2018-09-29T11:49:07Z</time>
      </trkpt>
      <trkpt lat="44.79277" lon="1.5898">
        <ele>158</ele>
        <time>2018-09-29T11:49:15Z</time>
      </trkpt>
      <trkpt lat="44.79279" lon="1.58967">
        <ele>154</ele>
        <time>2018-09-29T11:49:24Z</time>
      </trkpt>
      <trkpt lat="44.79276" lon="1.58954">
        <ele>154</ele>
        <time>2018-09-29T11:49:32Z</time>
      </trkpt>
      <trkpt lat="44.79276" lon="1.5894">
        <ele>155</ele>
        <time>2018-09-29T11:49:43Z</time>
      </trkpt>
      <trkpt lat="44.79274" lon="1.58927">
        <ele>154</ele>
        <time>2018-09-29T11:49:50Z</time>
      </trkpt>
      <trkpt lat="44.79275" lon="1.58914">
        <ele>154</ele>
        <time>2018-09-29T11:49:58Z</time>
      </trkpt>
      <trkpt lat="44.79271" lon="1.58901">
        <ele>158</ele>
        <time>2018-09-29T11:50:05Z</time>
      </trkpt>
      <trkpt lat="44.79272" lon="1.58887">
        <ele>154</ele>
        <time>2018-09-29T11:50:16Z</time>
      </trkpt>
      <trkpt lat="44.79274" lon="1.58874">
        <ele>153</ele>
        <time>2018-09-29T11:50:24Z</time>
      </trkpt>
      <trkpt lat="44.79273" lon="1.58859">
        <ele>153</ele>
        <time>2018-09-29T11:50:34Z</time>
      </trkpt>
      <trkpt lat="44.79271" lon="1.58846">
        <ele>152</ele>
        <time>2018-09-29T11:50:42Z</time>
      </trkpt>
      <trkpt lat="44.79267" lon="1.58833">
        <ele>154</ele>
        <time>2018-09-29T11:50:50Z</time>
      </trkpt>
      <trkpt lat="44.79265" lon="1.5882">
        <ele>154</ele>
        <time>2018-09-29T11:50:57Z</time>
      </trkpt>
      <trkpt lat="44.79269" lon="1.58806">
        <ele>153</ele>
        <time>2018-09-29T11:51:05Z</time>
      </trkpt>
      <trkpt lat="44.79265" lon="1.58793">
        <ele>151</ele>
        <time>2018-09-29T11:51:16Z</time>
      </trkpt>
      <trkpt lat="44.79259" lon="1.58781">
        <ele>152</ele>
        <time>2018-09-29T11:51:23Z</time>
      </trkpt>
      <trkpt lat="44.79259" lon="1.58767">
        <ele>151</ele>
        <time>2018-09-29T11:51:30Z</time>
      </trkpt>
      <trkpt lat="44.79259" lon="1.58754">
        <ele>152</ele>
        <time>2018-09-29T11:51:38Z</time>
      </trkpt>
      <trkpt lat="44.79259" lon="1.5874">
        <ele>152</ele>
        <time>2018-09-29T11:51:49Z</time>
      </trkpt>
      <trkpt lat="44.79252" lon="1.58728">
        <ele>155</ele>
        <time>2018-09-29T11:51:56Z</time>
      </trkpt>
      <trkpt lat="44.79254" lon="1.58713">
        <ele>150</ele>
        <time>2018-09-29T11:52:07Z</time>
      </trkpt>
      <trkpt lat="44.79255" lon="1.58701">
        <ele>147</ele>
        <time>2018-09-29T11:52:14Z</time>
      </trkpt>
      <trkpt lat="44.79254" lon="1.58687">
        <ele>145</ele>
        <time>2018-09-29T11:52:23Z</time>
      </trkpt>
      <trkpt lat="44.7925" lon="1.58675">
        <ele>145</ele>
        <time>2018-09-29T11:52:29Z</time>
      </trkpt>
      <trkpt lat="44.79248" lon="1.58662">
        <ele>148</ele>
        <time>2018-09-29T11:52:39Z</time>
      </trkpt>
      <trkpt lat="44.79243" lon="1.5865">
        <ele>147</ele>
        <time>2018-09-29T11:52:46Z</time>
      </trkpt>
      <trkpt lat="44.79243" lon="1.58637">
        <ele>145</ele>
        <time>2018-09-29T11:52:55Z</time>
      </trkpt>
      <trkpt lat="44.79242" lon="1.58623">
        <ele>143</ele>
        <time>2018-09-29T11:53:04Z</time>
      </trkpt>
      <trkpt lat="44.79239" lon="1.58609">
        <ele>141</ele>
        <time>2018-09-29T11:53:13Z</time>
      </trkpt>
      <trkpt lat="44.79233" lon="1.58598">
        <ele>141</ele>
        <time>2018-09-29T11:53:22Z</time>
      </trkpt>
      <trkpt lat="44.79227" lon="1.58588">
        <ele>140</ele>
        <time>2018-09-29T11:53:31Z</time>
      </trkpt>
      <trkpt lat="44.7922" lon="1.58578">
        <ele>145</ele>
        <time>2018-09-29T11:54:07Z</time>
      </trkpt>
      <trkpt lat="44.79215" lon="1.58565">
        <ele>144</ele>
        <time>2018-09-29T11:54:15Z</time>
      </trkpt>
      <trkpt lat="44.79209" lon="1.58556">
        <ele>143</ele>
        <time>2018-09-29T11:54:24Z</time>
      </trkpt>
      <trkpt lat="44.79206" lon="1.58542">
        <ele>143</ele>
        <time>2018-09-29T11:54:30Z</time>
      </trkpt>
      <trkpt lat="44.79203" lon="1.58529">
        <ele>144</ele>
        <time>2018-09-29T11:54:39Z</time>
      </trkpt>
      <trkpt lat="44.79197" lon="1.58517">
        <ele>141</ele>
        <time>2018-09-29T11:54:46Z</time>
      </trkpt>
      <trkpt lat="44.79195" lon="1.58504">
        <ele>140</ele>
        <time>2018-09-29T11:54:53Z</time>
      </trkpt>
      <trkpt lat="44.79192" lon="1.58491">
        <ele>137</ele>
        <time>2018-09-29T11:55:03Z</time>
      </trkpt>
      <trkpt lat="44.79188" lon="1.58479">
        <ele>138</ele>
        <time>2018-09-29T11:55:09Z</time>
      </trkpt>
      <trkpt lat="44.79186" lon="1.58466">
        <ele>137</ele>
        <time>2018-09-29T11:55:16Z</time>
      </trkpt>
      <trkpt lat="44.79183" lon="1.58453">
        <ele>137</ele>
        <time>2018-09-29T11:55:23Z</time>
      </trkpt>
      <trkpt lat="44.79178" lon="1.5844">
        <ele>136</ele>
        <time>2018-09-29T11:55:35Z</time>
      </trkpt>
      <trkpt lat="44.79174" lon="1.58428">
        <ele>136</ele>
        <time>2018-09-29T11:55:42Z</time>
      </trkpt>
      <trkpt lat="44.79174" lon="1.58414">
        <ele>135</ele>
        <time>2018-09-29T11:55:49Z</time>
      </trkpt>
      <trkpt lat="44.79175" lon="1.58401">
        <ele>136</ele>
        <time>2018-09-29T11:55:57Z</time>
      </trkpt>
      <trkpt lat="44.79173" lon="1.58389">
        <ele>134</ele>
        <time>2018-09-29T11:56:04Z</time>
      </trkpt>
      <trkpt lat="44.7917" lon="1.58374">
        <ele>128</ele>
        <time>2018-09-29T11:56:14Z</time>
      </trkpt>
      <trkpt lat="44.79167" lon="1.58359">
        <ele>131</ele>
        <time>2018-09-29T11:56:24Z</time>
      </trkpt>
      <trkpt lat="44.79169" lon="1.58345">
        <ele>131</ele>
        <time>2018-09-29T11:56:32Z</time>
      </trkpt>
      <trkpt lat="44.79167" lon="1.58332">
        <ele>132</ele>
        <time>2018-09-29T11:56:39Z</time>
      </trkpt>
      <trkpt lat="44.79173" lon="1.58321">
        <ele>128</ele>
        <time>2018-09-29T11:56:47Z</time>
      </trkpt>
      <trkpt lat="44.79176" lon="1.58307">
        <ele>129</ele>
        <time>2018-09-29T11:56:55Z</time>
      </trkpt>
      <trkpt lat="44.79181" lon="1.58294">
        <ele>128</ele>
        <time>2018-09-29T11:57:03Z</time>
      </trkpt>
      <trkpt lat="44.79181" lon="1.58281">
        <ele>124</ele>
        <time>2018-09-29T11:57:11Z</time>
      </trkpt>
      <trkpt lat="44.79185" lon="1.58268">
        <ele>125</ele>
        <time>2018-09-29T11:57:21Z</time>
      </trkpt>
      <trkpt lat="44.79183" lon="1.58256">
        <ele>127</ele>
        <time>2018-09-29T11:57:28Z</time>
      </trkpt>
      <trkpt lat="44.79178" lon="1.58244">
        <ele>129</ele>
        <time>2018-09-29T11:57:42Z</time>
      </trkpt>
      <trkpt lat="44.7917" lon="1.58237">
        <ele>127</ele>
        <time>2018-09-29T11:57:51Z</time>
      </trkpt>
      <trkpt lat="44.79163" lon="1.58228">
        <ele>128</ele>
        <time>2018-09-29T11:58:00Z</time>
      </trkpt>
      <trkpt lat="44.79161" lon="1.58215">
        <ele>126</ele>
        <time>2018-09-29T11:58:09Z</time>
      </trkpt>
      <trkpt lat="44.79159" lon="1.58202">
        <ele>130</ele>
        <time>2018-09-29T11:58:17Z</time>
      </trkpt>
      <trkpt lat="44.79163" lon="1.58215">
        <ele>125</ele>
        <time>2018-09-29T11:59:04Z</time>
      </trkpt>
      <trkpt lat="44.79169" lon="1.58227">
        <ele>126</ele>
        <time>2018-09-29T11:59:12Z</time>
      </trkpt>
      <trkpt lat="44.79162" lon="1.58216">
        <ele>126</ele>
        <time>2018-09-29T12:00:25Z</time>
      </trkpt>
      <trkpt lat="44.79159" lon="1.58202">
        <ele>126</ele>
        <time>2018-09-29T12:00:31Z</time>
      </trkpt>
      <trkpt lat="44.79156" lon="1.5819">
        <ele>126</ele>
        <time>2018-09-29T12:00:36Z</time>
      </trkpt>
      <trkpt lat="44.79152" lon="1.58178">
        <ele>128</ele>
        <time>2018-09-29T12:00:45Z</time>
      </trkpt>
      <trkpt lat="44.7915" lon="1.58165">
        <ele>128</ele>
        <time>2018-09-29T12:01:07Z</time>
      </trkpt>
      <trkpt lat="44.79147" lon="1.58153">
        <ele>126</ele>
        <time>2018-09-29T12:01:13Z</time>
      </trkpt>
      <trkpt lat="44.79144" lon="1.5814">
        <ele>129</ele>
        <time>2018-09-29T12:01:19Z</time>
      </trkpt>
      <trkpt lat="44.79141" lon="1.58127">
        <ele>128</ele>
        <time>2018-09-29T12:01:28Z</time>
      </trkpt>
      <trkpt lat="44.7914" lon="1.58141">
        <ele>129</ele>
        <time>2018-09-29T12:02:26Z</time>
      </trkpt>
      <trkpt lat="44.79138" lon="1.58154">
        <ele>126</ele>
        <time>2018-09-29T12:02:39Z</time>
      </trkpt>
      <trkpt lat="44.79136" lon="1.58166">
        <ele>123</ele>
        <time>2018-09-29T12:02:47Z</time>
      </trkpt>
      <trkpt lat="44.79141" lon="1.58178">
        <ele>123</ele>
        <time>2018-09-29T12:02:59Z</time>
      </trkpt>
      <trkpt lat="44.79142" lon="1.58193">
        <ele>125</ele>
        <time>2018-09-29T12:03:17Z</time>
      </trkpt>
      <trkpt lat="44.79142" lon="1.58206">
        <ele>123</ele>
        <time>2018-09-29T12:03:25Z</time>
      </trkpt>
      <trkpt lat="44.79146" lon="1.58217">
        <ele>121</ele>
        <time>2018-09-29T12:03:33Z</time>
      </trkpt>
      <trkpt lat="44.79146" lon="1.58232">
        <ele>123</ele>
        <time>2018-09-29T12:03:43Z</time>
      </trkpt>
      <trkpt lat="44.7914" lon="1.58242">
        <ele>122</ele>
        <time>2018-09-29T12:03:52Z</time>
      </trkpt>
      <trkpt lat="44.79135" lon="1.58257">
        <ele>120</ele>
        <time>2018-09-29T12:04:31Z</time>
      </trkpt>
      <trkpt lat="44.79127" lon="1.58265">
        <ele>120</ele>
        <time>2018-09-29T12:07:13Z</time>
      </trkpt>
      <trkpt lat="44.7913" lon="1.58252">
        <ele>114</ele>
        <time>2018-09-29T12:09:22Z</time>
      </trkpt>
      <trkpt lat="44.79133" lon="1.58239">
        <ele>113</ele>
        <time>2018-09-29T12:09:32Z</time>
      </trkpt>
      <trkpt lat="44.79139" lon="1.58228">
        <ele>113</ele>
        <time>2018-09-29T12:09:45Z</time>
      </trkpt>
      <trkpt lat="44.79138" lon="1.58214">
        <ele>112</ele>
        <time>2018-09-29T12:09:54Z</time>
      </trkpt>
      <trkpt lat="44.79136" lon="1.58199">
        <ele>116</ele>
        <time>2018-09-29T12:10:06Z</time>
      </trkpt>
      <trkpt lat="44.79135" lon="1.58186">
        <ele>120</ele>
        <time>2018-09-29T12:10:14Z</time>
      </trkpt>
      <trkpt lat="44.79131" lon="1.58171">
        <ele>123</ele>
        <time>2018-09-29T12:10:26Z</time>
      </trkpt>
      <trkpt lat="44.79131" lon="1.58159">
        <ele>120</ele>
        <time>2018-09-29T12:10:34Z</time>
      </trkpt>
      <trkpt lat="44.79133" lon="1.58145">
        <ele>120</ele>
        <time>2018-09-29T12:10:43Z</time>
      </trkpt>
      <trkpt lat="44.79134" lon="1.58131">
        <ele>126</ele>
        <time>2018-09-29T12:10:52Z</time>
      </trkpt>
      <trkpt lat="44.79136" lon="1.58118">
        <ele>121</ele>
        <time>2018-09-29T12:11:01Z</time>
      </trkpt>
      <trkpt lat="44.79144" lon="1.58125">
        <ele>126</ele>
        <time>2018-09-29T12:11:15Z</time>
      </trkpt>
      <trkpt lat="44.7915" lon="1.58136">
        <ele>130</ele>
        <time>2018-09-29T12:11:31Z</time>
      </trkpt>
      <trkpt lat="44.79152" lon="1.58149">
        <ele>131</ele>
        <time>2018-09-29T12:11:40Z</time>
      </trkpt>
      <trkpt lat="44.79155" lon="1.58162">
        <ele>130</ele>
        <time>2018-09-29T12:11:48Z</time>
      </trkpt>
      <trkpt lat="44.79159" lon="1.58174">
        <ele>132</ele>
        <time>2018-09-29T12:11:57Z</time>
      </trkpt>
      <trkpt lat="44.79162" lon="1.58187">
        <ele>135</ele>
        <time>2018-09-29T12:12:05Z</time>
      </trkpt>
      <trkpt lat="44.79161" lon="1.58201">
        <ele>130</ele>
        <time>2018-09-29T12:12:14Z</time>
      </trkpt>
      <trkpt lat="44.79165" lon="1.58213">
        <ele>132</ele>
        <time>2018-09-29T12:12:21Z</time>
      </trkpt>
      <trkpt lat="44.79166" lon="1.58226">
        <ele>133</ele>
        <time>2018-09-29T12:12:28Z</time>
      </trkpt>
      <trkpt lat="44.79174" lon="1.58234">
        <ele>133</ele>
        <time>2018-09-29T12:12:37Z</time>
      </trkpt>
      <trkpt lat="44.79182" lon="1.5824">
        <ele>129</ele>
        <time>2018-09-29T12:12:45Z</time>
      </trkpt>
      <trkpt lat="44.79186" lon="1.58254">
        <ele>129</ele>
        <time>2018-09-29T12:12:55Z</time>
      </trkpt>
      <trkpt lat="44.79189" lon="1.58268">
        <ele>126</ele>
        <time>2018-09-29T12:13:02Z</time>
      </trkpt>
      <trkpt lat="44.79189" lon="1.58281">
        <ele>129</ele>
        <time>2018-09-29T12:13:16Z</time>
      </trkpt>
      <trkpt lat="44.79185" lon="1.58295">
        <ele>127</ele>
        <time>2018-09-29T12:13:25Z</time>
      </trkpt>
      <trkpt lat="44.79181" lon="1.58308">
        <ele>130</ele>
        <time>2018-09-29T12:13:35Z</time>
      </trkpt>
      <trkpt lat="44.79173" lon="1.58318">
        <ele>131</ele>
        <time>2018-09-29T12:13:43Z</time>
      </trkpt>
      <trkpt lat="44.79171" lon="1.5833">
        <ele>134</ele>
        <time>2018-09-29T12:14:30Z</time>
      </trkpt>
      <trkpt lat="44.79173" lon="1.58343">
        <ele>137</ele>
        <time>2018-09-29T12:14:39Z</time>
      </trkpt>
      <trkpt lat="44.79174" lon="1.58356">
        <ele>136</ele>
        <time>2018-09-29T12:15:34Z</time>
      </trkpt>
      <trkpt lat="44.79174" lon="1.5837">
        <ele>139</ele>
        <time>2018-09-29T12:15:45Z</time>
      </trkpt>
      <trkpt lat="44.79176" lon="1.58383">
        <ele>138</ele>
        <time>2018-09-29T12:15:56Z</time>
      </trkpt>
      <trkpt lat="44.7918" lon="1.58396">
        <ele>136</ele>
        <time>2018-09-29T12:16:02Z</time>
      </trkpt>
      <trkpt lat="44.79178" lon="1.58409">
        <ele>136</ele>
        <time>2018-09-29T12:16:13Z</time>
      </trkpt>
      <trkpt lat="44.79181" lon="1.58422">
        <ele>133</ele>
        <time>2018-09-29T12:16:21Z</time>
      </trkpt>
      <trkpt lat="44.79182" lon="1.58435">
        <ele>134</ele>
        <time>2018-09-29T12:16:28Z</time>
      </trkpt>
      <trkpt lat="44.79185" lon="1.58448">
        <ele>132</ele>
        <time>2018-09-29T12:16:46Z</time>
      </trkpt>
      <trkpt lat="44.79191" lon="1.5846">
        <ele>133</ele>
        <time>2018-09-29T12:16:55Z</time>
      </trkpt>
      <trkpt lat="44.79194" lon="1.58473">
        <ele>137</ele>
        <time>2018-09-29T12:17:03Z</time>
      </trkpt>
      <trkpt lat="44.79196" lon="1.58488">
        <ele>139</ele>
        <time>2018-09-29T12:17:11Z</time>
      </trkpt>
      <trkpt lat="44.79197" lon="1.58502">
        <ele>135</ele>
        <time>2018-09-29T12:17:20Z</time>
      </trkpt>
      <trkpt lat="44.79202" lon="1.58514">
        <ele>138</ele>
        <time>2018-09-29T12:17:28Z</time>
      </trkpt>
      <trkpt lat="44.79205" lon="1.58526">
        <ele>139</ele>
        <time>2018-09-29T12:17:34Z</time>
      </trkpt>
      <trkpt lat="44.7921" lon="1.58537">
        <ele>142</ele>
        <time>2018-09-29T12:17:43Z</time>
      </trkpt>
      <trkpt lat="44.79217" lon="1.58549">
        <ele>143</ele>
        <time>2018-09-29T12:17:51Z</time>
      </trkpt>
      <trkpt lat="44.79222" lon="1.5856">
        <ele>142</ele>
        <time>2018-09-29T12:17:57Z</time>
      </trkpt>
      <trkpt lat="44.79226" lon="1.58571">
        <ele>141</ele>
        <time>2018-09-29T12:18:05Z</time>
      </trkpt>
      <trkpt lat="44.79232" lon="1.58582">
        <ele>142</ele>
        <time>2018-09-29T12:18:13Z</time>
      </trkpt>
      <trkpt lat="44.79237" lon="1.58595">
        <ele>143</ele>
        <time>2018-09-29T12:18:22Z</time>
      </trkpt>
      <trkpt lat="44.79239" lon="1.58609">
        <ele>142</ele>
        <time>2018-09-29T12:18:30Z</time>
      </trkpt>
      <trkpt lat="44.79246" lon="1.58618">
        <ele>145</ele>
        <time>2018-09-29T12:18:38Z</time>
      </trkpt>
      <trkpt lat="44.7925" lon="1.58631">
        <ele>147</ele>
        <time>2018-09-29T12:18:46Z</time>
      </trkpt>
      <trkpt lat="44.79251" lon="1.58643">
        <ele>147</ele>
        <time>2018-09-29T12:18:51Z</time>
      </trkpt>
      <trkpt lat="44.79251" lon="1.58657">
        <ele>145</ele>
        <time>2018-09-29T12:18:58Z</time>
      </trkpt>
      <trkpt lat="44.79254" lon="1.5867">
        <ele>148</ele>
        <time>2018-09-29T12:19:06Z</time>
      </trkpt>
      <trkpt lat="44.79255" lon="1.58684">
        <ele>144</ele>
        <time>2018-09-29T12:19:14Z</time>
      </trkpt>
      <trkpt lat="44.79257" lon="1.58696">
        <ele>144</ele>
        <time>2018-09-29T12:19:20Z</time>
      </trkpt>
      <trkpt lat="44.79258" lon="1.58711">
        <ele>144</ele>
        <time>2018-09-29T12:19:28Z</time>
      </trkpt>
      <trkpt lat="44.79261" lon="1.58724">
        <ele>146</ele>
        <time>2018-09-29T12:19:35Z</time>
      </trkpt>
      <trkpt lat="44.79264" lon="1.58735">
        <ele>151</ele>
        <time>2018-09-29T12:19:42Z</time>
      </trkpt>
      <trkpt lat="44.79266" lon="1.58748">
        <ele>150</ele>
        <time>2018-09-29T12:19:49Z</time>
      </trkpt>
      <trkpt lat="44.79263" lon="1.58761">
        <ele>141</ele>
        <time>2018-09-29T12:19:54Z</time>
      </trkpt>
      <trkpt lat="44.7926" lon="1.58773">
        <ele>139</ele>
        <time>2018-09-29T12:20:01Z</time>
      </trkpt>
      <trkpt lat="44.79263" lon="1.58785">
        <ele>142</ele>
        <time>2018-09-29T12:20:10Z</time>
      </trkpt>
      <trkpt lat="44.79266" lon="1.58799">
        <ele>142</ele>
        <time>2018-09-29T12:20:17Z</time>
      </trkpt>
      <trkpt lat="44.79269" lon="1.58811">
        <ele>146</ele>
        <time>2018-09-29T12:20:25Z</time>
      </trkpt>
      <trkpt lat="44.79268" lon="1.58824">
        <ele>149</ele>
        <time>2018-09-29T12:20:33Z</time>
      </trkpt>
      <trkpt lat="44.79271" lon="1.58838">
        <ele>151</ele>
        <time>2018-09-29T12:20:39Z</time>
      </trkpt>
      <trkpt lat="44.79275" lon="1.5885">
        <ele>149</ele>
        <time>2018-09-29T12:20:44Z</time>
      </trkpt>
      <trkpt lat="44.79277" lon="1.58864">
        <ele>149</ele>
        <time>2018-09-29T12:20:57Z</time>
      </trkpt>
      <trkpt lat="44.79279" lon="1.58876">
        <ele>148</ele>
        <time>2018-09-29T12:21:03Z</time>
      </trkpt>
      <trkpt lat="44.79277" lon="1.5889">
        <ele>147</ele>
        <time>2018-09-29T12:21:11Z</time>
      </trkpt>
      <trkpt lat="44.79278" lon="1.58905">
        <ele>149</ele>
        <time>2018-09-29T12:21:18Z</time>
      </trkpt>
      <trkpt lat="44.79281" lon="1.58917">
        <ele>154</ele>
        <time>2018-09-29T12:21:25Z</time>
      </trkpt>
      <trkpt lat="44.79277" lon="1.5893">
        <ele>153</ele>
        <time>2018-09-29T12:21:34Z</time>
      </trkpt>
      <trkpt lat="44.79275" lon="1.58944">
        <ele>154</ele>
        <time>2018-09-29T12:21:42Z</time>
      </trkpt>
      <trkpt lat="44.79276" lon="1.58958">
        <ele>154</ele>
        <time>2018-09-29T12:21:50Z</time>
      </trkpt>
      <trkpt lat="44.79276" lon="1.58971">
        <ele>156</ele>
        <time>2018-09-29T12:21:58Z</time>
      </trkpt>
      <trkpt lat="44.79272" lon="1.58984">
        <ele>152</ele>
        <time>2018-09-29T12:22:06Z</time>
      </trkpt>
      <trkpt lat="44.79276" lon="1.58997">
        <ele>155</ele>
        <time>2018-09-29T12:22:15Z</time>
      </trkpt>
      <trkpt lat="44.79277" lon="1.59011">
        <ele>154</ele>
        <time>2018-09-29T12:22:23Z</time>
      </trkpt>
      <trkpt lat="44.79282" lon="1.59024">
        <ele>157</ele>
        <time>2018-09-29T12:22:30Z</time>
      </trkpt>
      <trkpt lat="44.79283" lon="1.59038">
        <ele>157</ele>
        <time>2018-09-29T12:22:39Z</time>
      </trkpt>
      <trkpt lat="44.79282" lon="1.59051">
        <ele>158</ele>
        <time>2018-09-29T12:22:46Z</time>
      </trkpt>
      <trkpt lat="44.79282" lon="1.59064">
        <ele>159</ele>
        <time>2018-09-29T12:22:56Z</time>
      </trkpt>
      <trkpt lat="44.79279" lon="1.59077">
        <ele>156</ele>
        <time>2018-09-29T12:23:02Z</time>
      </trkpt>
      <trkpt lat="44.79277" lon="1.5909">
        <ele>161</ele>
        <time>2018-09-29T12:23:10Z</time>
      </trkpt>
      <trkpt lat="44.79275" lon="1.59103">
        <ele>158</ele>
        <time>2018-09-29T12:23:17Z</time>
      </trkpt>
      <trkpt lat="44.79278" lon="1.59115">
        <ele>160</ele>
        <time>2018-09-29T12:23:26Z</time>
      </trkpt>
      <trkpt lat="44.79282" lon="1.5913">
        <ele>159</ele>
        <time>2018-09-29T12:23:33Z</time>
      </trkpt>
      <trkpt lat="44.79284" lon="1.59143">
        <ele>158</ele>
        <time>2018-09-29T12:23:43Z</time>
      </trkpt>
      <trkpt lat="44.79282" lon="1.59156">
        <ele>160</ele>
        <time>2018-09-29T12:24:22Z</time>
      </trkpt>
      <trkpt lat="44.79284" lon="1.5917">
        <ele>159</ele>
        <time>2018-09-29T12:24:30Z</time>
      </trkpt>
      <trkpt lat="44.7928" lon="1.59183">
        <ele>158</ele>
        <time>2018-09-29T12:24:43Z</time>
      </trkpt>
      <trkpt lat="44.79274" lon="1.59195">
        <ele>156</ele>
        <time>2018-09-29T12:24:47Z</time>
      </trkpt>
      <trkpt lat="44.79271" lon="1.59209">
        <ele>158</ele>
        <time>2018-09-29T12:24:56Z</time>
      </trkpt>
      <trkpt lat="44.7927" lon="1.59224">
        <ele>159</ele>
        <time>2018-09-29T12:25:03Z</time>
      </trkpt>
      <trkpt lat="44.79263" lon="1.59237">
        <ele>156</ele>
        <time>2018-09-29T12:25:10Z</time>
      </trkpt>
      <trkpt lat="44.79262" lon="1.59251">
        <ele>155</ele>
        <time>2018-09-29T12:25:21Z</time>
      </trkpt>
      <trkpt lat="44.79262" lon="1.59265">
        <ele>154</ele>
        <time>2018-09-29T12:25:29Z</time>
      </trkpt>
      <trkpt lat="44.79261" lon="1.59278">
        <ele>152</ele>
        <time>2018-09-29T12:25:36Z</time>
      </trkpt>
      <trkpt lat="44.7926" lon="1.59292">
        <ele>153</ele>
        <time>2018-09-29T12:25:46Z</time>
      </trkpt>
      <trkpt lat="44.79261" lon="1.59305">
        <ele>151</ele>
        <time>2018-09-29T12:25:54Z</time>
      </trkpt>
      <trkpt lat="44.79262" lon="1.5932">
        <ele>152</ele>
        <time>2018-09-29T12:26:01Z</time>
      </trkpt>
      <trkpt lat="44.79261" lon="1.59335">
        <ele>157</ele>
        <time>2018-09-29T12:26:11Z</time>
      </trkpt>
      <trkpt lat="44.79263" lon="1.5935">
        <ele>154</ele>
        <time>2018-09-29T12:26:17Z</time>
      </trkpt>
      <trkpt lat="44.79263" lon="1.59364">
        <ele>150</ele>
        <time>2018-09-29T12:26:26Z</time>
      </trkpt>
      <trkpt lat="44.79263" lon="1.59377">
        <ele>150</ele>
        <time>2018-09-29T12:26:31Z</time>
      </trkpt>
      <trkpt lat="44.79264" lon="1.59392">
        <ele>152</ele>
        <time>2018-09-29T12:26:42Z</time>
      </trkpt>
      <trkpt lat="44.79266" lon="1.59406">
        <ele>150</ele>
        <time>2018-09-29T12:26:49Z</time>
      </trkpt>
      <trkpt lat="44.79268" lon="1.59419">
        <ele>146</ele>
        <time>2018-09-29T12:26:56Z</time>
      </trkpt>
      <trkpt lat="44.79273" lon="1.59431">
        <ele>146</ele>
        <time>2018-09-29T12:27:05Z</time>
      </trkpt>
      <trkpt lat="44.7928" lon="1.59442">
        <ele>146</ele>
        <time>2018-09-29T12:27:12Z</time>
      </trkpt>
      <trkpt lat="44.79285" lon="1.59453">
        <ele>145</ele>
        <time>2018-09-29T12:27:20Z</time>
      </trkpt>
      <trkpt lat="44.79286" lon="1.59467">
        <ele>140</ele>
        <time>2018-09-29T12:27:30Z</time>
      </trkpt>
      <trkpt lat="44.79291" lon="1.59479">
        <ele>138</ele>
        <time>2018-09-29T12:27:38Z</time>
      </trkpt>
      <trkpt lat="44.793" lon="1.5949">
        <ele>140</ele>
        <time>2018-09-29T12:27:44Z</time>
      </trkpt>
      <trkpt lat="44.79306" lon="1.59501">
        <ele>138</ele>
        <time>2018-09-29T12:27:53Z</time>
      </trkpt>
      <trkpt lat="44.79312" lon="1.59511">
        <ele>139</ele>
        <time>2018-09-29T12:28:00Z</time>
      </trkpt>
      <trkpt lat="44.79317" lon="1.59522">
        <ele>139</ele>
        <time>2018-09-29T12:28:07Z</time>
      </trkpt>
      <trkpt lat="44.79323" lon="1.59533">
        <ele>140</ele>
        <time>2018-09-29T12:28:15Z</time>
      </trkpt>
      <trkpt lat="44.7933" lon="1.59541">
        <ele>139</ele>
        <time>2018-09-29T12:28:24Z</time>
      </trkpt>
      <trkpt lat="44.79336" lon="1.59552">
        <ele>138</ele>
        <time>2018-09-29T12:28:31Z</time>
      </trkpt>
      <trkpt lat="44.79343" lon="1.5956">
        <ele>135</ele>
        <time>2018-09-29T12:28:40Z</time>
      </trkpt>
      <trkpt lat="44.79352" lon="1.59568">
        <ele>137</ele>
        <time>2018-09-29T12:28:47Z</time>
      </trkpt>
      <trkpt lat="44.79363" lon="1.59575">
        <ele>142</ele>
        <time>2018-09-29T12:28:55Z</time>
      </trkpt>
      <trkpt lat="44.79371" lon="1.59582">
        <ele>139</ele>
        <time>2018-09-29T12:29:03Z</time>
      </trkpt>
      <trkpt lat="44.79377" lon="1.59591">
        <ele>136</ele>
        <time>2018-09-29T12:29:11Z</time>
      </trkpt>
      <trkpt lat="44.79386" lon="1.59598">
        <ele>136</ele>
        <time>2018-09-29T12:29:19Z</time>
      </trkpt>
      <trkpt lat="44.79394" lon="1.59603">
        <ele>136</ele>
        <time>2018-09-29T12:29:26Z</time>
      </trkpt>
      <trkpt lat="44.79403" lon="1.59609">
        <ele>136</ele>
        <time>2018-09-29T12:29:36Z</time>
      </trkpt>
      <trkpt lat="44.79411" lon="1.59614">
        <ele>133</ele>
        <time>2018-09-29T12:29:46Z</time>
      </trkpt>
      <trkpt lat="44.7942" lon="1.59606">
        <ele>133</ele>
        <time>2018-09-29T12:30:10Z</time>
      </trkpt>
      <trkpt lat="44.79428" lon="1.59593">
        <ele>132</ele>
        <time>2018-09-29T12:30:13Z</time>
      </trkpt>
      <trkpt lat="44.79434" lon="1.59583">
        <ele>132</ele>
        <time>2018-09-29T12:30:19Z</time>
      </trkpt>
      <trkpt lat="44.79441" lon="1.59574">
        <ele>131</ele>
        <time>2018-09-29T12:30:25Z</time>
      </trkpt>
      <trkpt lat="44.79451" lon="1.59576">
        <ele>126</ele>
        <time>2018-09-29T12:30:32Z</time>
      </trkpt>
      <trkpt lat="44.79463" lon="1.59573">
        <ele>129</ele>
        <time>2018-09-29T12:30:45Z</time>
      </trkpt>
      <trkpt lat="44.79473" lon="1.59578">
        <ele>124</ele>
        <time>2018-09-29T12:30:53Z</time>
      </trkpt>
      <trkpt lat="44.7948" lon="1.5959">
        <ele>123</ele>
        <time>2018-09-29T12:31:00Z</time>
      </trkpt>
      <trkpt lat="44.7949" lon="1.59589">
        <ele>122</ele>
        <time>2018-09-29T12:31:04Z</time>
      </trkpt>
      <trkpt lat="44.79499" lon="1.59589">
        <ele>121</ele>
        <time>2018-09-29T12:31:10Z</time>
      </trkpt>
      <trkpt lat="44.79508" lon="1.5959">
        <ele>121</ele>
        <time>2018-09-29T12:31:17Z</time>
      </trkpt>
      <trkpt lat="44.79517" lon="1.59598">
        <ele>121</ele>
        <time>2018-09-29T12:31:28Z</time>
      </trkpt>
      <trkpt lat="44.79528" lon="1.59601">
        <ele>120</ele>
        <time>2018-09-29T12:31:35Z</time>
      </trkpt>
      <trkpt lat="44.79532" lon="1.59613">
        <ele>121</ele>
        <time>2018-09-29T12:31:42Z</time>
      </trkpt>
      <trkpt lat="44.79538" lon="1.59624">
        <ele>119</ele>
        <time>2018-09-29T12:31:49Z</time>
      </trkpt>
      <trkpt lat="44.79545" lon="1.59613">
        <ele>118</ele>
        <time>2018-09-29T12:31:51Z</time>
      </trkpt>
      <trkpt lat="44.79551" lon="1.59624">
        <ele>120</ele>
        <time>2018-09-29T12:31:56Z</time>
      </trkpt>
      <trkpt lat="44.79557" lon="1.59634">
        <ele>121</ele>
        <time>2018-09-29T12:32:04Z</time>
      </trkpt>
      <trkpt lat="44.79568" lon="1.59633">
        <ele>121</ele>
        <time>2018-09-29T12:32:08Z</time>
      </trkpt>
      <trkpt lat="44.79573" lon="1.59644">
        <ele>122</ele>
        <time>2018-09-29T12:32:17Z</time>
      </trkpt>
      <trkpt lat="44.79577" lon="1.59655">
        <ele>123</ele>
        <time>2018-09-29T12:32:24Z</time>
      </trkpt>
      <trkpt lat="44.79585" lon="1.59666">
        <ele>123</ele>
        <time>2018-09-29T12:32:32Z</time>
      </trkpt>
      <trkpt lat="44.79592" lon="1.59675">
        <ele>124</ele>
        <time>2018-09-29T12:32:40Z</time>
      </trkpt>
      <trkpt lat="44.796" lon="1.59683">
        <ele>123</ele>
        <time>2018-09-29T12:32:48Z</time>
      </trkpt>
      <trkpt lat="44.79602" lon="1.59696">
        <ele>124</ele>
        <time>2018-09-29T12:32:55Z</time>
      </trkpt>
      <trkpt lat="44.79613" lon="1.597">
        <ele>119</ele>
        <time>2018-09-29T12:33:02Z</time>
      </trkpt>
      <trkpt lat="44.79618" lon="1.59711">
        <ele>118</ele>
        <time>2018-09-29T12:33:09Z</time>
      </trkpt>
      <trkpt lat="44.79626" lon="1.59717">
        <ele>121</ele>
        <time>2018-09-29T12:33:15Z</time>
      </trkpt>
      <trkpt lat="44.79632" lon="1.59727">
        <ele>124</ele>
        <time>2018-09-29T12:33:22Z</time>
      </trkpt>
      <trkpt lat="44.79633" lon="1.59741">
        <ele>126</ele>
        <time>2018-09-29T12:33:29Z</time>
      </trkpt>
      <trkpt lat="44.79633" lon="1.59755">
        <ele>129</ele>
        <time>2018-09-29T12:33:36Z</time>
      </trkpt>
      <trkpt lat="44.79637" lon="1.59768">
        <ele>130</ele>
        <time>2018-09-29T12:33:47Z</time>
      </trkpt>
      <trkpt lat="44.79633" lon="1.5978">
        <ele>133</ele>
        <time>2018-09-29T12:33:52Z</time>
      </trkpt>
      <trkpt lat="44.79635" lon="1.59793">
        <ele>131</ele>
        <time>2018-09-29T12:33:58Z</time>
      </trkpt>
      <trkpt lat="44.79631" lon="1.59805">
        <ele>134</ele>
        <time>2018-09-29T12:34:04Z</time>
      </trkpt>
      <trkpt lat="44.79629" lon="1.59818">
        <ele>133</ele>
        <time>2018-09-29T12:34:11Z</time>
      </trkpt>
      <trkpt lat="44.79627" lon="1.59832">
        <ele>137</ele>
        <time>2018-09-29T12:34:18Z</time>
      </trkpt>
      <trkpt lat="44.79622" lon="1.59843">
        <ele>136</ele>
        <time>2018-09-29T12:34:24Z</time>
      </trkpt>
      <trkpt lat="44.79614" lon="1.59853">
        <ele>130</ele>
        <time>2018-09-29T12:34:30Z</time>
      </trkpt>
      <trkpt lat="44.79605" lon="1.5986">
        <ele>130</ele>
        <time>2018-09-29T12:34:36Z</time>
      </trkpt>
      <trkpt lat="44.79597" lon="1.59868">
        <ele>129</ele>
        <time>2018-09-29T12:34:43Z</time>
      </trkpt>
      <trkpt lat="44.79596" lon="1.59881">
        <ele>129</ele>
        <time>2018-09-29T12:34:49Z</time>
      </trkpt>
      <trkpt lat="44.79588" lon="1.59889">
        <ele>129</ele>
        <time>2018-09-29T12:34:58Z</time>
      </trkpt>
      <trkpt lat="44.7958" lon="1.59896">
        <ele>128</ele>
        <time>2018-09-29T12:35:04Z</time>
      </trkpt>
      <trkpt lat="44.79571" lon="1.599">
        <ele>129</ele>
        <time>2018-09-29T12:35:11Z</time>
      </trkpt>
      <trkpt lat="44.79559" lon="1.599">
        <ele>128</ele>
        <time>2018-09-29T12:35:18Z</time>
      </trkpt>
      <trkpt lat="44.79551" lon="1.59907">
        <ele>127</ele>
        <time>2018-09-29T12:35:25Z</time>
      </trkpt>
      <trkpt lat="44.79541" lon="1.5991">
        <ele>126</ele>
        <time>2018-09-29T12:35:33Z</time>
      </trkpt>
      <trkpt lat="44.79535" lon="1.59918">
        <ele>128</ele>
        <time>2018-09-29T12:35:40Z</time>
      </trkpt>
      <trkpt lat="44.79527" lon="1.59926">
        <ele>129</ele>
        <time>2018-09-29T12:35:46Z</time>
      </trkpt>
      <trkpt lat="44.79524" lon="1.59938">
        <ele>124</ele>
        <time>2018-09-29T12:35:53Z</time>
      </trkpt>
      <trkpt lat="44.79515" lon="1.59946">
        <ele>122</ele>
        <time>2018-09-29T12:36:01Z</time>
      </trkpt>
      <trkpt lat="44.79505" lon="1.59951">
        <ele>125</ele>
        <time>2018-09-29T12:36:08Z</time>
      </trkpt>
      <trkpt lat="44.79494" lon="1.59952">
        <ele>124</ele>
        <time>2018-09-29T12:36:16Z</time>
      </trkpt>
      <trkpt lat="44.79485" lon="1.59958">
        <ele>124</ele>
        <time>2018-09-29T12:36:23Z</time>
      </trkpt>
      <trkpt lat="44.79476" lon="1.59961">
        <ele>122</ele>
        <time>2018-09-29T12:36:29Z</time>
      </trkpt>
      <trkpt lat="44.79467" lon="1.59968">
        <ele>123</ele>
        <time>2018-09-29T12:36:37Z</time>
      </trkpt>
      <trkpt lat="44.79458" lon="1.59974">
        <ele>120</ele>
        <time>2018-09-29T12:36:43Z</time>
      </trkpt>
      <trkpt lat="44.7945" lon="1.59983">
        <ele>122</ele>
        <time>2018-09-29T12:36:51Z</time>
      </trkpt>
      <trkpt lat="44.79444" lon="1.59993">
        <ele>123</ele>
        <time>2018-09-29T12:36:59Z</time>
      </trkpt>
      <trkpt lat="44.79437" lon="1.60004">
        <ele>120</ele>
        <time>2018-09-29T12:37:06Z</time>
      </trkpt>
      <trkpt lat="44.79436" lon="1.60018">
        <ele>119</ele>
        <time>2018-09-29T12:37:14Z</time>
      </trkpt>
      <trkpt lat="44.79428" lon="1.60025">
        <ele>118</ele>
        <time>2018-09-29T12:37:20Z</time>
      </trkpt>
      <trkpt lat="44.79423" lon="1.60036">
        <ele>117</ele>
        <time>2018-09-29T12:37:28Z</time>
      </trkpt>
      <trkpt lat="44.79422" lon="1.6005">
        <ele>115</ele>
        <time>2018-09-29T12:37:35Z</time>
      </trkpt>
      <trkpt lat="44.79428" lon="1.60061">
        <ele>116</ele>
        <time>2018-09-29T12:37:42Z</time>
      </trkpt>
      <trkpt lat="44.79429" lon="1.60075">
        <ele>119</ele>
        <time>2018-09-29T12:37:46Z</time>
      </trkpt>
      <trkpt lat="44.7943" lon="1.60089">
        <ele>121</ele>
        <time>2018-09-29T12:37:54Z</time>
      </trkpt>
      <trkpt lat="44.79432" lon="1.60102">
        <ele>125</ele>
        <time>2018-09-29T12:38:01Z</time>
      </trkpt>
      <trkpt lat="44.79438" lon="1.60112">
        <ele>124</ele>
        <time>2018-09-29T12:38:07Z</time>
      </trkpt>
      <trkpt lat="44.79446" lon="1.60122">
        <ele>127</ele>
        <time>2018-09-29T12:38:15Z</time>
      </trkpt>
      <trkpt lat="44.79453" lon="1.60132">
        <ele>130</ele>
        <time>2018-09-29T12:38:28Z</time>
      </trkpt>
      <trkpt lat="44.79461" lon="1.60128">
        <ele>129</ele>
        <time>2018-09-29T12:38:33Z</time>
      </trkpt>
      <trkpt lat="44.79467" lon="1.6014">
        <ele>127</ele>
        <time>2018-09-29T12:38:56Z</time>
      </trkpt>
      <trkpt lat="44.79475" lon="1.60149">
        <ele>127</ele>
        <time>2018-09-29T12:39:00Z</time>
      </trkpt>
      <trkpt lat="44.7947" lon="1.60165">
        <ele>124</ele>
        <time>2018-09-29T12:39:04Z</time>
      </trkpt>
      <trkpt lat="44.79473" lon="1.60178">
        <ele>124</ele>
        <time>2018-09-29T12:39:09Z</time>
      </trkpt>
      <trkpt lat="44.79478" lon="1.6019">
        <ele>124</ele>
        <time>2018-09-29T12:39:15Z</time>
      </trkpt>
      <trkpt lat="44.79481" lon="1.60203">
        <ele>127</ele>
        <time>2018-09-29T12:39:23Z</time>
      </trkpt>
      <trkpt lat="44.79488" lon="1.60214">
        <ele>128</ele>
        <time>2018-09-29T12:39:29Z</time>
      </trkpt>
      <trkpt lat="44.79493" lon="1.60227">
        <ele>128</ele>
        <time>2018-09-29T12:39:36Z</time>
      </trkpt>
      <trkpt lat="44.79496" lon="1.60239">
        <ele>126</ele>
        <time>2018-09-29T12:39:44Z</time>
      </trkpt>
      <trkpt lat="44.79502" lon="1.60251">
        <ele>124</ele>
        <time>2018-09-29T12:39:53Z</time>
      </trkpt>
      <trkpt lat="44.79507" lon="1.60261">
        <ele>126</ele>
        <time>2018-09-29T12:39:59Z</time>
      </trkpt>
      <trkpt lat="44.79515" lon="1.60269">
        <ele>129</ele>
        <time>2018-09-29T12:40:04Z</time>
      </trkpt>
      <trkpt lat="44.79523" lon="1.60275">
        <ele>130</ele>
        <time>2018-09-29T12:40:10Z</time>
      </trkpt>
      <trkpt lat="44.79532" lon="1.60283">
        <ele>127</ele>
        <time>2018-09-29T12:40:17Z</time>
      </trkpt>
      <trkpt lat="44.79543" lon="1.60287">
        <ele>128</ele>
        <time>2018-09-29T12:40:22Z</time>
      </trkpt>
      <trkpt lat="44.79552" lon="1.60289">
        <ele>129</ele>
        <time>2018-09-29T12:40:25Z</time>
      </trkpt>
      <trkpt lat="44.79549" lon="1.60301">
        <ele>129</ele>
        <time>2018-09-29T12:40:29Z</time>
      </trkpt>
      <trkpt lat="44.79548" lon="1.60315">
        <ele>127</ele>
        <time>2018-09-29T12:40:38Z</time>
      </trkpt>
      <trkpt lat="44.79558" lon="1.60325">
        <ele>128</ele>
        <time>2018-09-29T12:40:46Z</time>
      </trkpt>
      <trkpt lat="44.79567" lon="1.60332">
        <ele>125</ele>
        <time>2018-09-29T12:40:53Z</time>
      </trkpt>
      <trkpt lat="44.79569" lon="1.60344">
        <ele>125</ele>
        <time>2018-09-29T12:41:00Z</time>
      </trkpt>
      <trkpt lat="44.79578" lon="1.6035">
        <ele>127</ele>
        <time>2018-09-29T12:41:07Z</time>
      </trkpt>
      <trkpt lat="44.79573" lon="1.60362">
        <ele>126</ele>
        <time>2018-09-29T12:41:10Z</time>
      </trkpt>
      <trkpt lat="44.79568" lon="1.60373">
        <ele>129</ele>
        <time>2018-09-29T12:41:16Z</time>
      </trkpt>
      <trkpt lat="44.79563" lon="1.60384">
        <ele>126</ele>
        <time>2018-09-29T12:41:20Z</time>
      </trkpt>
      <trkpt lat="44.79572" lon="1.60389">
        <ele>124</ele>
        <time>2018-09-29T12:41:24Z</time>
      </trkpt>
      <trkpt lat="44.79578" lon="1.604">
        <ele>123</ele>
        <time>2018-09-29T12:41:31Z</time>
      </trkpt>
      <trkpt lat="44.79585" lon="1.6041">
        <ele>126</ele>
        <time>2018-09-29T12:41:37Z</time>
      </trkpt>
      <trkpt lat="44.79583" lon="1.60423">
        <ele>126</ele>
        <time>2018-09-29T12:41:44Z</time>
      </trkpt>
      <trkpt lat="44.79583" lon="1.60438">
        <ele>128</ele>
        <time>2018-09-29T12:41:52Z</time>
      </trkpt>
      <trkpt lat="44.79582" lon="1.60451">
        <ele>130</ele>
        <time>2018-09-29T12:41:58Z</time>
      </trkpt>
      <trkpt lat="44.7958" lon="1.60466">
        <ele>132</ele>
        <time>2018-09-29T12:42:06Z</time>
      </trkpt>
      <trkpt lat="44.79576" lon="1.60479">
        <ele>130</ele>
        <time>2018-09-29T12:42:14Z</time>
      </trkpt>
      <trkpt lat="44.79575" lon="1.60492">
        <ele>130</ele>
        <time>2018-09-29T12:42:20Z</time>
      </trkpt>
      <trkpt lat="44.79573" lon="1.60506">
        <ele>128</ele>
        <time>2018-09-29T12:42:27Z</time>
      </trkpt>
      <trkpt lat="44.79574" lon="1.60519">
        <ele>128</ele>
        <time>2018-09-29T12:42:33Z</time>
      </trkpt>
      <trkpt lat="44.79568" lon="1.60531">
        <ele>127</ele>
        <time>2018-09-29T12:42:39Z</time>
      </trkpt>
      <trkpt lat="44.79559" lon="1.6054">
        <ele>130</ele>
        <time>2018-09-29T12:42:48Z</time>
      </trkpt>
      <trkpt lat="44.79552" lon="1.60548">
        <ele>130</ele>
        <time>2018-09-29T12:42:53Z</time>
      </trkpt>
      <trkpt lat="44.79551" lon="1.60562">
        <ele>128</ele>
        <time>2018-09-29T12:43:00Z</time>
      </trkpt>
      <trkpt lat="44.79549" lon="1.60575">
        <ele>127</ele>
        <time>2018-09-29T12:43:06Z</time>
      </trkpt>
      <trkpt lat="44.79539" lon="1.60583">
        <ele>125</ele>
        <time>2018-09-29T12:43:14Z</time>
      </trkpt>
      <trkpt lat="44.79534" lon="1.60595">
        <ele>123</ele>
        <time>2018-09-29T12:43:21Z</time>
      </trkpt>
      <trkpt lat="44.79527" lon="1.60603">
        <ele>124</ele>
        <time>2018-09-29T12:43:27Z</time>
      </trkpt>
      <trkpt lat="44.79524" lon="1.60616">
        <ele>122</ele>
        <time>2018-09-29T12:43:34Z</time>
      </trkpt>
      <trkpt lat="44.79516" lon="1.60622">
        <ele>122</ele>
        <time>2018-09-29T12:43:40Z</time>
      </trkpt>
      <trkpt lat="44.79513" lon="1.60635">
        <ele>121</ele>
        <time>2018-09-29T12:43:47Z</time>
      </trkpt>
      <trkpt lat="44.79509" lon="1.60647">
        <ele>123</ele>
        <time>2018-09-29T12:43:56Z</time>
      </trkpt>
      <trkpt lat="44.79504" lon="1.60658">
        <ele>126</ele>
        <time>2018-09-29T12:44:03Z</time>
      </trkpt>
      <trkpt lat="44.795" lon="1.60669">
        <ele>122</ele>
        <time>2018-09-29T12:44:09Z</time>
      </trkpt>
      <trkpt lat="44.79497" lon="1.60681">
        <ele>122</ele>
        <time>2018-09-29T12:44:16Z</time>
      </trkpt>
      <trkpt lat="44.79498" lon="1.60697">
        <ele>122</ele>
        <time>2018-09-29T12:44:24Z</time>
      </trkpt>
      <trkpt lat="44.79496" lon="1.6071">
        <ele>120</ele>
        <time>2018-09-29T12:44:31Z</time>
      </trkpt>
      <trkpt lat="44.79498" lon="1.60724">
        <ele>123</ele>
        <time>2018-09-29T12:44:38Z</time>
      </trkpt>
      <trkpt lat="44.795" lon="1.60737">
        <ele>127</ele>
        <time>2018-09-29T12:44:47Z</time>
      </trkpt>
      <trkpt lat="44.79502" lon="1.6075">
        <ele>127</ele>
        <time>2018-09-29T12:44:57Z</time>
      </trkpt>
      <trkpt lat="44.79506" lon="1.60761">
        <ele>127</ele>
        <time>2018-09-29T12:45:05Z</time>
      </trkpt>
      <trkpt lat="44.79514" lon="1.60771">
        <ele>126</ele>
        <time>2018-09-29T12:45:11Z</time>
      </trkpt>
      <trkpt lat="44.79522" lon="1.6078">
        <ele>125</ele>
        <time>2018-09-29T12:45:22Z</time>
      </trkpt>
      <trkpt lat="44.79527" lon="1.60791">
        <ele>124</ele>
        <time>2018-09-29T12:45:30Z</time>
      </trkpt>
      <trkpt lat="44.79536" lon="1.60797">
        <ele>128</ele>
        <time>2018-09-29T12:45:35Z</time>
      </trkpt>
      <trkpt lat="44.79547" lon="1.60797">
        <ele>130</ele>
        <time>2018-09-29T12:45:40Z</time>
      </trkpt>
      <trkpt lat="44.79556" lon="1.60799">
        <ele>121</ele>
        <time>2018-09-29T12:45:48Z</time>
      </trkpt>
      <trkpt lat="44.79563" lon="1.60807">
        <ele>123</ele>
        <time>2018-09-29T12:45:57Z</time>
      </trkpt>
      <trkpt lat="44.79571" lon="1.60815">
        <ele>124</ele>
        <time>2018-09-29T12:46:03Z</time>
      </trkpt>
      <trkpt lat="44.79578" lon="1.60823">
        <ele>120</ele>
        <time>2018-09-29T12:46:11Z</time>
      </trkpt>
      <trkpt lat="44.79589" lon="1.60826">
        <ele>118</ele>
        <time>2018-09-29T12:46:14Z</time>
      </trkpt>
      <trkpt lat="44.79595" lon="1.60836">
        <ele>120</ele>
        <time>2018-09-29T12:46:21Z</time>
      </trkpt>
      <trkpt lat="44.79604" lon="1.60843">
        <ele>118</ele>
        <time>2018-09-29T12:46:33Z</time>
      </trkpt>
      <trkpt lat="44.79611" lon="1.60853">
        <ele>122</ele>
        <time>2018-09-29T12:46:41Z</time>
      </trkpt>
      <trkpt lat="44.7962" lon="1.60856">
        <ele>123</ele>
        <time>2018-09-29T12:46:46Z</time>
      </trkpt>
      <trkpt lat="44.79628" lon="1.60863">
        <ele>120</ele>
        <time>2018-09-29T12:46:53Z</time>
      </trkpt>
      <trkpt lat="44.79637" lon="1.6087">
        <ele>120</ele>
        <time>2018-09-29T12:47:01Z</time>
      </trkpt>
      <trkpt lat="44.79642" lon="1.60881">
        <ele>115</ele>
        <time>2018-09-29T12:47:48Z</time>
      </trkpt>
      <trkpt lat="44.79647" lon="1.60894">
        <ele>118</ele>
        <time>2018-09-29T12:47:55Z</time>
      </trkpt>
      <trkpt lat="44.79655" lon="1.60902">
        <ele>120</ele>
        <time>2018-09-29T12:48:05Z</time>
      </trkpt>
      <trkpt lat="44.79662" lon="1.6091">
        <ele>123</ele>
        <time>2018-09-29T12:48:16Z</time>
      </trkpt>
      <trkpt lat="44.79671" lon="1.60912">
        <ele>115</ele>
        <time>2018-09-29T12:48:26Z</time>
      </trkpt>
      <trkpt lat="44.79679" lon="1.60921">
        <ele>119</ele>
        <time>2018-09-29T12:49:45Z</time>
      </trkpt>
      <trkpt lat="44.79683" lon="1.60935">
        <ele>119</ele>
        <time>2018-09-29T12:49:52Z</time>
      </trkpt>
      <trkpt lat="44.7969" lon="1.60946">
        <ele>120</ele>
        <time>2018-09-29T12:49:59Z</time>
      </trkpt>
      <trkpt lat="44.79699" lon="1.60953">
        <ele>118</ele>
        <time>2018-09-29T12:50:07Z</time>
      </trkpt>
      <trkpt lat="44.79704" lon="1.60965">
        <ele>119</ele>
        <time>2018-09-29T12:50:14Z</time>
      </trkpt>
      <trkpt lat="44.79711" lon="1.60974">
        <ele>119</ele>
        <time>2018-09-29T12:50:22Z</time>
      </trkpt>
      <trkpt lat="44.79713" lon="1.60987">
        <ele>123</ele>
        <time>2018-09-29T12:50:28Z</time>
      </trkpt>
      <trkpt lat="44.79715" lon="1.61001">
        <ele>126</ele>
        <time>2018-09-29T12:50:35Z</time>
      </trkpt>
      <trkpt lat="44.79722" lon="1.61011">
        <ele>130</ele>
        <time>2018-09-29T12:50:43Z</time>
      </trkpt>
      <trkpt lat="44.7973" lon="1.61017">
        <ele>128</ele>
        <time>2018-09-29T12:50:53Z</time>
      </trkpt>
      <trkpt lat="44.7974" lon="1.61015">
        <ele>130</ele>
        <time>2018-09-29T12:51:16Z</time>
      </trkpt>
      <trkpt lat="44.79749" lon="1.61007">
        <ele>130</ele>
        <time>2018-09-29T12:51:21Z</time>
      </trkpt>
      <trkpt lat="44.79758" lon="1.6101">
        <ele>132</ele>
        <time>2018-09-29T12:51:27Z</time>
      </trkpt>
      <trkpt lat="44.79767" lon="1.61009">
        <ele>136</ele>
        <time>2018-09-29T12:51:35Z</time>
      </trkpt>
      <trkpt lat="44.79777" lon="1.6101">
        <ele>135</ele>
        <time>2018-09-29T12:51:40Z</time>
      </trkpt>
      <trkpt lat="44.79774" lon="1.61022">
        <ele>134</ele>
        <time>2018-09-29T12:51:51Z</time>
      </trkpt>
      <trkpt lat="44.79771" lon="1.61036">
        <ele>137</ele>
        <time>2018-09-29T12:52:00Z</time>
      </trkpt>
      <trkpt lat="44.79768" lon="1.61049">
        <ele>141</ele>
        <time>2018-09-29T12:52:08Z</time>
      </trkpt>
      <trkpt lat="44.79769" lon="1.61063">
        <ele>145</ele>
        <time>2018-09-29T12:52:18Z</time>
      </trkpt>
      <trkpt lat="44.79763" lon="1.61074">
        <ele>144</ele>
        <time>2018-09-29T12:52:26Z</time>
      </trkpt>
      <trkpt lat="44.79756" lon="1.61083">
        <ele>144</ele>
        <time>2018-09-29T12:52:37Z</time>
      </trkpt>
      <trkpt lat="44.7975" lon="1.61094">
        <ele>144</ele>
        <time>2018-09-29T12:52:45Z</time>
      </trkpt>
      <trkpt lat="44.79745" lon="1.61106">
        <ele>148</ele>
        <time>2018-09-29T12:52:53Z</time>
      </trkpt>
      <trkpt lat="44.79742" lon="1.61118">
        <ele>153</ele>
        <time>2018-09-29T12:53:04Z</time>
      </trkpt>
      <trkpt lat="44.79744" lon="1.61133">
        <ele>152</ele>
        <time>2018-09-29T12:53:13Z</time>
      </trkpt>
      <trkpt lat="44.79743" lon="1.61146">
        <ele>152</ele>
        <time>2018-09-29T12:53:22Z</time>
      </trkpt>
      <trkpt lat="44.79743" lon="1.61159">
        <ele>151</ele>
        <time>2018-09-29T12:53:31Z</time>
      </trkpt>
      <trkpt lat="44.79741" lon="1.61173">
        <ele>152</ele>
        <time>2018-09-29T12:53:41Z</time>
      </trkpt>
      <trkpt lat="44.79741" lon="1.61187">
        <ele>154</ele>
        <time>2018-09-29T12:53:50Z</time>
      </trkpt>
      <trkpt lat="44.79735" lon="1.61197">
        <ele>157</ele>
        <time>2018-09-29T12:54:01Z</time>
      </trkpt>
      <trkpt lat="44.79738" lon="1.6121">
        <ele>156</ele>
        <time>2018-09-29T12:54:08Z</time>
      </trkpt>
      <trkpt lat="44.79737" lon="1.61225">
        <ele>155</ele>
        <time>2018-09-29T12:54:16Z</time>
      </trkpt>
      <trkpt lat="44.79737" lon="1.61238">
        <ele>154</ele>
        <time>2018-09-29T12:54:24Z</time>
      </trkpt>
      <trkpt lat="44.79734" lon="1.61252">
        <ele>160</ele>
        <time>2018-09-29T12:54:34Z</time>
      </trkpt>
      <trkpt lat="44.79728" lon="1.61262">
        <ele>163</ele>
        <time>2018-09-29T12:54:41Z</time>
      </trkpt>
      <trkpt lat="44.79725" lon="1.61275">
        <ele>165</ele>
        <time>2018-09-29T12:54:51Z</time>
      </trkpt>
      <trkpt lat="44.79719" lon="1.61286">
        <ele>163</ele>
        <time>2018-09-29T12:54:57Z</time>
      </trkpt>
      <trkpt lat="44.79713" lon="1.61295">
        <ele>163</ele>
        <time>2018-09-29T12:55:05Z</time>
      </trkpt>
      <trkpt lat="44.79707" lon="1.61306">
        <ele>159</ele>
        <time>2018-09-29T12:55:15Z</time>
      </trkpt>
      <trkpt lat="44.79703" lon="1.61317">
        <ele>164</ele>
        <time>2018-09-29T12:55:25Z</time>
      </trkpt>
      <trkpt lat="44.79698" lon="1.61329">
        <ele>162</ele>
        <time>2018-09-29T12:55:34Z</time>
      </trkpt>
      <trkpt lat="44.79693" lon="1.6134">
        <ele>163</ele>
        <time>2018-09-29T12:55:41Z</time>
      </trkpt>
      <trkpt lat="44.79692" lon="1.61353">
        <ele>163</ele>
        <time>2018-09-29T12:55:48Z</time>
      </trkpt>
      <trkpt lat="44.79692" lon="1.61366">
        <ele>162</ele>
        <time>2018-09-29T12:55:56Z</time>
      </trkpt>
      <trkpt lat="44.79687" lon="1.61377">
        <ele>165</ele>
        <time>2018-09-29T12:56:05Z</time>
      </trkpt>
      <trkpt lat="44.79681" lon="1.61388">
        <ele>168</ele>
        <time>2018-09-29T12:56:15Z</time>
      </trkpt>
      <trkpt lat="44.79679" lon="1.61402">
        <ele>170</ele>
        <time>2018-09-29T12:56:25Z</time>
      </trkpt>
      <trkpt lat="44.79685" lon="1.61414">
        <ele>172</ele>
        <time>2018-09-29T12:56:36Z</time>
      </trkpt>
      <trkpt lat="44.79687" lon="1.61427">
        <ele>173</ele>
        <time>2018-09-29T12:56:45Z</time>
      </trkpt>
      <trkpt lat="44.79693" lon="1.61436">
        <ele>175</ele>
        <time>2018-09-29T12:56:52Z</time>
      </trkpt>
      <trkpt lat="44.79699" lon="1.61448">
        <ele>176</ele>
        <time>2018-09-29T12:57:00Z</time>
      </trkpt>
      <trkpt lat="44.79708" lon="1.61451">
        <ele>178</ele>
        <time>2018-09-29T12:57:06Z</time>
      </trkpt>
      <trkpt lat="44.79714" lon="1.61462">
        <ele>176</ele>
        <time>2018-09-29T12:57:14Z</time>
      </trkpt>
      <trkpt lat="44.79718" lon="1.61474">
        <ele>176</ele>
        <time>2018-09-29T12:57:21Z</time>
      </trkpt>
      <trkpt lat="44.79722" lon="1.61487">
        <ele>172</ele>
        <time>2018-09-29T12:57:31Z</time>
      </trkpt>
      <trkpt lat="44.79723" lon="1.615">
        <ele>175</ele>
        <time>2018-09-29T12:57:37Z</time>
      </trkpt>
      <trkpt lat="44.79728" lon="1.61512">
        <ele>174</ele>
        <time>2018-09-29T12:57:45Z</time>
      </trkpt>
      <trkpt lat="44.79733" lon="1.61524">
        <ele>169</ele>
        <time>2018-09-29T12:57:57Z</time>
      </trkpt>
      <trkpt lat="44.79742" lon="1.61532">
        <ele>172</ele>
        <time>2018-09-29T12:58:07Z</time>
      </trkpt>
      <trkpt lat="44.79748" lon="1.61543">
        <ele>174</ele>
        <time>2018-09-29T12:59:10Z</time>
      </trkpt>
      <trkpt lat="44.79753" lon="1.61556">
        <ele>174</ele>
        <time>2018-09-29T12:59:17Z</time>
      </trkpt>
      <trkpt lat="44.7976" lon="1.61565">
        <ele>171</ele>
        <time>2018-09-29T12:59:24Z</time>
      </trkpt>
      <trkpt lat="44.79767" lon="1.61574">
        <ele>172</ele>
        <time>2018-09-29T13:00:00Z</time>
      </trkpt>
      <trkpt lat="44.79771" lon="1.61589">
        <ele>178</ele>
        <time>2018-09-29T13:00:05Z</time>
      </trkpt>
      <trkpt lat="44.79778" lon="1.61598">
        <ele>182</ele>
        <time>2018-09-29T13:00:11Z</time>
      </trkpt>
      <trkpt lat="44.79778" lon="1.61615">
        <ele>186</ele>
        <time>2018-09-29T13:02:59Z</time>
      </trkpt>
      <trkpt lat="44.79794" lon="1.6162">
        <ele>184</ele>
        <time>2018-09-29T13:04:17Z</time>
      </trkpt>
      <trkpt lat="44.79802" lon="1.6163">
        <ele>189</ele>
        <time>2018-09-29T13:04:20Z</time>
      </trkpt>
      <trkpt lat="44.7981" lon="1.61636">
        <ele>192</ele>
        <time>2018-09-29T13:04:27Z</time>
      </trkpt>
      <trkpt lat="44.79818" lon="1.61641">
        <ele>192</ele>
        <time>2018-09-29T13:04:34Z</time>
      </trkpt>
      <trkpt lat="44.79829" lon="1.61649">
        <ele>190</ele>
        <time>2018-09-29T13:04:58Z</time>
      </trkpt>
      <trkpt lat="44.79836" lon="1.61658">
        <ele>189</ele>
        <time>2018-09-29T13:05:39Z</time>
      </trkpt>
      <trkpt lat="44.79844" lon="1.61666">
        <ele>185</ele>
        <time>2018-09-29T13:05:46Z</time>
      </trkpt>
      <trkpt lat="44.7985" lon="1.61677">
        <ele>190</ele>
        <time>2018-09-29T13:06:06Z</time>
      </trkpt>
      <trkpt lat="44.79859" lon="1.6168">
        <ele>184</ele>
        <time>2018-09-29T13:06:15Z</time>
      </trkpt>
      <trkpt lat="44.79867" lon="1.61693">
        <ele>186</ele>
        <time>2018-09-29T13:06:30Z</time>
      </trkpt>
      <trkpt lat="44.79873" lon="1.61702">
        <ele>184</ele>
        <time>2018-09-29T13:06:40Z</time>
      </trkpt>
      <trkpt lat="44.79882" lon="1.61705">
        <ele>186</ele>
        <time>2018-09-29T13:07:08Z</time>
      </trkpt>
      <trkpt lat="44.79884" lon="1.61719">
        <ele>191</ele>
        <time>2018-09-29T13:07:12Z</time>
      </trkpt>
      <trkpt lat="44.79893" lon="1.61723">
        <ele>189</ele>
        <time>2018-09-29T13:07:18Z</time>
      </trkpt>
      <trkpt lat="44.79904" lon="1.61725">
        <ele>186</ele>
        <time>2018-09-29T13:07:24Z</time>
      </trkpt>
      <trkpt lat="44.79907" lon="1.61739">
        <ele>188</ele>
        <time>2018-09-29T13:07:33Z</time>
      </trkpt>
      <trkpt lat="44.79907" lon="1.61755">
        <ele>195</ele>
        <time>2018-09-29T13:08:37Z</time>
      </trkpt>
      <trkpt lat="44.79913" lon="1.61767">
        <ele>193</ele>
        <time>2018-09-29T13:09:11Z</time>
      </trkpt>
      <trkpt lat="44.79914" lon="1.6178">
        <ele>187</ele>
        <time>2018-09-29T13:09:16Z</time>
      </trkpt>
      <trkpt lat="44.79905" lon="1.61775">
        <ele>173</ele>
        <time>2018-09-29T13:09:40Z</time>
      </trkpt>
      <trkpt lat="44.79895" lon="1.61775">
        <ele>175</ele>
        <time>2018-09-29T13:10:08Z</time>
      </trkpt>
      <trkpt lat="44.79905" lon="1.6178">
        <ele>181</ele>
        <time>2018-09-29T13:12:04Z</time>
      </trkpt>
      <trkpt lat="44.79915" lon="1.61784">
        <ele>179</ele>
        <time>2018-09-29T13:12:28Z</time>
      </trkpt>
      <trkpt lat="44.79927" lon="1.61789">
        <ele>170</ele>
        <time>2018-09-29T13:12:32Z</time>
      </trkpt>
      <trkpt lat="44.79936" lon="1.61792">
        <ele>173</ele>
        <time>2018-09-29T13:12:38Z</time>
      </trkpt>
      <trkpt lat="44.79947" lon="1.61793">
        <ele>174</ele>
        <time>2018-09-29T13:12:46Z</time>
      </trkpt>
      <trkpt lat="44.79955" lon="1.61788">
        <ele>175</ele>
        <time>2018-09-29T13:12:59Z</time>
      </trkpt>
      <trkpt lat="44.79963" lon="1.61799">
        <ele>174</ele>
        <time>2018-09-29T13:13:11Z</time>
      </trkpt>
      <trkpt lat="44.79971" lon="1.61805">
        <ele>166</ele>
        <time>2018-09-29T13:13:14Z</time>
      </trkpt>
      <trkpt lat="44.79974" lon="1.61818">
        <ele>160</ele>
        <time>2018-09-29T13:13:24Z</time>
      </trkpt>
      <trkpt lat="44.79983" lon="1.61821">
        <ele>163</ele>
        <time>2018-09-29T13:13:37Z</time>
      </trkpt>
      <trkpt lat="44.79997" lon="1.61823">
        <ele>159</ele>
        <time>2018-09-29T13:14:25Z</time>
      </trkpt>
      <trkpt lat="44.80006" lon="1.61822">
        <ele>157</ele>
        <time>2018-09-29T13:14:28Z</time>
      </trkpt>
      <trkpt lat="44.80014" lon="1.61831">
        <ele>170</ele>
        <time>2018-09-29T13:14:31Z</time>
      </trkpt>
      <trkpt lat="44.80022" lon="1.61837">
        <ele>177</ele>
        <time>2018-09-29T13:14:39Z</time>
      </trkpt>
      <trkpt lat="44.80031" lon="1.61839">
        <ele>173</ele>
        <time>2018-09-29T13:14:44Z</time>
      </trkpt>
      <trkpt lat="44.80041" lon="1.61842">
        <ele>172</ele>
        <time>2018-09-29T13:14:54Z</time>
      </trkpt>
      <trkpt lat="44.80048" lon="1.6185">
        <ele>167</ele>
        <time>2018-09-29T13:15:03Z</time>
      </trkpt>
      <trkpt lat="44.80054" lon="1.6186">
        <ele>167</ele>
        <time>2018-09-29T13:15:11Z</time>
      </trkpt>
      <trkpt lat="44.80063" lon="1.61864">
        <ele>167</ele>
        <time>2018-09-29T13:15:21Z</time>
      </trkpt>
      <trkpt lat="44.80072" lon="1.61867">
        <ele>167</ele>
        <time>2018-09-29T13:15:35Z</time>
      </trkpt>
      <trkpt lat="44.80077" lon="1.61893">
        <ele>172</ele>
        <time>2018-09-29T13:20:46Z</time>
      </trkpt>
      <trkpt lat="44.80081" lon="1.61876">
        <ele>166</ele>
        <time>2018-09-29T13:22:22Z</time>
      </trkpt>
      <trkpt lat="44.8009" lon="1.61882">
        <ele>163</ele>
        <time>2018-09-29T13:22:27Z</time>
      </trkpt>
      <trkpt lat="44.80098" lon="1.6189">
        <ele>163</ele>
        <time>2018-09-29T13:22:34Z</time>
      </trkpt>
      <trkpt lat="44.80104" lon="1.619">
        <ele>164</ele>
        <time>2018-09-29T13:22:44Z</time>
      </trkpt>
      <trkpt lat="44.80112" lon="1.61909">
        <ele>164</ele>
        <time>2018-09-29T13:22:54Z</time>
      </trkpt>
      <trkpt lat="44.80119" lon="1.61919">
        <ele>164</ele>
        <time>2018-09-29T13:23:04Z</time>
      </trkpt>
      <trkpt lat="44.80128" lon="1.61924">
        <ele>165</ele>
        <time>2018-09-29T13:23:12Z</time>
      </trkpt>
      <trkpt lat="44.80135" lon="1.61933">
        <ele>167</ele>
        <time>2018-09-29T13:23:19Z</time>
      </trkpt>
      <trkpt lat="44.80139" lon="1.61944">
        <ele>169</ele>
        <time>2018-09-29T13:23:32Z</time>
      </trkpt>
      <trkpt lat="44.80145" lon="1.61955">
        <ele>170</ele>
        <time>2018-09-29T13:23:44Z</time>
      </trkpt>
      <trkpt lat="44.80152" lon="1.61967">
        <ele>166</ele>
        <time>2018-09-29T13:24:19Z</time>
      </trkpt>
      <trkpt lat="44.8016" lon="1.61976">
        <ele>165</ele>
        <time>2018-09-29T13:24:24Z</time>
      </trkpt>
      <trkpt lat="44.8017" lon="1.6198">
        <ele>170</ele>
        <time>2018-09-29T13:24:31Z</time>
      </trkpt>
      <trkpt lat="44.80172" lon="1.61993">
        <ele>170</ele>
        <time>2018-09-29T13:24:38Z</time>
      </trkpt>
      <trkpt lat="44.80179" lon="1.62002">
        <ele>172</ele>
        <time>2018-09-29T13:24:47Z</time>
      </trkpt>
      <trkpt lat="44.80185" lon="1.62013">
        <ele>174</ele>
        <time>2018-09-29T13:24:55Z</time>
      </trkpt>
      <trkpt lat="44.80192" lon="1.62021">
        <ele>175</ele>
        <time>2018-09-29T13:25:05Z</time>
      </trkpt>
      <trkpt lat="44.80196" lon="1.62033">
        <ele>174</ele>
        <time>2018-09-29T13:25:12Z</time>
      </trkpt>
      <trkpt lat="44.802" lon="1.62045">
        <ele>174</ele>
        <time>2018-09-29T13:25:20Z</time>
      </trkpt>
      <trkpt lat="44.80209" lon="1.6205">
        <ele>176</ele>
        <time>2018-09-29T13:25:31Z</time>
      </trkpt>
      <trkpt lat="44.80218" lon="1.62054">
        <ele>176</ele>
        <time>2018-09-29T13:25:41Z</time>
      </trkpt>
      <trkpt lat="44.80225" lon="1.62062">
        <ele>180</ele>
        <time>2018-09-29T13:25:48Z</time>
      </trkpt>
      <trkpt lat="44.80233" lon="1.6207">
        <ele>181</ele>
        <time>2018-09-29T13:25:57Z</time>
      </trkpt>
      <trkpt lat="44.80243" lon="1.62067">
        <ele>179</ele>
        <time>2018-09-29T13:26:06Z</time>
      </trkpt>
      <trkpt lat="44.80249" lon="1.62076">
        <ele>178</ele>
        <time>2018-09-29T13:26:14Z</time>
      </trkpt>
      <trkpt lat="44.80254" lon="1.62087">
        <ele>179</ele>
        <time>2018-09-29T13:26:26Z</time>
      </trkpt>
      <trkpt lat="44.80261" lon="1.62098">
        <ele>180</ele>
        <time>2018-09-29T13:26:34Z</time>
      </trkpt>
      <trkpt lat="44.80263" lon="1.62111">
        <ele>182</ele>
        <time>2018-09-29T13:26:41Z</time>
      </trkpt>
      <trkpt lat="44.80266" lon="1.62124">
        <ele>181</ele>
        <time>2018-09-29T13:26:51Z</time>
      </trkpt>
      <trkpt lat="44.80273" lon="1.62133">
        <ele>183</ele>
        <time>2018-09-29T13:26:59Z</time>
      </trkpt>
      <trkpt lat="44.80281" lon="1.62141">
        <ele>183</ele>
        <time>2018-09-29T13:27:09Z</time>
      </trkpt>
      <trkpt lat="44.8029" lon="1.62147">
        <ele>183</ele>
        <time>2018-09-29T13:27:19Z</time>
      </trkpt>
      <trkpt lat="44.80296" lon="1.62158">
        <ele>184</ele>
        <time>2018-09-29T13:27:26Z</time>
      </trkpt>
      <trkpt lat="44.80303" lon="1.62165">
        <ele>187</ele>
        <time>2018-09-29T13:27:40Z</time>
      </trkpt>
      <trkpt lat="44.80305" lon="1.62178">
        <ele>191</ele>
        <time>2018-09-29T13:27:51Z</time>
      </trkpt>
      <trkpt lat="44.80309" lon="1.6219">
        <ele>192</ele>
        <time>2018-09-29T13:28:16Z</time>
      </trkpt>
      <trkpt lat="44.80318" lon="1.62199">
        <ele>195</ele>
        <time>2018-09-29T13:28:23Z</time>
      </trkpt>
      <trkpt lat="44.80327" lon="1.62207">
        <ele>194</ele>
        <time>2018-09-29T13:28:31Z</time>
      </trkpt>
      <trkpt lat="44.80332" lon="1.6222">
        <ele>194</ele>
        <time>2018-09-29T13:28:42Z</time>
      </trkpt>
      <trkpt lat="44.8034" lon="1.62229">
        <ele>196</ele>
        <time>2018-09-29T13:28:49Z</time>
      </trkpt>
      <trkpt lat="44.80346" lon="1.62239">
        <ele>200</ele>
        <time>2018-09-29T13:29:02Z</time>
      </trkpt>
      <trkpt lat="44.80354" lon="1.62248">
        <ele>199</ele>
        <time>2018-09-29T13:29:09Z</time>
      </trkpt>
      <trkpt lat="44.8036" lon="1.62258">
        <ele>203</ele>
        <time>2018-09-29T13:29:17Z</time>
      </trkpt>
      <trkpt lat="44.80365" lon="1.62269">
        <ele>205</ele>
        <time>2018-09-29T13:29:34Z</time>
      </trkpt>
      <trkpt lat="44.80368" lon="1.62281">
        <ele>210</ele>
        <time>2018-09-29T13:29:40Z</time>
      </trkpt>
      <trkpt lat="44.80377" lon="1.62291">
        <ele>213</ele>
        <time>2018-09-29T13:29:53Z</time>
      </trkpt>
      <trkpt lat="44.80381" lon="1.62304">
        <ele>207</ele>
        <time>2018-09-29T13:30:05Z</time>
      </trkpt>
      <trkpt lat="44.80387" lon="1.62315">
        <ele>208</ele>
        <time>2018-09-29T13:30:22Z</time>
      </trkpt>
      <trkpt lat="44.80395" lon="1.62323">
        <ele>207</ele>
        <time>2018-09-29T13:30:30Z</time>
      </trkpt>
      <trkpt lat="44.80398" lon="1.62336">
        <ele>208</ele>
        <time>2018-09-29T13:30:39Z</time>
      </trkpt>
      <trkpt lat="44.804" lon="1.62349">
        <ele>212</ele>
        <time>2018-09-29T13:30:49Z</time>
      </trkpt>
      <trkpt lat="44.80406" lon="1.62363">
        <ele>217</ele>
        <time>2018-09-29T13:30:58Z</time>
      </trkpt>
      <trkpt lat="44.80411" lon="1.62374">
        <ele>220</ele>
        <time>2018-09-29T13:31:09Z</time>
      </trkpt>
      <trkpt lat="44.80415" lon="1.62386">
        <ele>221</ele>
        <time>2018-09-29T13:31:19Z</time>
      </trkpt>
      <trkpt lat="44.80411" lon="1.62397">
        <ele>224</ele>
        <time>2018-09-29T13:31:27Z</time>
      </trkpt>
      <trkpt lat="44.80412" lon="1.62412">
        <ele>220</ele>
        <time>2018-09-29T13:31:36Z</time>
      </trkpt>
      <trkpt lat="44.80418" lon="1.62424">
        <ele>219</ele>
        <time>2018-09-29T13:31:45Z</time>
      </trkpt>
      <trkpt lat="44.80415" lon="1.62438">
        <ele>224</ele>
        <time>2018-09-29T13:31:55Z</time>
      </trkpt>
      <trkpt lat="44.8042" lon="1.62451">
        <ele>226</ele>
        <time>2018-09-29T13:32:03Z</time>
      </trkpt>
      <trkpt lat="44.80419" lon="1.62464">
        <ele>226</ele>
        <time>2018-09-29T13:32:14Z</time>
      </trkpt>
      <trkpt lat="44.8042" lon="1.62478">
        <ele>230</ele>
        <time>2018-09-29T13:32:23Z</time>
      </trkpt>
      <trkpt lat="44.80419" lon="1.62491">
        <ele>229</ele>
        <time>2018-09-29T13:32:32Z</time>
      </trkpt>
      <trkpt lat="44.80415" lon="1.62503">
        <ele>233</ele>
        <time>2018-09-29T13:32:37Z</time>
      </trkpt>
      <trkpt lat="44.80416" lon="1.62516">
        <ele>234</ele>
        <time>2018-09-29T13:32:47Z</time>
      </trkpt>
      <trkpt lat="44.80418" lon="1.6253">
        <ele>236</ele>
        <time>2018-09-29T13:32:59Z</time>
      </trkpt>
      <trkpt lat="44.80417" lon="1.62545">
        <ele>238</ele>
        <time>2018-09-29T13:33:08Z</time>
      </trkpt>
      <trkpt lat="44.80414" lon="1.62558">
        <ele>243</ele>
        <time>2018-09-29T13:33:18Z</time>
      </trkpt>
      <trkpt lat="44.80416" lon="1.6257">
        <ele>245</ele>
        <time>2018-09-29T13:33:29Z</time>
      </trkpt>
      <trkpt lat="44.80418" lon="1.62583">
        <ele>245</ele>
        <time>2018-09-29T13:33:38Z</time>
      </trkpt>
      <trkpt lat="44.80425" lon="1.62594">
        <ele>248</ele>
        <time>2018-09-29T13:33:41Z</time>
      </trkpt>
      <trkpt lat="44.80416" lon="1.62598">
        <ele>252</ele>
        <time>2018-09-29T13:33:49Z</time>
      </trkpt>
      <trkpt lat="44.80416" lon="1.62613">
        <ele>248</ele>
        <time>2018-09-29T13:33:56Z</time>
      </trkpt>
      <trkpt lat="44.80409" lon="1.62624">
        <ele>248</ele>
        <time>2018-09-29T13:34:50Z</time>
      </trkpt>
      <trkpt lat="44.80404" lon="1.62636">
        <ele>248</ele>
        <time>2018-09-29T13:35:00Z</time>
      </trkpt>
      <trkpt lat="44.804" lon="1.62647">
        <ele>250</ele>
        <time>2018-09-29T13:35:11Z</time>
      </trkpt>
      <trkpt lat="44.80397" lon="1.62661">
        <ele>252</ele>
        <time>2018-09-29T13:35:21Z</time>
      </trkpt>
      <trkpt lat="44.80393" lon="1.62672">
        <ele>256</ele>
        <time>2018-09-29T13:35:28Z</time>
      </trkpt>
      <trkpt lat="44.80394" lon="1.62686">
        <ele>252</ele>
        <time>2018-09-29T13:35:39Z</time>
      </trkpt>
      <trkpt lat="44.80398" lon="1.62697">
        <ele>250</ele>
        <time>2018-09-29T13:35:48Z</time>
      </trkpt>
      <trkpt lat="44.80408" lon="1.62701">
        <ele>250</ele>
        <time>2018-09-29T13:36:02Z</time>
      </trkpt>
      <trkpt lat="44.80417" lon="1.62697">
        <ele>247</ele>
        <time>2018-09-29T13:36:27Z</time>
      </trkpt>
      <trkpt lat="44.80427" lon="1.627">
        <ele>249</ele>
        <time>2018-09-29T13:36:32Z</time>
      </trkpt>
      <trkpt lat="44.80437" lon="1.627">
        <ele>251</ele>
        <time>2018-09-29T13:36:36Z</time>
      </trkpt>
      <trkpt lat="44.80446" lon="1.62702">
        <ele>256</ele>
        <time>2018-09-29T13:36:45Z</time>
      </trkpt>
      <trkpt lat="44.80456" lon="1.627">
        <ele>257</ele>
        <time>2018-09-29T13:36:56Z</time>
      </trkpt>
      <trkpt lat="44.80466" lon="1.62702">
        <ele>260</ele>
        <time>2018-09-29T13:37:04Z</time>
      </trkpt>
      <trkpt lat="44.80456" lon="1.62708">
        <ele>255</ele>
        <time>2018-09-29T13:39:17Z</time>
      </trkpt>
      <trkpt lat="44.80448" lon="1.62713">
        <ele>255</ele>
        <time>2018-09-29T13:39:34Z</time>
      </trkpt>
      <trkpt lat="44.80437" lon="1.62717">
        <ele>258</ele>
        <time>2018-09-29T13:39:41Z</time>
      </trkpt>
      <trkpt lat="44.80428" lon="1.62712">
        <ele>257</ele>
        <time>2018-09-29T13:39:49Z</time>
      </trkpt>
      <trkpt lat="44.80418" lon="1.62711">
        <ele>253</ele>
        <time>2018-09-29T13:40:03Z</time>
      </trkpt>
      <trkpt lat="44.80407" lon="1.62714">
        <ele>256</ele>
        <time>2018-09-29T13:40:12Z</time>
      </trkpt>
      <trkpt lat="44.80397" lon="1.62717">
        <ele>256</ele>
        <time>2018-09-29T13:40:21Z</time>
      </trkpt>
      <trkpt lat="44.80388" lon="1.62717">
        <ele>257</ele>
        <time>2018-09-29T13:40:28Z</time>
      </trkpt>
      <trkpt lat="44.80378" lon="1.62714">
        <ele>259</ele>
        <time>2018-09-29T13:40:41Z</time>
      </trkpt>
      <trkpt lat="44.8037" lon="1.62721">
        <ele>259</ele>
        <time>2018-09-29T13:40:51Z</time>
      </trkpt>
      <trkpt lat="44.80366" lon="1.62734">
        <ele>254</ele>
        <time>2018-09-29T13:41:00Z</time>
      </trkpt>
      <trkpt lat="44.80361" lon="1.62746">
        <ele>254</ele>
        <time>2018-09-29T13:41:10Z</time>
      </trkpt>
      <trkpt lat="44.80354" lon="1.62754">
        <ele>260</ele>
        <time>2018-09-29T13:41:29Z</time>
      </trkpt>
      <trkpt lat="44.80348" lon="1.62765">
        <ele>257</ele>
        <time>2018-09-29T13:41:42Z</time>
      </trkpt>
      <trkpt lat="44.80343" lon="1.62777">
        <ele>258</ele>
        <time>2018-09-29T13:41:51Z</time>
      </trkpt>
      <trkpt lat="44.80337" lon="1.62788">
        <ele>259</ele>
        <time>2018-09-29T13:42:29Z</time>
      </trkpt>
      <trkpt lat="44.80333" lon="1.628">
        <ele>261</ele>
        <time>2018-09-29T13:42:38Z</time>
      </trkpt>
      <trkpt lat="44.80328" lon="1.62812">
        <ele>261</ele>
        <time>2018-09-29T13:42:49Z</time>
      </trkpt>
      <trkpt lat="44.80322" lon="1.62823">
        <ele>262</ele>
        <time>2018-09-29T13:42:57Z</time>
      </trkpt>
      <trkpt lat="44.80313" lon="1.62825">
        <ele>264</ele>
        <time>2018-09-29T13:43:08Z</time>
      </trkpt>
      <trkpt lat="44.80301" lon="1.62823">
        <ele>261</ele>
        <time>2018-09-29T13:43:17Z</time>
      </trkpt>
      <trkpt lat="44.80292" lon="1.6282">
        <ele>259</ele>
        <time>2018-09-29T13:43:23Z</time>
      </trkpt>
      <trkpt lat="44.80283" lon="1.62812">
        <ele>262</ele>
        <time>2018-09-29T13:43:31Z</time>
      </trkpt>
      <trkpt lat="44.80273" lon="1.62808">
        <ele>267</ele>
        <time>2018-09-29T13:43:38Z</time>
      </trkpt>
      <trkpt lat="44.80263" lon="1.62808">
        <ele>262</ele>
        <time>2018-09-29T13:43:47Z</time>
      </trkpt>
      <trkpt lat="44.80253" lon="1.62811">
        <ele>271</ele>
        <time>2018-09-29T13:43:57Z</time>
      </trkpt>
      <trkpt lat="44.80247" lon="1.62823">
        <ele>270</ele>
        <time>2018-09-29T13:44:20Z</time>
      </trkpt>
      <trkpt lat="44.8024" lon="1.62832">
        <ele>262</ele>
        <time>2018-09-29T13:44:28Z</time>
      </trkpt>
      <trkpt lat="44.8024" lon="1.62845">
        <ele>258</ele>
        <time>2018-09-29T13:44:41Z</time>
      </trkpt>
      <trkpt lat="44.80235" lon="1.62856">
        <ele>261</ele>
        <time>2018-09-29T13:44:49Z</time>
      </trkpt>
      <trkpt lat="44.80232" lon="1.62868">
        <ele>261</ele>
        <time>2018-09-29T13:45:00Z</time>
      </trkpt>
      <trkpt lat="44.80232" lon="1.62881">
        <ele>260</ele>
        <time>2018-09-29T13:45:08Z</time>
      </trkpt>
      <trkpt lat="44.80231" lon="1.62893">
        <ele>259</ele>
        <time>2018-09-29T13:45:24Z</time>
      </trkpt>
      <trkpt lat="44.80227" lon="1.62904">
        <ele>260</ele>
        <time>2018-09-29T13:46:36Z</time>
      </trkpt>
      <trkpt lat="44.80226" lon="1.62918">
        <ele>258</ele>
        <time>2018-09-29T13:46:45Z</time>
      </trkpt>
      <trkpt lat="44.80227" lon="1.62931">
        <ele>256</ele>
        <time>2018-09-29T13:46:52Z</time>
      </trkpt>
      <trkpt lat="44.80222" lon="1.62943">
        <ele>257</ele>
        <time>2018-09-29T13:47:03Z</time>
      </trkpt>
      <trkpt lat="44.80223" lon="1.62959">
        <ele>262</ele>
        <time>2018-09-29T13:47:10Z</time>
      </trkpt>
      <trkpt lat="44.8022" lon="1.6297">
        <ele>261</ele>
        <time>2018-09-29T13:47:20Z</time>
      </trkpt>
      <trkpt lat="44.80218" lon="1.62984">
        <ele>262</ele>
        <time>2018-09-29T13:47:28Z</time>
      </trkpt>
      <trkpt lat="44.80218" lon="1.62998">
        <ele>264</ele>
        <time>2018-09-29T13:47:36Z</time>
      </trkpt>
      <trkpt lat="44.80214" lon="1.6301">
        <ele>263</ele>
        <time>2018-09-29T13:47:44Z</time>
      </trkpt>
      <trkpt lat="44.8021" lon="1.63023">
        <ele>266</ele>
        <time>2018-09-29T13:47:52Z</time>
      </trkpt>
      <trkpt lat="44.80207" lon="1.63036">
        <ele>267</ele>
        <time>2018-09-29T13:48:02Z</time>
      </trkpt>
      <trkpt lat="44.8021" lon="1.63051">
        <ele>267</ele>
        <time>2018-09-29T13:48:10Z</time>
      </trkpt>
      <trkpt lat="44.80209" lon="1.63064">
        <ele>268</ele>
        <time>2018-09-29T13:48:20Z</time>
      </trkpt>
      <trkpt lat="44.80204" lon="1.63075">
        <ele>267</ele>
        <time>2018-09-29T13:48:27Z</time>
      </trkpt>
      <trkpt lat="44.80204" lon="1.63088">
        <ele>269</ele>
        <time>2018-09-29T13:48:36Z</time>
      </trkpt>
      <trkpt lat="44.80201" lon="1.63101">
        <ele>270</ele>
        <time>2018-09-29T13:48:44Z</time>
      </trkpt>
      <trkpt lat="44.802" lon="1.63114">
        <ele>265</ele>
        <time>2018-09-29T13:48:52Z</time>
      </trkpt>
      <trkpt lat="44.80199" lon="1.63127">
        <ele>263</ele>
        <time>2018-09-29T13:49:01Z</time>
      </trkpt>
      <trkpt lat="44.80203" lon="1.6314">
        <ele>264</ele>
        <time>2018-09-29T13:49:09Z</time>
      </trkpt>
      <trkpt lat="44.80209" lon="1.6315">
        <ele>263</ele>
        <time>2018-09-29T13:49:19Z</time>
      </trkpt>
      <trkpt lat="44.80217" lon="1.63156">
        <ele>264</ele>
        <time>2018-09-29T13:49:34Z</time>
      </trkpt>
      <trkpt lat="44.80228" lon="1.63155">
        <ele>269</ele>
        <time>2018-09-29T13:49:45Z</time>
      </trkpt>
      <trkpt lat="44.80236" lon="1.63161">
        <ele>268</ele>
        <time>2018-09-29T13:49:54Z</time>
      </trkpt>
      <trkpt lat="44.80246" lon="1.63164">
        <ele>271</ele>
        <time>2018-09-29T13:50:40Z</time>
      </trkpt>
      <trkpt lat="44.8024" lon="1.63175">
        <ele>264</ele>
        <time>2018-09-29T14:04:35Z</time>
      </trkpt>
      <trkpt lat="44.80228" lon="1.63172">
        <ele>262</ele>
        <time>2018-09-29T14:04:44Z</time>
      </trkpt>
      <trkpt lat="44.80219" lon="1.63168">
        <ele>262</ele>
        <time>2018-09-29T14:04:55Z</time>
      </trkpt>
      <trkpt lat="44.8021" lon="1.63158">
        <ele>262</ele>
        <time>2018-09-29T14:05:07Z</time>
      </trkpt>
      <trkpt lat="44.80202" lon="1.63148">
        <ele>263</ele>
        <time>2018-09-29T14:05:15Z</time>
      </trkpt>
      <trkpt lat="44.80198" lon="1.63136">
        <ele>265</ele>
        <time>2018-09-29T14:05:23Z</time>
      </trkpt>
      <trkpt lat="44.80193" lon="1.63125">
        <ele>264</ele>
        <time>2018-09-29T14:05:33Z</time>
      </trkpt>
      <trkpt lat="44.80193" lon="1.63111">
        <ele>260</ele>
        <time>2018-09-29T14:05:46Z</time>
      </trkpt>
      <trkpt lat="44.80186" lon="1.63122">
        <ele>259</ele>
        <time>2018-09-29T14:06:04Z</time>
      </trkpt>
      <trkpt lat="44.80185" lon="1.63136">
        <ele>259</ele>
        <time>2018-09-29T14:06:13Z</time>
      </trkpt>
      <trkpt lat="44.80176" lon="1.63142">
        <ele>256</ele>
        <time>2018-09-29T14:07:19Z</time>
      </trkpt>
    </trkseg>
  </trk>
</gpx>